Provisional Data: Little Clearfield Creek near Dimeling, PA


Please select a monitoring station.
Please select start date.
Please select start date.

Toggle Unit: C/F Toggle Unit: C/F
Sample Time Temperature (C) Temperature (F) Specific Conductivity (mS/cm) pH   Turbidity (NTU+) DO (mg/L)
4/13/2022 12:00:00 AM 10.42 50.756 0.268 7.56 4.31 10.42
4/13/2022 12:15:00 AM 10.35 50.63 0.268 7.55 5.17 10.43
4/13/2022 12:30:00 AM 10.29 50.522 0.268 7.56 4.21 10.45
4/13/2022 12:45:00 AM 10.22 50.396 0.269 7.55 5.55 10.46
4/13/2022 1:00:00 AM 10.15 50.27 0.269 7.55 4.82 10.46
4/13/2022 1:15:00 AM 10.08 50.144 0.269 7.55 4.11 10.48
4/13/2022 1:30:00 AM 10.01 50.018 0.269 7.54 5.32 10.5
4/13/2022 1:45:00 AM 9.94 49.892 0.269 7.54 5.24 10.51
4/13/2022 2:00:00 AM 9.87 49.766 0.269 7.53 5.56 10.53
4/13/2022 2:15:00 AM 9.79 49.622 0.269 7.53 4.17 10.55
4/13/2022 2:30:00 AM 9.73 49.514 0.269 7.53 5.12 10.56
4/13/2022 2:45:00 AM 9.65 49.37 0.269 7.53 5.18 10.58
4/13/2022 3:00:00 AM 9.58 49.244 0.269 7.53 4.43 10.59
4/13/2022 3:15:00 AM 9.52 49.136 0.269 7.53 4.14 10.61
4/13/2022 3:30:00 AM 9.45 49.01 0.269 7.52 4.36 10.63
4/13/2022 3:45:00 AM 9.38 48.884 0.269 7.52 5.52 10.64
4/13/2022 4:00:00 AM 9.33 48.794 0.269 7.52 3.86 10.66
4/13/2022 4:15:00 AM 9.29 48.722 0.269 7.52 4.43 10.67
4/13/2022 4:30:00 AM 9.23 48.614 0.269 7.52 3.94 10.69
4/13/2022 4:45:00 AM 9.18 48.524 0.269 7.51 4.95 10.7
4/13/2022 5:00:00 AM 9.14 48.452 0.269 7.51 3.95 10.71
4/13/2022 5:15:00 AM 9.1 48.38 0.269 7.51 4 10.72
4/13/2022 5:30:00 AM 9.06 48.308 0.268 7.51 8.14 10.74
4/13/2022 5:45:00 AM 9.02 48.236 0.268 7.51 4.3 10.75
4/13/2022 6:00:00 AM 8.99 48.182 0.268 7.51 5.68 10.76
4/13/2022 6:15:00 AM 8.96 48.128 0.268 7.51 4.25 10.77
4/13/2022 6:30:00 AM 8.94 48.092 0.268 7.5 5.67 10.77
4/13/2022 6:45:00 AM 8.91 48.038 0.268 7.51 4.55 10.79
4/13/2022 7:00:00 AM 8.87 47.966 0.268 7.51 4.28 10.8
4/13/2022 7:15:00 AM 8.85 47.93 0.268 7.51 4.39 10.83
4/13/2022 7:30:00 AM 8.84 47.912 0.268 7.51 4.52 10.86
4/13/2022 7:45:00 AM 8.84 47.912 0.268 7.52 4.24 10.89
4/13/2022 8:00:00 AM 8.85 47.93 0.268 7.52 5.83 10.94
4/13/2022 8:15:00 AM 8.87 47.966 0.268 7.54 3.98 10.99
4/13/2022 8:30:00 AM 8.88 47.984 0.268 7.55 4.03 11.04
4/13/2022 8:45:00 AM 8.94 48.092 0.268 7.56 4.11 11.08
4/13/2022 9:00:00 AM 8.98 48.164 0.268 7.57 4.26 11.13
4/13/2022 9:15:00 AM 9.01 48.218 0.268 7.58 5.19 11.16
4/13/2022 9:30:00 AM 9.05 48.29 0.268 7.6 3.93 11.19
4/13/2022 9:45:00 AM 9.13 48.434 0.268 7.61 3.75 11.23
4/13/2022 10:00:00 AM 9.25 48.65 0.268 7.62 3.72 11.25
4/13/2022 10:15:00 AM 9.32 48.776 0.268 7.63 5.31 11.27
4/13/2022 10:30:00 AM 9.36 48.848 0.268 7.65 3.74 11.29
4/13/2022 10:45:00 AM 9.47 49.046 0.269 7.65 4.02 11.31
4/13/2022 11:00:00 AM 9.61 49.298 0.269 7.67 3.67 11.34
4/13/2022 11:15:00 AM 9.75 49.55 0.269 7.68 3.82 11.35
4/13/2022 11:30:00 AM 9.92 49.856 0.269 7.7 4.94 11.36
4/13/2022 11:45:00 AM 10.07 50.126 0.269 7.72 3.85 11.36
4/13/2022 12:00:00 PM 10.2 50.36 0.27 7.74 4.36 11.35
4/13/2022 12:15:00 PM 10.22 50.396 0.27 7.74 3.92 11.3
4/13/2022 12:30:00 PM 10.24 50.432 0.27 7.74 3.64 11.25
4/13/2022 12:45:00 PM 10.37 50.666 0.27 7.73 4.7 11.24
4/13/2022 1:00:00 PM 10.48 50.864 0.27 7.76 3.78 11.26
4/13/2022 1:15:00 PM 10.58 51.044 0.271 7.77 3.92 11.27
4/13/2022 1:30:00 PM 10.71 51.278 0.271 7.78 3.75 11.27
4/13/2022 1:45:00 PM 10.77 51.386 0.271 7.79 3.73 11.25
4/13/2022 2:00:00 PM 10.86 51.548 0.271 7.81 4.28 11.24
4/13/2022 2:15:00 PM 10.94 51.692 0.271 7.81 3.62 11.22
4/13/2022 2:30:00 PM 11.06 51.908 0.271 7.82 4.06 11.2
4/13/2022 2:45:00 PM 11.17 52.106 0.271 7.83 3.62 11.18
4/13/2022 3:00:00 PM 11.27 52.286 0.272 7.84 3.66 11.16
4/13/2022 3:15:00 PM 11.44 52.592 0.272 7.84 4.76 11.14
4/13/2022 3:30:00 PM 11.64 52.952 0.272 7.85 5.11 11.13
4/13/2022 3:45:00 PM 11.75 53.15 0.272 7.86 4.71 11.1
4/13/2022 4:00:00 PM 11.93 53.474 0.272 7.87 4.13 11.07
4/13/2022 4:15:00 PM 12.12 53.816 0.272 7.88 3.82 11.03
4/13/2022 4:30:00 PM 12.1 53.78 0.272 7.87 8.65 10.97
4/13/2022 4:45:00 PM 12.17 53.906 0.273 7.88 3.88 10.93
4/13/2022 5:00:00 PM 12.18 53.924 0.273 7.86 4.01 10.85
4/13/2022 5:15:00 PM 12.15 53.87 0.273 7.84 4.5 10.75
4/13/2022 5:30:00 PM 12.15 53.87 0.273 7.82 4.62 10.67
4/13/2022 5:45:00 PM 12.16 53.888 0.273 7.81 6.49 10.62
4/13/2022 6:00:00 PM 12.18 53.924 0.274 7.79 4.77 10.56
4/13/2022 6:15:00 PM 12.23 54.014 0.274 7.79 3.94 10.56
4/13/2022 6:30:00 PM 12.24 54.032 0.274 7.79 3.89 10.56
4/13/2022 6:45:00 PM 12.24 54.032 0.274 7.79 3.97 10.53
4/13/2022 7:00:00 PM 12.21 53.978 0.274 7.78 3.74 10.48
4/13/2022 7:15:00 PM 12.17 53.906 0.275 7.76 3.98 10.44
4/13/2022 7:30:00 PM 12.13 53.834 0.275 7.74 3.7 10.38
4/13/2022 7:45:00 PM 12.09 53.762 0.275 7.71 4.84 10.33
4/13/2022 8:00:00 PM 12.06 53.708 0.275 7.7 4.3 10.28
4/13/2022 8:15:00 PM 12.04 53.672 0.275 7.68 3.49 10.23
4/13/2022 8:30:00 PM 12.03 53.654 0.275 7.66 3.43 10.2
4/13/2022 8:45:00 PM 12.03 53.654 0.275 7.65 3.68 10.16
4/13/2022 9:00:00 PM 12.02 53.636 0.276 7.63 4.71 10.14
4/13/2022 9:15:00 PM 12 53.6 0.276 7.62 3.65 10.11
4/13/2022 9:30:00 PM 11.98 53.564 0.276 7.62 4.2 10.1
4/13/2022 9:45:00 PM 11.95 53.51 0.276 7.61 3.66 10.09
4/13/2022 10:00:00 PM 11.92 53.456 0.276 7.6 3.55 10.08
4/13/2022 10:15:00 PM 11.88 53.384 0.276 7.58 4.42 10.07
4/13/2022 10:30:00 PM 11.83 53.294 0.276 7.57 4.33 10.06
4/13/2022 10:45:00 PM 11.78 53.204 0.277 7.57 4.21 10.05
4/13/2022 11:00:00 PM 11.74 53.132 0.277 7.56 3.53 10.05
4/13/2022 11:15:00 PM 11.71 53.078 0.277 7.55 4.36 10.05
4/13/2022 11:30:00 PM 11.66 52.988 0.277 7.55 4.44 10.05
4/13/2022 11:45:00 PM 11.61 52.898 0.277 7.54 4.15 10.05
4/14/2022 12:00:00 AM 11.56 52.808 0.277 7.53 4.48 10.05
4/14/2022 12:15:00 AM 11.52 52.736 0.278 7.53 3.4 10.06
4/14/2022 12:30:00 AM 11.47 52.646 0.278 7.53 4.99 10.06
4/14/2022 12:45:00 AM 11.44 52.592 0.278 7.52 5.04 10.06
4/14/2022 1:00:00 AM 11.42 52.556 0.278 7.52 4.58 10.07
4/14/2022 1:15:00 AM 11.38 52.484 0.278 7.52 3.52 10.07
4/14/2022 1:30:00 AM 11.34 52.412 0.278 7.52 3.57 10.07
4/14/2022 1:45:00 AM 11.3 52.34 0.279 7.52 3.56 10.08
4/14/2022 2:00:00 AM 11.26 52.268 0.279 7.52 4.43 10.09
4/14/2022 2:15:00 AM 11.21 52.178 0.279 7.51 4.78 10.1
4/14/2022 2:30:00 AM 11.17 52.106 0.279 7.51 4.68 10.1
4/14/2022 2:45:00 AM 11.12 52.016 0.279 7.51 4.47 10.12
4/14/2022 3:00:00 AM 11.07 51.926 0.279 7.51 4.47 10.13
4/14/2022 3:15:00 AM 11.02 51.836 0.28 7.51 5.01 10.13
4/14/2022 3:30:00 AM 10.97 51.746 0.28 7.51 3.38 10.15
4/14/2022 3:45:00 AM 10.92 51.656 0.28 7.52 3.73 10.15
4/14/2022 4:00:00 AM 10.87 51.566 0.28 7.51 3.68 10.16
4/14/2022 4:15:00 AM 10.82 51.476 0.28 7.52 3.62 10.18
4/14/2022 4:30:00 AM 10.78 51.404 0.28 7.51 3.67 10.19
4/14/2022 4:45:00 AM 10.73 51.314 0.28 7.51 3.65 10.2
4/14/2022 5:00:00 AM 10.68 51.224 0.281 7.51 4.84 10.21
4/14/2022 5:15:00 AM 10.63 51.134 0.281 7.51 4.93 10.22
4/14/2022 5:30:00 AM 10.58 51.044 0.281 7.51 4.51 10.24
4/14/2022 5:45:00 AM 10.53 50.954 0.281 7.51 3.45 10.25
4/14/2022 6:00:00 AM 10.48 50.864 0.281 7.51 4.34 10.26
4/14/2022 6:15:00 AM 10.44 50.792 0.281 7.51 4.56 10.27
4/14/2022 6:30:00 AM 10.4 50.72 0.281 7.51 3.94 10.28
4/14/2022 6:45:00 AM 10.37 50.666 0.282 7.51 3.84 10.29
4/14/2022 7:00:00 AM 10.35 50.63 0.282 7.51 5.79 10.33
4/14/2022 7:15:00 AM 10.33 50.594 0.282 7.52 4.64 10.37
4/14/2022 7:30:00 AM 10.31 50.558 0.282 7.53 4.11 10.42
4/14/2022 7:45:00 AM 10.3 50.54 0.282 7.53 3.74 10.45
4/14/2022 8:00:00 AM 10.29 50.522 0.282 7.54 5.04 10.49
4/14/2022 8:15:00 AM 10.31 50.558 0.282 7.54 4.59 10.54
4/14/2022 8:30:00 AM 10.35 50.63 0.282 7.56 3.58 10.6
4/14/2022 8:45:00 AM 10.41 50.738 0.282 7.58 4.62 10.67
4/14/2022 9:00:00 AM 10.5 50.9 0.282 7.6 3.9 10.72
4/14/2022 9:15:00 AM 10.6 51.08 0.282 7.62 4.03 10.76
4/14/2022 9:30:00 AM 10.76 51.368 0.282 7.65 3.73 10.8
4/14/2022 9:45:00 AM 10.86 51.548 0.282 7.67 3.77 10.82
4/14/2022 10:00:00 AM 10.93 51.674 0.283 7.68 4.2 10.82
4/14/2022 10:15:00 AM 10.99 51.782 0.283 7.69 3.9 10.82
4/14/2022 10:30:00 AM 11.09 51.962 0.283 7.71 3.65 10.83
4/14/2022 10:45:00 AM 11.19 52.142 0.283 7.72 3.64 10.84
4/14/2022 11:00:00 AM 11.23 52.214 0.283 7.73 4.2 10.81
4/14/2022 11:15:00 AM 11.29 52.322 0.283 7.74 3.77 10.8
4/14/2022 11:30:00 AM 11.34 52.412 0.283 7.74 4.23 10.79
4/14/2022 11:45:00 AM 11.36 52.448 0.282 7.74 5.35 10.72
4/14/2022 12:00:00 PM 11.37 52.466 0.282 7.73 5.18 10.71
4/14/2022 12:15:00 PM 11.37 52.466 0.282 7.74 4.23 10.71
4/14/2022 12:30:00 PM 11.37 52.466 0.283 7.74 4.66 10.72
4/14/2022 12:45:00 PM 11.4 52.52 0.283 7.76 3.54 10.76
4/14/2022 1:00:00 PM 11.42 52.556 0.283 7.78 3.54 10.79
4/14/2022 1:15:00 PM 11.43 52.574 0.283 7.78 4.82 10.8
4/14/2022 1:30:00 PM 11.45 52.61 0.283 7.8 3.73 10.82
4/14/2022 1:45:00 PM 11.49 52.682 0.283 7.81 3.93 10.84
4/14/2022 2:00:00 PM 11.54 52.772 0.283 7.82 4.28 10.86
4/14/2022 2:15:00 PM 11.56 52.808 0.283 7.83 3.58 10.87
4/14/2022 2:30:00 PM 11.58 52.844 0.283 7.84 3.47 10.88
4/14/2022 2:45:00 PM 11.73 53.114 0.283 7.84 4.29 10.89
4/14/2022 3:00:00 PM 11.78 53.204 0.283 7.85 4.13 10.89
4/14/2022 3:15:00 PM 11.83 53.294 0.284 7.86 3.78 10.9
4/14/2022 3:30:00 PM 11.96 53.528 0.284 7.87 3.79 10.9
4/14/2022 3:45:00 PM 12.09 53.762 0.284 7.88 4.4 10.9
4/14/2022 4:00:00 PM 12.15 53.87 0.284 7.88 4.2 10.88
4/14/2022 4:15:00 PM 12.26 54.068 0.284 7.89 3.9 10.86
4/14/2022 4:30:00 PM 12.32 54.176 0.284 7.89 3.56 10.84
4/14/2022 4:45:00 PM 12.31 54.158 0.284 7.89 3.84 10.81
4/14/2022 5:00:00 PM 12.25 54.05 0.284 7.89 4.4 10.78
4/14/2022 5:15:00 PM 12.21 53.978 0.285 7.88 4.08 10.76
4/14/2022 5:30:00 PM 12.18 53.924 0.285 7.88 4.26 10.74
4/14/2022 5:45:00 PM 12.13 53.834 0.285 7.87 4.68 10.71
4/14/2022 6:00:00 PM 12.08 53.744 0.285 7.87 4.01 10.7
4/14/2022 6:15:00 PM 12.04 53.672 0.285 7.86 3.86 10.68
4/14/2022 6:30:00 PM 12 53.6 0.285 7.86 3.63 10.65
4/14/2022 6:45:00 PM 11.97 53.546 0.285 7.84 4.42 10.61
4/14/2022 7:00:00 PM 11.9 53.42 0.286 7.83 3.68 10.57
4/14/2022 7:15:00 PM 11.85 53.33 0.286 7.82 3.36 10.51
4/14/2022 7:30:00 PM 11.79 53.222 0.286 7.79 3.5 10.46
4/14/2022 7:45:00 PM 11.72 53.096 0.286 7.77 3.44 10.42
4/14/2022 8:00:00 PM 11.64 52.952 0.286 7.75 3.45 10.39
4/14/2022 8:15:00 PM 11.55 52.79 0.286 7.74 3.44 10.36
4/14/2022 8:30:00 PM 11.45 52.61 0.286 7.72 3.42 10.34
4/14/2022 8:45:00 PM 11.36 52.448 0.286 7.71 3.4 10.33
4/14/2022 9:00:00 PM 11.27 52.286 0.286 7.7 3.53 10.32
4/14/2022 9:15:00 PM 11.18 52.124 0.287 7.69 3.62 10.32
4/14/2022 9:30:00 PM 11.09 51.962 0.287 7.68 3.5 10.31
4/14/2022 9:45:00 PM 11 51.8 0.287 7.67 4.21 10.32
4/14/2022 10:00:00 PM 10.92 51.656 0.287 7.66 3.57 10.32
4/14/2022 10:15:00 PM 10.84 51.512 0.287 7.65 3.44 10.33
4/14/2022 10:30:00 PM 10.76 51.368 0.287 7.65 3.71 10.33
4/14/2022 10:45:00 PM 10.68 51.224 0.288 7.64 3.55 10.34
4/14/2022 11:00:00 PM 10.6 51.08 0.288 7.64 3.33 10.35
4/14/2022 11:15:00 PM 10.51 50.918 0.288 7.63 3.57 10.36
4/14/2022 11:30:00 PM 10.42 50.756 0.288 7.62 4.39 10.38
4/14/2022 11:45:00 PM 10.32 50.576 0.288 7.62 4.37 10.4
4/15/2022 12:00:00 AM 10.21 50.378 0.289 7.62 3.59 10.43
4/15/2022 12:15:00 AM 10.11 50.198 0.289 7.62 3.72 10.45
4/15/2022 12:30:00 AM 10 50 0.289 7.61 3.62 10.47
4/15/2022 12:45:00 AM 9.9 49.82 0.289 7.61 4.48 10.5
4/15/2022 1:00:00 AM 9.79 49.622 0.289 7.6 3.44 10.52
4/15/2022 1:15:00 AM 9.69 49.442 0.289 7.6 3.48 10.54
4/15/2022 1:30:00 AM 9.6 49.28 0.29 7.6 3.59 10.56
4/15/2022 1:45:00 AM 9.51 49.118 0.29 7.6 3.66 10.58
4/15/2022 2:00:00 AM 9.42 48.956 0.29 7.59 3.37 10.6
4/15/2022 2:15:00 AM 9.34 48.812 0.29 7.6 3.4 10.62
4/15/2022 2:30:00 AM 9.27 48.686 0.29 7.59 4.54 10.64
4/15/2022 2:45:00 AM 9.18 48.524 0.29 7.59 3.57 10.67
4/15/2022 3:00:00 AM 9.1 48.38 0.29 7.59 4.52 10.69
4/15/2022 3:15:00 AM 9.02 48.236 0.291 7.58 4.45 10.71
4/15/2022 3:30:00 AM 8.94 48.092 0.291 7.58 4.27 10.73
4/15/2022 3:45:00 AM 8.85 47.93 0.291 7.59 3.36 10.75
4/15/2022 4:00:00 AM 8.77 47.786 0.291 7.58 4.27 10.79
4/15/2022 4:15:00 AM 8.68 47.624 0.291 7.58 3.34 10.81
4/15/2022 4:30:00 AM 8.59 47.462 0.291 7.58 3.72 10.84
4/15/2022 4:45:00 AM 8.5 47.3 0.292 7.58 3.59 10.87
4/15/2022 5:00:00 AM 8.41 47.138 0.292 7.58 3.71 10.89
4/15/2022 5:15:00 AM 8.32 46.976 0.292 7.58 3.62 10.92
4/15/2022 5:30:00 AM 8.23 46.814 0.292 7.58 3.54 10.94
4/15/2022 5:45:00 AM 8.15 46.67 0.292 7.58 3.51 10.97
4/15/2022 6:00:00 AM 8.06 46.508 0.292 7.58 3.44 11
4/15/2022 6:15:00 AM 7.98 46.364 0.293 7.58 3.75 11.02
4/15/2022 6:30:00 AM 7.89 46.202 0.293 7.58 3.74 11.04
4/15/2022 6:45:00 AM 7.81 46.058 0.293 7.57 3.76 11.08
4/15/2022 7:00:00 AM 7.74 45.932 0.293 7.58 3.54 11.12
4/15/2022 7:15:00 AM 7.66 45.788 0.293 7.58 4.12 11.16
4/15/2022 7:30:00 AM 7.6 45.68 0.293 7.59 3.42 11.21
4/15/2022 7:45:00 AM 7.54 45.572 0.294 7.59 3.49 11.25
4/15/2022 8:00:00 AM 7.49 45.482 0.294 7.6 3.36 11.3
4/15/2022 8:15:00 AM 7.47 45.446 0.294 7.61 3.29 11.35
4/15/2022 8:30:00 AM 7.46 45.428 0.294 7.61 3.37 11.4
4/15/2022 8:45:00 AM 7.45 45.41 0.294 7.62 3.29 11.44
4/15/2022 9:00:00 AM 7.46 45.428 0.294 7.63 4.24 11.48
4/15/2022 9:15:00 AM 7.49 45.482 0.294 7.64 3.2 11.51
4/15/2022 9:30:00 AM 7.53 45.554 0.294 7.64 3.42 11.55
4/15/2022 9:45:00 AM 7.6 45.68 0.294 7.65 3.49 11.58
4/15/2022 10:00:00 AM 7.68 45.824 0.294 7.66 3.5 11.6
4/15/2022 10:15:00 AM 7.77 45.986 0.295 7.66 4.45 11.61
4/15/2022 10:30:00 AM 7.87 46.166 0.295 7.68 3.42 11.62
4/15/2022 10:45:00 AM 7.99 46.382 0.295 7.68 4.43 11.63
4/15/2022 11:00:00 AM 8.12 46.616 0.295 7.7 4.09 11.64
4/15/2022 11:15:00 AM 8.26 46.868 0.295 7.71 3.18 11.64
4/15/2022 11:30:00 AM 8.43 47.174 0.295 7.72 3.2 11.63
4/15/2022 11:45:00 AM 8.61 47.498 0.295 7.72 4.46 11.62
4/15/2022 12:00:00 PM 8.79 47.822 0.295 7.73 3.53 11.6
4/15/2022 12:15:00 PM 8.99 48.182 0.295 7.74 3.76 11.59
4/15/2022 12:30:00 PM 9.18 48.524 0.295 7.75 3.27 11.57
4/15/2022 12:45:00 PM 9.38 48.884 0.295 7.76 3.12 11.55
4/15/2022 1:00:00 PM 9.58 49.244 0.295 7.77 3.41 11.53
4/15/2022 1:15:00 PM 9.85 49.73 0.295 7.77 4.03 11.5
4/15/2022 1:30:00 PM 10.09 50.162 0.296 7.79 4.08 11.47
4/15/2022 1:45:00 PM 10.32 50.576 0.296 7.8 3.47 11.42
4/15/2022 2:00:00 PM 10.52 50.936 0.296 7.8 4.31 11.38
4/15/2022 2:15:00 PM 10.73 51.314 0.296 7.82 3.85 11.35
4/15/2022 2:30:00 PM 10.97 51.746 0.296 7.82 3.25 11.31
4/15/2022 2:45:00 PM 11.07 51.926 0.296 7.82 4.37 11.25
4/15/2022 3:00:00 PM 11.22 52.196 0.296 7.83 3.14 11.2
4/15/2022 3:15:00 PM 11.46 52.628 0.297 7.83 4.32 11.17
4/15/2022 3:30:00 PM 11.64 52.952 0.296 7.84 4.27 11.13
4/15/2022 3:45:00 PM 11.75 53.15 0.297 7.85 3.47 11.1
4/15/2022 4:00:00 PM 11.88 53.384 0.297 7.85 4.32 11.05
4/15/2022 4:15:00 PM 11.99 53.582 0.297 7.86 4.01 11.01
4/15/2022 4:30:00 PM 12.06 53.708 0.297 7.86 4.64 10.98
4/15/2022 4:45:00 PM 12.1 53.78 0.297 7.87 4.26 10.94
4/15/2022 5:00:00 PM 12.13 53.834 0.298 7.87 5.01 10.91
4/15/2022 5:15:00 PM 12.13 53.834 0.298 7.87 3.52 10.87
4/15/2022 5:30:00 PM 12.11 53.798 0.298 7.87 4.09 10.84
4/15/2022 5:45:00 PM 12.05 53.69 0.298 7.87 3.38 10.81
4/15/2022 6:00:00 PM 12 53.6 0.298 7.87 3.53 10.77
4/15/2022 6:15:00 PM 11.93 53.474 0.299 7.86 3.6 10.74
4/15/2022 6:30:00 PM 11.86 53.348 0.299 7.86 3.63 10.7
4/15/2022 6:45:00 PM 11.79 53.222 0.299 7.85 4.01 10.68
4/15/2022 7:00:00 PM 11.73 53.114 0.299 7.84 3.51 10.64
4/15/2022 7:15:00 PM 11.65 52.97 0.299 7.82 3.31 10.58
4/15/2022 7:30:00 PM 11.59 52.862 0.299 7.8 3.4 10.53
4/15/2022 7:45:00 PM 11.53 52.754 0.3 7.78 4.06 10.48
4/15/2022 8:00:00 PM 11.47 52.646 0.3 7.77 3.02 10.43
4/15/2022 8:15:00 PM 11.41 52.538 0.3 7.75 3.17 10.4
4/15/2022 8:30:00 PM 11.35 52.43 0.301 7.74 3.26 10.37
4/15/2022 8:45:00 PM 11.3 52.34 0.301 7.72 4.01 10.35
4/15/2022 9:00:00 PM 11.24 52.232 0.301 7.71 4.19 10.34
4/15/2022 9:15:00 PM 11.17 52.106 0.301 7.7 3.16 10.33
4/15/2022 9:30:00 PM 11.11 51.998 0.301 7.69 4.17 10.32
4/15/2022 9:45:00 PM 11.05 51.89 0.301 7.68 4.31 10.32
4/15/2022 10:00:00 PM 11 51.8 0.302 7.67 4.19 10.31
4/15/2022 10:15:00 PM 10.95 51.71 0.302 7.67 3.16 10.31
4/15/2022 10:30:00 PM 10.9 51.62 0.302 7.66 4.11 10.31
4/15/2022 10:45:00 PM 10.85 51.53 0.302 7.66 4.55 10.31
4/15/2022 11:00:00 PM 10.8 51.44 0.302 7.65 4.12 10.31
4/15/2022 11:15:00 PM 10.75 51.35 0.303 7.65 3.05 10.31
4/15/2022 11:30:00 PM 10.7 51.26 0.303 7.64 3.87 10.32
4/15/2022 11:45:00 PM 10.64 51.152 0.303 7.64 3.09 10.33
4/16/2022 12:00:00 AM 10.58 51.044 0.303 7.64 3.94 10.34
4/16/2022 12:15:00 AM 10.51 50.918 0.303 7.63 3.04 10.34
4/16/2022 12:30:00 AM 10.44 50.792 0.303 7.63 3.39 10.36
4/16/2022 12:45:00 AM 10.38 50.684 0.304 7.62 3.28 10.37
4/16/2022 1:00:00 AM 10.32 50.576 0.304 7.62 4.1 10.39
4/16/2022 1:15:00 AM 10.26 50.468 0.304 7.62 4.09 10.4
4/16/2022 1:30:00 AM 10.2 50.36 0.304 7.62 3.15 10.41
4/16/2022 1:45:00 AM 10.14 50.252 0.305 7.62 3.08 10.43
4/16/2022 2:00:00 AM 10.08 50.144 0.305 7.62 3.16 10.44
4/16/2022 2:15:00 AM 10.03 50.054 0.305 7.61 4.48 10.45
4/16/2022 2:30:00 AM 9.97 49.946 0.305 7.61 3.34 10.46
4/16/2022 2:45:00 AM 9.92 49.856 0.305 7.61 3.29 10.47
4/16/2022 3:00:00 AM 9.88 49.784 0.305 7.6 4.14 10.48
4/16/2022 3:15:00 AM 9.84 49.712 0.306 7.6 4.14 10.49
4/16/2022 3:30:00 AM 9.81 49.658 0.306 7.6 3.99 10.51
4/16/2022 3:45:00 AM 9.77 49.586 0.306 7.6 3.15 10.52
4/16/2022 4:00:00 AM 9.74 49.532 0.306 7.6 3.19 10.53
4/16/2022 4:15:00 AM 9.71 49.478 0.306 7.6 3.13 10.54
4/16/2022 4:30:00 AM 9.68 49.424 0.306 7.6 3.09 10.56
4/16/2022 4:45:00 AM 9.64 49.352 0.306 7.6 3.11 10.57
4/16/2022 5:00:00 AM 9.6 49.28 0.307 7.6 3.11 10.58
4/16/2022 5:15:00 AM 9.57 49.226 0.307 7.6 3.08 10.59
4/16/2022 5:30:00 AM 9.54 49.172 0.307 7.6 3.03 10.6
4/16/2022 5:45:00 AM 9.51 49.118 0.307 7.59 4.14 10.61
4/16/2022 6:00:00 AM 9.48 49.064 0.307 7.6 3.2 10.62
4/16/2022 6:15:00 AM 9.45 49.01 0.306 7.59 4.28 10.64
4/16/2022 6:30:00 AM 9.42 48.956 0.306 7.6 3.64 10.65
4/16/2022 6:45:00 AM 9.39 48.902 0.306 7.6 4.48 10.66
4/16/2022 7:00:00 AM 9.37 48.866 0.307 7.6 3.26 10.67
4/16/2022 7:15:00 AM 9.36 48.848 0.307 7.61 3.31 10.68
4/16/2022 7:30:00 AM 9.35 48.83 0.307 7.61 3.9 10.71
4/16/2022 7:45:00 AM 9.35 48.83 0.307 7.62 4.67 10.76
4/16/2022 8:00:00 AM 9.35 48.83 0.307 7.62 4.38 10.78
4/16/2022 8:15:00 AM 9.35 48.83 0.307 7.63 3.48 10.8
4/16/2022 8:30:00 AM 9.37 48.866 0.307 7.64 3.81 10.84
4/16/2022 8:45:00 AM 9.39 48.902 0.307 7.64 5.75 10.87
4/16/2022 9:00:00 AM 9.43 48.974 0.307 7.66 3.27 10.92
4/16/2022 9:15:00 AM 9.45 49.01 0.307 7.67 3.7 10.94
4/16/2022 9:30:00 AM 9.48 49.064 0.307 7.68 3.87 10.96
4/16/2022 9:45:00 AM 9.49 49.082 0.307 7.68 5.29 10.98
4/16/2022 10:00:00 AM 9.51 49.118 0.308 7.69 3.31 10.97
4/16/2022 10:15:00 AM 9.54 49.172 0.308 7.7 3.43 10.99
4/16/2022 10:30:00 AM 9.61 49.298 0.308 7.7 4.36 11.02
4/16/2022 10:45:00 AM 9.68 49.424 0.308 7.72 3.22 11.06
4/16/2022 11:00:00 AM 9.7 49.46 0.308 7.73 5.79 11.05
4/16/2022 11:15:00 AM 9.72 49.496 0.308 7.73 4.62 11.05
4/16/2022 11:30:00 AM 9.8 49.64 0.308 7.74 3.33 11.06
4/16/2022 11:45:00 AM 9.81 49.658 0.308 7.74 4.94 11.05
4/16/2022 12:00:00 PM 9.81 49.658 0.308 7.75 3.15 11.04
4/16/2022 12:15:00 PM 9.81 49.658 0.309 7.74 3.17 11
4/16/2022 12:30:00 PM 9.86 49.748 0.309 7.74 6.49 11
4/16/2022 12:45:00 PM 9.88 49.784 0.308 7.75 3.48 11
4/16/2022 1:00:00 PM 9.89 49.802 0.308 7.75 3.47 10.98
4/16/2022 1:15:00 PM 9.88 49.784 0.308 7.74 3.48 10.94
4/16/2022 1:30:00 PM 9.87 49.766 0.307 7.73 3.41 10.93
4/16/2022 1:45:00 PM 9.89 49.802 0.307 7.73 3.78 10.94
4/16/2022 2:00:00 PM 10 50 0.307 7.74 4.07 10.98
4/16/2022 2:15:00 PM 10 50 0.307 7.75 3.48 11
4/16/2022 2:30:00 PM 10.01 50.018 0.307 7.76 4.64 11.01
4/16/2022 2:45:00 PM 10.01 50.018 0.307 7.76 4.55 11
4/16/2022 3:00:00 PM 10.01 50.018 0.307 7.77 4.24 11
4/16/2022 3:15:00 PM 10.01 50.018 0.307 7.76 4.58 10.98
4/16/2022 3:30:00 PM 10.01 50.018 0.307 7.77 3.42 10.99
4/16/2022 3:45:00 PM 10 50 0.307 7.76 5.62 10.98
4/16/2022 4:00:00 PM 10.02 50.036 0.307 7.77 3.69 10.99
4/16/2022 4:15:00 PM 10.01 50.018 0.307 7.76 4.83 10.98
4/16/2022 4:30:00 PM 9.99 49.982 0.307 7.77 3.62 10.97
4/16/2022 4:45:00 PM 9.97 49.946 0.307 7.76 4.93 10.94
4/16/2022 5:00:00 PM 9.94 49.892 0.307 7.75 4.47 10.91
4/16/2022 5:15:00 PM 9.92 49.856 0.307 7.75 5.64 10.89
4/16/2022 5:30:00 PM 9.89 49.802 0.307 7.74 4.64 10.87
4/16/2022 5:45:00 PM 9.87 49.766 0.307 7.74 4.75 10.87
4/16/2022 6:00:00 PM 9.85 49.73 0.308 7.73 4.85 10.86
4/16/2022 6:15:00 PM 9.83 49.694 0.308 7.73 4.17 10.85
4/16/2022 6:30:00 PM 9.81 49.658 0.309 7.73 4.33 10.84
4/16/2022 6:45:00 PM 9.78 49.604 0.309 7.72 5.35 10.83
4/16/2022 7:00:00 PM 9.76 49.568 0.309 7.71 5.13 10.82
4/16/2022 7:15:00 PM 9.73 49.514 0.309 7.71 5.35 10.81
4/16/2022 7:30:00 PM 9.71 49.478 0.309 7.71 4.22 10.8
4/16/2022 7:45:00 PM 9.67 49.406 0.309 7.7 4.74 10.79
4/16/2022 8:00:00 PM 9.64 49.352 0.31 7.69 5.23 10.77
4/16/2022 8:15:00 PM 9.6 49.28 0.31 7.69 4.14 10.75
4/16/2022 8:30:00 PM 9.57 49.226 0.31 7.68 4.24 10.74
4/16/2022 8:45:00 PM 9.53 49.154 0.31 7.68 4.71 10.73
4/16/2022 9:00:00 PM 9.51 49.118 0.31 7.67 5.65 10.73
4/16/2022 9:15:00 PM 9.47 49.046 0.31 7.67 5.54 10.73
4/16/2022 9:30:00 PM 9.42 48.956 0.31 7.67 4.32 10.73
4/16/2022 9:45:00 PM 9.37 48.866 0.31 7.66 4.06 10.73
4/16/2022 10:00:00 PM 9.31 48.758 0.31 7.66 4.32 10.74
4/16/2022 10:15:00 PM 9.25 48.65 0.31 7.66 5.31 10.74
4/16/2022 10:30:00 PM 9.21 48.578 0.31 7.66 4.29 10.75
4/16/2022 10:45:00 PM 9.17 48.506 0.31 7.65 4.35 10.75
4/16/2022 11:00:00 PM 9.12 48.416 0.31 7.65 5.62 10.76
4/16/2022 11:15:00 PM 9.06 48.308 0.31 7.65 4.51 10.77
4/16/2022 11:30:00 PM 8.99 48.182 0.31 7.65 4.63 10.78
4/16/2022 11:45:00 PM 8.91 48.038 0.31 7.65 4.64 10.8
4/17/2022 12:00:00 AM 8.85 47.93 0.309 7.65 5 10.81
4/17/2022 12:15:00 AM 8.78 47.804 0.309 7.64 5.7 10.82
4/17/2022 12:30:00 AM 8.73 47.714 0.309 7.64 4.8 10.83
4/17/2022 12:45:00 AM 8.68 47.624 0.309 7.64 4.88 10.84
4/17/2022 1:00:00 AM 8.62 47.516 0.309 7.64 4.68 10.87
4/17/2022 1:15:00 AM 8.54 47.372 0.309 7.64 5.09 10.88
4/17/2022 1:30:00 AM 8.47 47.246 0.309 7.64 5.33 10.9
4/17/2022 1:45:00 AM 8.39 47.102 0.309 7.63 5.28 10.92
4/17/2022 2:00:00 AM 8.32 46.976 0.309 7.64 5.17 10.94
4/17/2022 2:15:00 AM 8.25 46.85 0.309 7.64 5.13 10.96
4/17/2022 2:30:00 AM 8.18 46.724 0.308 7.64 5.02 10.98
4/17/2022 2:45:00 AM 8.11 46.598 0.308 7.64 5.26 11
4/17/2022 3:00:00 AM 8.05 46.49 0.308 7.63 4.97 11.02
4/17/2022 3:15:00 AM 7.98 46.364 0.308 7.63 5.22 11.04
4/17/2022 3:30:00 AM 7.92 46.256 0.308 7.63 4.82 11.05
4/17/2022 3:45:00 AM 7.86 46.148 0.308 7.63 4.84 11.07
4/17/2022 4:00:00 AM 7.79 46.022 0.308 7.63 4.84 11.09
4/17/2022 4:15:00 AM 7.73 45.914 0.309 7.63 4.77 11.11
4/17/2022 4:30:00 AM 7.67 45.806 0.309 7.63 5.97 11.12
4/17/2022 4:45:00 AM 7.62 45.716 0.309 7.63 4.85 11.15
4/17/2022 5:00:00 AM 7.57 45.626 0.31 7.63 4.79 11.16
4/17/2022 5:15:00 AM 7.52 45.536 0.31 7.63 4.31 11.18
4/17/2022 5:30:00 AM 7.48 45.464 0.31 7.63 4.51 11.19
4/17/2022 5:45:00 AM 7.44 45.392 0.31 7.63 4.66 11.21
4/17/2022 6:00:00 AM 7.4 45.32 0.31 7.63 4.46 11.23
4/17/2022 6:15:00 AM 7.36 45.248 0.31 7.63 5.41 11.24
4/17/2022 6:30:00 AM 7.32 45.176 0.311 7.63 5 11.26
4/17/2022 6:45:00 AM 7.29 45.122 0.311 7.63 5.59 11.27
4/17/2022 7:00:00 AM 7.25 45.05 0.311 7.64 5.28 11.3
4/17/2022 7:15:00 AM 7.22 44.996 0.311 7.64 4.92 11.33
4/17/2022 7:30:00 AM 7.19 44.942 0.311 7.64 6.39 11.35
4/17/2022 7:45:00 AM 7.16 44.888 0.311 7.64 7.59 11.38
4/17/2022 8:00:00 AM 7.13 44.834 0.311 7.65 5.83 11.42
4/17/2022 8:15:00 AM 7.11 44.798 0.311 7.65 6.94 11.47
4/17/2022 8:30:00 AM 7.12 44.816 0.311 7.66 7.32 11.52
4/17/2022 8:45:00 AM 7.11 44.798 0.311 7.67 4.33 11.57
4/17/2022 9:00:00 AM 7.09 44.762 0.311 7.68 4.16 11.6
4/17/2022 9:15:00 AM 7.12 44.816 0.31 7.69 5.04 11.64
4/17/2022 9:30:00 AM 7.04 44.672 0.31 7.7 7.94 11.67
4/17/2022 9:45:00 AM 6.95 44.51 0.31 7.7 18.48 11.68
4/17/2022 10:00:00 AM 6.97 44.546 0.309 7.7 4.54 11.71
4/17/2022 10:15:00 AM 7.08 44.744 0.309 7.71 4.44 11.75
4/17/2022 10:30:00 AM 7.17 44.906 0.309 7.72 4.22 11.78
4/17/2022 10:45:00 AM 7.25 45.05 0.308 7.72 8.4 11.8
4/17/2022 11:00:00 AM 7.29 45.122 0.308 7.73 4.61 11.82
4/17/2022 11:15:00 AM 7.3 45.14 0.308 7.73 5.72 11.85
4/17/2022 11:30:00 AM 7.35 45.23 0.307 7.75 4.95 11.87
4/17/2022 11:45:00 AM 7.52 45.536 0.307 7.75 3.9 11.88
4/17/2022 12:00:00 PM 7.53 45.554 0.307 7.76 4.38 11.89
4/17/2022 12:15:00 PM 7.57 45.626 0.306 7.76 4.9 11.9
4/17/2022 12:30:00 PM 7.65 45.77 0.306 7.77 4.65 11.9
4/17/2022 12:45:00 PM 7.78 46.004 0.306 7.78 4.28 11.9
4/17/2022 1:00:00 PM 7.87 46.166 0.306 7.78 4.46 11.89
4/17/2022 1:15:00 PM 8.07 46.526 0.305 7.77 11.56 11.83
4/17/2022 1:30:00 PM 8.25 46.85 0.305 7.79 4.08 11.87
4/17/2022 1:45:00 PM 8.56 47.408 0.305 7.8 4.1 11.84
4/17/2022 2:00:00 PM 8.56 47.408 0.304 7.8 3.91 11.8
4/17/2022 2:15:00 PM 8.65 47.57 0.304 7.8 4.94 11.77
4/17/2022 2:30:00 PM 8.88 47.984 0.304 7.8 4.54 11.75
4/17/2022 2:45:00 PM 9.03 48.254 0.303 7.81 4.22 11.72
4/17/2022 3:00:00 PM 9.13 48.434 0.303 7.81 3.93 11.69
4/17/2022 3:15:00 PM 9.36 48.848 0.303 7.81 5.07 11.66
4/17/2022 3:30:00 PM 9.52 49.136 0.302 7.81 3.58 11.59
4/17/2022 3:45:00 PM 9.7 49.46 0.302 7.82 4.93 11.57
4/17/2022 4:00:00 PM 9.79 49.622 0.302 7.83 3.73 11.53
4/17/2022 4:15:00 PM 9.94 49.892 0.302 7.83 3.79 11.5
4/17/2022 4:30:00 PM 9.99 49.982 0.301 7.83 4.74 11.48
4/17/2022 4:45:00 PM 9.99 49.982 0.301 7.83 4.67 11.45
4/17/2022 5:00:00 PM 9.86 49.748 0.301 7.83 3.78 11.43
4/17/2022 5:15:00 PM 9.73 49.514 0.301 7.82 5 11.4
4/17/2022 5:30:00 PM 9.68 49.424 0.3 7.82 3.9 11.39
4/17/2022 5:45:00 PM 9.6 49.28 0.3 7.82 3.84 11.37
4/17/2022 6:00:00 PM 9.56 49.208 0.3 7.82 4.29 11.36
4/17/2022 6:15:00 PM 9.51 49.118 0.3 7.81 6.37 11.35
4/17/2022 6:30:00 PM 9.43 48.974 0.3 7.8 4.94 11.33
4/17/2022 6:45:00 PM 9.35 48.83 0.3 7.8 3.89 11.31
4/17/2022 7:00:00 PM 9.25 48.65 0.3 7.79 5.92 11.29
4/17/2022 7:15:00 PM 9.17 48.506 0.3 7.78 5.75 11.25
4/17/2022 7:30:00 PM 9.1 48.38 0.3 7.77 5.57 11.21
4/17/2022 7:45:00 PM 9.04 48.272 0.3 7.76 4.46 11.18
4/17/2022 8:00:00 PM 8.96 48.128 0.3 7.75 3.68 11.16
4/17/2022 8:15:00 PM 8.87 47.966 0.3 7.74 3.57 11.14
4/17/2022 8:30:00 PM 8.77 47.786 0.3 7.72 3.59 11.14
4/17/2022 8:45:00 PM 8.67 47.606 0.3 7.72 3.52 11.14
4/17/2022 9:00:00 PM 8.56 47.408 0.3 7.71 3.65 11.15
4/17/2022 9:15:00 PM 8.46 47.228 0.301 7.7 4.82 11.15
4/17/2022 9:30:00 PM 8.36 47.048 0.301 7.69 3.82 11.16
4/17/2022 9:45:00 PM 8.27 46.886 0.301 7.69 3.67 11.17
4/17/2022 10:00:00 PM 8.18 46.724 0.301 7.68 4.9 11.18
4/17/2022 10:15:00 PM 8.1 46.58 0.301 7.68 3.84 11.19
4/17/2022 10:30:00 PM 8.02 46.436 0.301 7.67 4.47 11.19
4/17/2022 10:45:00 PM 7.95 46.31 0.302 7.67 3.75 11.2
4/17/2022 11:00:00 PM 7.88 46.184 0.302 7.66 3.56 11.21
4/17/2022 11:15:00 PM 7.8 46.04 0.302 7.66 3.58 11.23
4/17/2022 11:30:00 PM 7.72 45.896 0.302 7.65 5.66 11.24
4/17/2022 11:45:00 PM 7.63 45.734 0.303 7.65 3.51 11.26
4/18/2022 12:00:00 AM 7.55 45.59 0.303 7.64 4.43 11.28
4/18/2022 12:15:00 AM 7.46 45.428 0.303 7.65 3.55 11.3
4/18/2022 12:30:00 AM 7.37 45.266 0.304 7.64 3.47 11.32
4/18/2022 12:45:00 AM 7.28 45.104 0.304 7.64 3.55 11.34
4/18/2022 1:00:00 AM 7.19 44.942 0.304 7.64 3.41 11.36
4/18/2022 1:15:00 AM 7.11 44.798 0.305 7.64 3.44 11.39
4/18/2022 1:30:00 AM 7.03 44.654 0.305 7.63 4.86 11.41
4/18/2022 1:45:00 AM 6.95 44.51 0.305 7.63 4.37 11.43
4/18/2022 2:00:00 AM 6.88 44.384 0.305 7.63 3.24 11.45
4/18/2022 2:15:00 AM 6.8 44.24 0.306 7.63 3.56 11.47
4/18/2022 2:30:00 AM 6.73 44.114 0.306 7.62 4.33 11.49
4/18/2022 2:45:00 AM 6.65 43.97 0.306 7.63 3.4 11.52
4/18/2022 3:00:00 AM 6.57 43.826 0.306 7.63 3.45 11.54
4/18/2022 3:15:00 AM 6.49 43.682 0.307 7.63 3.31 11.56
4/18/2022 3:30:00 AM 6.41 43.538 0.307 7.63 3.38 11.58
4/18/2022 3:45:00 AM 6.33 43.394 0.307 7.62 3.38 11.61
4/18/2022 4:00:00 AM 6.24 43.232 0.307 7.62 3.32 11.64
4/18/2022 4:15:00 AM 6.16 43.088 0.307 7.61 3.26 11.66
4/18/2022 4:30:00 AM 6.08 42.944 0.307 7.62 3.34 11.69
4/18/2022 4:45:00 AM 5.99 42.782 0.308 7.62 3.3 11.71
4/18/2022 5:00:00 AM 5.91 42.638 0.308 7.62 3.2 11.74
4/18/2022 5:15:00 AM 5.83 42.494 0.308 7.61 3.27 11.77
4/18/2022 5:30:00 AM 5.74 42.332 0.308 7.61 3.19 11.79
4/18/2022 5:45:00 AM 5.66 42.188 0.308 7.61 4.12 11.82
4/18/2022 6:00:00 AM 5.59 42.062 0.308 7.6 3.41 11.84
4/18/2022 6:15:00 AM 5.52 41.936 0.308 7.61 3.61 11.87
4/18/2022 6:30:00 AM 5.45 41.81 0.308 7.61 3.78 11.89
4/18/2022 6:45:00 AM 5.4 41.72 0.309 7.61 3.9 11.91
4/18/2022 7:00:00 AM 5.35 41.63 0.309 7.61 4.01 11.94
4/18/2022 7:15:00 AM 5.32 41.576 0.309 7.61 4.88 11.98
4/18/2022 7:30:00 AM 5.29 41.522 0.309 7.62 5.47 12.02
4/18/2022 7:45:00 AM 5.27 41.486 0.309 7.62 10.17 12.06
4/18/2022 8:00:00 AM 5.27 41.486 0.309 7.63 6.89 12.1
4/18/2022 8:15:00 AM 5.28 41.504 0.309 7.64 3.23 12.14
4/18/2022 8:30:00 AM 5.28 41.504 0.309 7.64 10.79 12.17
4/18/2022 8:45:00 AM 5.29 41.522 0.309 7.65 13.4 12.2
4/18/2022 9:00:00 AM 5.3 41.54 0.309 7.66 8.24 12.23
4/18/2022 9:15:00 AM 5.29 41.522 0.309 7.67 16.71 12.25
4/18/2022 9:30:00 AM 5.31 41.558 0.309 7.67 11.33 12.27
4/18/2022 9:45:00 AM 5.32 41.576 0.309 7.68 7 12.29
4/18/2022 10:00:00 AM 5.35 41.63 0.309 7.69 15.42 12.3
4/18/2022 10:15:00 AM 5.38 41.684 0.309 7.69 13.65 12.32
4/18/2022 10:30:00 AM 5.39 41.702 0.309 7.7 12.88 12.33
4/18/2022 10:45:00 AM 5.4 41.72 0.309 7.7 34.95 12.34
4/18/2022 11:00:00 AM 5.41 41.738 0.309 7.71 9.52 12.34
4/18/2022 11:15:00 AM 5.4 41.72 0.309 7.71 8.99 12.34
4/18/2022 11:30:00 AM 5.42 41.756 0.309 7.72 40.64 12.35
4/18/2022 11:45:00 AM 5.43 41.774 0.309 7.72 13.06 12.36
4/18/2022 12:00:00 PM 5.46 41.828 0.309 7.73 4.33 12.36
4/18/2022 12:15:00 PM 5.46 41.828 0.309 7.73 2.7 12.36
4/18/2022 12:30:00 PM 5.21 41.378 0.309 7.73 2.81 12.36
4/18/2022 12:45:00 PM 5.09 41.162 0.308 7.73 27.19 12.37
4/18/2022 1:00:00 PM 5.03 41.054 0.308 7.73 79.17 12.38
4/18/2022 1:15:00 PM 5.03 41.054 0.309 7.73 2.98 12.39
4/18/2022 1:30:00 PM 5.01 41.018 0.309 7.73 32.82 12.39
4/18/2022 1:45:00 PM 4.97 40.946 0.309 7.73 18.99 12.4
4/18/2022 2:00:00 PM 4.88 40.784 0.308 7.73 6.54 12.4
4/18/2022 2:15:00 PM 4.76 40.568 0.308 7.73 17 12.4
4/18/2022 2:30:00 PM 4.69 40.442 0.308 7.73 14.21 12.4
4/18/2022 2:45:00 PM 4.62 40.316 0.308 7.73 11.37 12.42
4/18/2022 3:00:00 PM 4.56 40.208 0.308 7.73 18.77 12.43
4/18/2022 3:15:00 PM 4.49 40.082 0.308 7.73 10.04 12.44
4/18/2022 3:30:00 PM 4.45 40.01 0.309 7.73 28.74 12.45
4/18/2022 3:45:00 PM 4.39 39.902 0.309 7.73 7.56 12.46
4/18/2022 4:00:00 PM 4.36 39.848 0.309 7.73 57.68 12.48
4/18/2022 4:15:00 PM 4.3 39.74 0.308 7.73 2.7 12.5
4/18/2022 4:30:00 PM 4.27 39.686 0.309 7.73 3.28 12.51
4/18/2022 4:45:00 PM 4.26 39.668 0.309 7.73 27.32 12.53
4/18/2022 5:00:00 PM 4.26 39.668 0.309 7.73 4.73 12.53
4/18/2022 5:15:00 PM 4.25 39.65 0.309 7.73 31.23 12.52
4/18/2022 5:30:00 PM 4.23 39.614 0.309 7.73 7.33 12.53
4/18/2022 5:45:00 PM 4.2 39.56 0.309 7.72 3.5 12.52
4/18/2022 6:00:00 PM 4.18 39.524 0.309 7.72 4.94 12.53
4/18/2022 6:15:00 PM 4.15 39.47 0.309 7.72 8.17 12.53
4/18/2022 6:30:00 PM 4.09 39.362 0.309 7.72 4.44 12.53
4/18/2022 6:45:00 PM 4.08 39.344 0.31 7.71 2.87 12.54
4/18/2022 7:00:00 PM 4.05 39.29 0.31 7.71 4.47 12.54
4/18/2022 7:15:00 PM 4.04 39.272 0.31 7.71 5.69 12.53
4/18/2022 7:30:00 PM 4 39.2 0.31 7.7 3.72 12.53
4/18/2022 7:45:00 PM 3.95 39.11 0.31 7.7 3.11 12.51
4/18/2022 8:00:00 PM 3.88 38.984 0.31 7.69 3.2 12.51
4/18/2022 8:15:00 PM 3.84 38.912 0.31 7.69 3.66 12.5
4/18/2022 8:30:00 PM 3.84 38.912 0.311 7.68 2.86 12.5
4/18/2022 8:45:00 PM 3.82 38.876 0.311 7.68 2.84 12.5
4/18/2022 9:00:00 PM 3.75 38.75 0.31 7.67 2.78 12.49
4/18/2022 9:15:00 PM 3.72 38.696 0.31 7.67 2.87 12.5
4/18/2022 9:30:00 PM 3.71 38.678 0.31 7.67 2.83 12.5
4/18/2022 9:45:00 PM 3.7 38.66 0.31 7.67 2.86 12.51
4/18/2022 10:00:00 PM 3.68 38.624 0.31 7.66 2.81 12.51
4/18/2022 10:15:00 PM 3.66 38.588 0.31 7.66 2.89 12.51
4/18/2022 10:30:00 PM 3.65 38.57 0.311 7.66 3.01 12.51
4/18/2022 10:45:00 PM 3.64 38.552 0.311 7.66 2.94 12.51
4/18/2022 11:00:00 PM 3.61 38.498 0.311 7.66 2.9 12.52
4/18/2022 11:15:00 PM 3.58 38.444 0.311 7.65 2.97 12.52
4/18/2022 11:30:00 PM 3.58 38.444 0.311 7.65 3.03 12.53
4/18/2022 11:45:00 PM 3.57 38.426 0.311 7.65 3.08 12.53
4/19/2022 12:00:00 AM 3.56 38.408 0.311 7.65 2.96 12.54
4/19/2022 12:15:00 AM 3.56 38.408 0.311 7.65 3.04 12.54
4/19/2022 12:30:00 AM 3.55 38.39 0.312 7.65 3.2 12.54
4/19/2022 12:45:00 AM 3.55 38.39 0.312 7.64 2.84 12.54
4/19/2022 1:00:00 AM 3.54 38.372 0.312 7.64 2.83 12.55
4/19/2022 1:15:00 AM 3.53 38.354 0.312 7.64 2.89 12.55
4/19/2022 1:30:00 AM 3.53 38.354 0.313 7.64 2.93 12.55
4/19/2022 1:45:00 AM 3.52 38.336 0.313 7.64 3.08 12.55
4/19/2022 2:00:00 AM 3.52 38.336 0.313 7.64 2.96 12.55
4/19/2022 2:15:00 AM 3.51 38.318 0.313 7.64 3.01 12.55
4/19/2022 2:30:00 AM 3.51 38.318 0.313 7.64 2.95 12.55
4/19/2022 2:45:00 AM 3.5 38.3 0.314 7.64 2.99 12.55
4/19/2022 3:00:00 AM 3.5 38.3 0.314 7.64 3.09 12.55
4/19/2022 3:15:00 AM 3.5 38.3 0.314 7.64 3.28 12.55
4/19/2022 3:30:00 AM 3.49 38.282 0.314 7.64 2.97 12.55
4/19/2022 3:45:00 AM 3.49 38.282 0.314 7.64 3.13 12.54
4/19/2022 4:00:00 AM 3.49 38.282 0.314 7.64 2.98 12.54
4/19/2022 4:15:00 AM 3.49 38.282 0.315 7.64 3.07 12.54
4/19/2022 4:30:00 AM 3.48 38.264 0.315 7.64 2.96 12.54
4/19/2022 4:45:00 AM 3.48 38.264 0.315 7.64 2.99 12.54
4/19/2022 5:00:00 AM 3.48 38.264 0.315 7.64 2.97 12.54
4/19/2022 5:15:00 AM 3.48 38.264 0.315 7.64 3.58 12.53
4/19/2022 5:30:00 AM 3.48 38.264 0.315 7.64 3.02 12.53
4/19/2022 5:45:00 AM 3.46 38.228 0.315 7.64 2.89 12.54
4/19/2022 6:00:00 AM 3.46 38.228 0.316 7.64 3 12.53
4/19/2022 6:15:00 AM 3.46 38.228 0.316 7.64 3.25 12.53
4/19/2022 6:30:00 AM 3.46 38.228 0.316 7.64 3.97 12.53
4/19/2022 6:45:00 AM 3.45 38.21 0.316 7.64 3.15 12.54
4/19/2022 7:00:00 AM 3.46 38.228 0.316 7.64 4.29 12.54
4/19/2022 7:15:00 AM 3.46 38.228 0.316 7.65 6.6 12.55
4/19/2022 7:30:00 AM 3.46 38.228 0.317 7.65 2.89 12.56
4/19/2022 7:45:00 AM 3.45 38.21 0.317 7.65 8.07 12.58
4/19/2022 8:00:00 AM 3.43 38.174 0.317 7.65 6.61 12.58
4/19/2022 8:15:00 AM 3.46 38.228 0.317 7.66 19.5 12.61
4/19/2022 8:30:00 AM 3.49 38.282 0.317 7.66 5.47 12.62
4/19/2022 8:45:00 AM 3.5 38.3 0.317 7.67 12.21 12.64
4/19/2022 9:00:00 AM 3.51 38.318 0.317 7.67 19.81 12.66
4/19/2022 9:15:00 AM 3.58 38.444 0.317 7.67 10.92 12.68
4/19/2022 9:30:00 AM 3.64 38.552 0.317 7.68 59.36 12.69
4/19/2022 9:45:00 AM 3.67 38.606 0.317 7.68 11.31 12.7
4/19/2022 10:00:00 AM 3.71 38.678 0.317 7.69 14 12.72
4/19/2022 10:15:00 AM 3.81 38.858 0.316 7.69 14.61 12.73
4/19/2022 10:30:00 AM 3.91 39.038 0.316 7.7 9.09 12.73
4/19/2022 10:45:00 AM 3.91 39.038 0.316 7.7 13.08 12.72
4/19/2022 11:00:00 AM 3.99 39.182 0.316 7.7 34.56 12.73
4/19/2022 11:15:00 AM 4.09 39.362 0.316 7.7 7.41 12.73
4/19/2022 11:30:00 AM 4.18 39.524 0.315 7.71 3.93 12.72
4/19/2022 11:45:00 AM 4.29 39.722 0.315 7.71 5.49 12.72
4/19/2022 12:00:00 PM 4.35 39.83 0.315 7.72 32.09 12.71
4/19/2022 12:15:00 PM 4.35 39.83 0.315 7.72 3.05 12.69
4/19/2022 12:30:00 PM 4.41 39.938 0.315 7.72 3.16 12.69
4/19/2022 12:45:00 PM 4.59 40.262 0.315 7.73 2.72 12.67
4/19/2022 1:00:00 PM 4.68 40.424 0.314 7.73 39.18 12.66
4/19/2022 1:15:00 PM 4.8 40.64 0.314 7.73 3.25 12.64
4/19/2022 1:30:00 PM 5.02 41.036 0.314 7.74 3.69 12.62
4/19/2022 1:45:00 PM 5.1 41.18 0.314 7.74 3.27 12.59
4/19/2022 2:00:00 PM 5.2 41.36 0.314 7.73 2.68 12.55
4/19/2022 2:15:00 PM 5.29 41.522 0.314 7.74 5.66 12.53
4/19/2022 2:30:00 PM 5.45 41.81 0.314 7.74 3.04 12.48
4/19/2022 2:45:00 PM 5.59 42.062 0.314 7.74 9.71 12.45
4/19/2022 3:00:00 PM 5.59 42.062 0.314 7.75 14.76 12.44
4/19/2022 3:15:00 PM 5.7 42.26 0.314 7.75 14.51 12.42
4/19/2022 3:30:00 PM 5.93 42.674 0.314 7.75 11.67 12.39
4/19/2022 3:45:00 PM 5.84 42.512 0.313 7.74 23.46 12.36
4/19/2022 4:00:00 PM 5.82 42.476 0.313 7.75 3.63 12.34
4/19/2022 4:15:00 PM 5.86 42.548 0.313 7.75 4.4 12.31
4/19/2022 4:30:00 PM 5.92 42.656 0.313 7.75 3.59 12.3
4/19/2022 4:45:00 PM 5.92 42.656 0.313 7.75 12.48 12.28
4/19/2022 5:00:00 PM 5.95 42.71 0.313 7.75 8.01 12.24
4/19/2022 5:15:00 PM 6.03 42.854 0.312 7.74 3.95 12.22
4/19/2022 5:30:00 PM 5.98 42.764 0.312 7.74 18.71 12.21
4/19/2022 5:45:00 PM 5.95 42.71 0.312 7.74 3.69 12.2
4/19/2022 6:00:00 PM 5.96 42.728 0.311 7.74 57.66 12.2
4/19/2022 6:15:00 PM 5.95 42.71 0.311 7.74 42.11 12.19
4/19/2022 6:30:00 PM 5.93 42.674 0.31 7.74 4.39 12.17
4/19/2022 6:45:00 PM 5.9 42.62 0.31 7.74 6.1 12.15
4/19/2022 7:00:00 PM 5.87 42.566 0.31 7.74 4.89 12.13
4/19/2022 7:15:00 PM 5.84 42.512 0.309 7.73 29.43 12.11
4/19/2022 7:30:00 PM 5.83 42.494 0.309 7.73 8.83 12.08
4/19/2022 7:45:00 PM 5.81 42.458 0.309 7.71 5.4 12.06
4/19/2022 8:00:00 PM 5.8 42.44 0.309 7.72 3.17 12.03
4/19/2022 8:15:00 PM 5.8 42.44 0.309 7.7 3.13 12
4/19/2022 8:30:00 PM 5.78 42.404 0.309 7.7 3.2 11.98
4/19/2022 8:45:00 PM 5.77 42.386 0.308 7.7 3.51 11.97
4/19/2022 9:00:00 PM 5.75 42.35 0.308 7.69 3.56 11.96
4/19/2022 9:15:00 PM 5.71 42.278 0.308 7.69 3.61 11.96
4/19/2022 9:30:00 PM 5.67 42.206 0.307 7.68 3.63 11.96
4/19/2022 9:45:00 PM 5.62 42.116 0.307 7.68 3.65 11.96
4/19/2022 10:00:00 PM 5.57 42.026 0.307 7.67 4.15 11.96
4/19/2022 10:15:00 PM 5.53 41.954 0.307 7.67 3.87 11.97
4/19/2022 10:30:00 PM 5.5 41.9 0.307 7.67 3.97 11.97
4/19/2022 10:45:00 PM 5.48 41.864 0.306 7.66 4.12 11.97
4/19/2022 11:00:00 PM 5.45 41.81 0.306 7.66 4.58 11.96
4/19/2022 11:15:00 PM 5.44 41.792 0.306 7.66 4.67 11.96
4/19/2022 11:30:00 PM 5.43 41.774 0.306 7.65 4.26 11.96
4/19/2022 11:45:00 PM 5.42 41.756 0.306 7.65 4.52 11.96
4/20/2022 12:00:00 AM 5.41 41.738 0.306 7.65 4.37 11.96
4/20/2022 12:15:00 AM 5.38 41.684 0.305 7.64 4.64 11.96
4/20/2022 12:30:00 AM 5.36 41.648 0.305 7.64 4.35 11.97
4/20/2022 12:45:00 AM 5.32 41.576 0.305 7.64 4.28 11.99
4/20/2022 1:00:00 AM 5.27 41.486 0.305 7.64 4.5 12
4/20/2022 1:15:00 AM 5.24 41.432 0.304 7.64 4.57 12.01
4/20/2022 1:30:00 AM 5.21 41.378 0.304 7.64 4.45 12.02
4/20/2022 1:45:00 AM 5.18 41.324 0.303 7.63 5.42 12.03
4/20/2022 2:00:00 AM 5.16 41.288 0.303 7.63 4.52 12.04
4/20/2022 2:15:00 AM 5.12 41.216 0.302 7.63 4.33 12.06
4/20/2022 2:30:00 AM 5.08 41.144 0.302 7.63 4.95 12.07
4/20/2022 2:45:00 AM 5.03 41.054 0.301 7.62 4.52 12.08
4/20/2022 3:00:00 AM 4.98 40.964 0.301 7.62 4.48 12.09
4/20/2022 3:15:00 AM 4.93 40.874 0.301 7.62 4.75 12.11
4/20/2022 3:30:00 AM 4.87 40.766 0.301 7.62 4.55 12.13
4/20/2022 3:45:00 AM 4.82 40.676 0.301 7.62 4.36 12.14
4/20/2022 4:00:00 AM 4.77 40.586 0.301 7.62 4.29 12.16
4/20/2022 4:15:00 AM 4.72 40.496 0.301 7.61 4.61 12.17
4/20/2022 4:30:00 AM 4.67 40.406 0.302 7.61 4.29 12.19
4/20/2022 4:45:00 AM 4.62 40.316 0.302 7.61 4.52 12.2
4/20/2022 5:00:00 AM 4.58 40.244 0.302 7.61 4.41 12.22
4/20/2022 5:15:00 AM 4.54 40.172 0.303 7.61 4.46 12.23
4/20/2022 5:30:00 AM 4.5 40.1 0.303 7.62 4.09 12.25
4/20/2022 5:45:00 AM 4.46 40.028 0.303 7.61 4.46 12.26
4/20/2022 6:00:00 AM 4.42 39.956 0.303 7.61 4.15 12.27
4/20/2022 6:15:00 AM 4.38 39.884 0.303 7.61 11.41 12.29
4/20/2022 6:30:00 AM 4.34 39.812 0.303 7.61 4.04 12.3
4/20/2022 6:45:00 AM 4.3 39.74 0.303 7.61 4.92 12.32
4/20/2022 7:00:00 AM 4.26 39.668 0.302 7.61 4.58 12.35
4/20/2022 7:15:00 AM 4.23 39.614 0.302 7.61 4.76 12.37
4/20/2022 7:30:00 AM 4.2 39.56 0.302 7.61 4.44 12.4
4/20/2022 7:45:00 AM 4.18 39.524 0.302 7.61 4.4 12.42
4/20/2022 8:00:00 AM 4.17 39.506 0.301 7.61 5.3 12.45
4/20/2022 8:15:00 AM 4.17 39.506 0.301 7.61 5.02 12.47
4/20/2022 8:30:00 AM 4.18 39.524 0.3 7.62 4.28 12.5
4/20/2022 8:45:00 AM 4.2 39.56 0.3 7.62 4.82 12.52
4/20/2022 9:00:00 AM 4.23 39.614 0.3 7.62 3.99 12.54
4/20/2022 9:15:00 AM 4.28 39.704 0.299 7.62 4.32 12.56
4/20/2022 9:30:00 AM 4.33 39.794 0.299 7.63 4.07 12.58
4/20/2022 9:45:00 AM 4.39 39.902 0.299 7.63 3.92 12.59
4/20/2022 10:00:00 AM 4.46 40.028 0.299 7.63 3.83 12.6
4/20/2022 10:15:00 AM 4.55 40.19 0.298 7.64 3.98 12.61
4/20/2022 10:30:00 AM 4.65 40.37 0.298 7.64 4.32 12.61
4/20/2022 10:45:00 AM 4.78 40.604 0.297 7.64 3.91 12.61
4/20/2022 11:00:00 AM 4.89 40.802 0.297 7.65 4.01 12.61
4/20/2022 11:15:00 AM 5.03 41.054 0.297 7.65 3.88 12.6
4/20/2022 11:30:00 AM 5.17 41.306 0.296 7.66 3.9 12.59
4/20/2022 11:45:00 AM 5.34 41.612 0.296 7.66 3.76 12.57
4/20/2022 12:00:00 PM 5.51 41.918 0.295 7.66 4.26 12.55
4/20/2022 12:15:00 PM 5.68 42.224 0.295 7.66 4.29 12.52
4/20/2022 12:30:00 PM 5.87 42.566 0.294 7.67 4.07 12.5
4/20/2022 12:45:00 PM 6.07 42.926 0.294 7.67 4.44 12.47
4/20/2022 1:00:00 PM 6.26 43.268 0.293 7.68 3.95 12.44
4/20/2022 1:15:00 PM 6.49 43.682 0.293 7.68 3.64 12.4
4/20/2022 1:30:00 PM 6.71 44.078 0.292 7.68 3.84 12.36
4/20/2022 1:45:00 PM 6.94 44.492 0.292 7.69 3.79 12.31
4/20/2022 2:00:00 PM 7.17 44.906 0.291 7.69 3.73 12.26
4/20/2022 2:15:00 PM 7.38 45.284 0.291 7.69 3.9 12.21
4/20/2022 2:30:00 PM 7.54 45.572 0.29 7.7 4.14 12.17
4/20/2022 2:45:00 PM 7.75 45.95 0.29 7.7 4.88 12.11
4/20/2022 3:00:00 PM 7.94 46.292 0.29 7.7 4.05 12.07
4/20/2022 3:15:00 PM 8.11 46.598 0.289 7.71 3.95 12.02
4/20/2022 3:30:00 PM 8.27 46.886 0.289 7.71 3.69 11.97
4/20/2022 3:45:00 PM 8.4 47.12 0.289 7.71 4.77 11.93
4/20/2022 4:00:00 PM 8.52 47.336 0.288 7.72 3.8 11.89
4/20/2022 4:15:00 PM 8.61 47.498 0.288 7.72 4.47 11.84
4/20/2022 4:30:00 PM 8.67 47.606 0.288 7.72 5.97 11.8
4/20/2022 4:45:00 PM 8.72 47.696 0.288 7.71 4.58 11.76
4/20/2022 5:00:00 PM 8.76 47.768 0.288 7.72 6.41 11.74
4/20/2022 5:15:00 PM 8.77 47.786 0.287 7.73 13.82 11.7
4/20/2022 5:30:00 PM 8.77 47.786 0.287 7.72 82.45 11.66
4/20/2022 5:45:00 PM 8.75 47.75 0.287 7.72 4.71 11.63
4/20/2022 6:00:00 PM 8.72 47.696 0.287 7.72 5.57 11.6
4/20/2022 6:15:00 PM 8.67 47.606 0.287 7.72 21.04 11.57
4/20/2022 6:30:00 PM 8.64 47.552 0.287 7.72 13.24 11.55
4/20/2022 6:45:00 PM 8.6 47.48 0.287 7.71 7.08 11.52
4/20/2022 7:00:00 PM 8.56 47.408 0.287 7.71 4.83 11.49
4/20/2022 7:15:00 PM 8.52 47.336 0.287 7.7 4.41 11.46
4/20/2022 7:30:00 PM 8.47 47.246 0.287 7.7 4.05 11.43
4/20/2022 7:45:00 PM 8.41 47.138 0.287 7.69 3.77 11.41
4/20/2022 8:00:00 PM 8.35 47.03 0.287 7.68 3.6 11.38
4/20/2022 8:15:00 PM 8.3 46.94 0.287 7.67 3.54 11.37
4/20/2022 8:30:00 PM 8.24 46.832 0.287 7.67 3.69 11.35
4/20/2022 8:45:00 PM 8.18 46.724 0.287 7.65 4.53 11.33
4/20/2022 9:00:00 PM 8.12 46.616 0.288 7.65 4.08 11.33
4/20/2022 9:15:00 PM 8.07 46.526 0.288 7.65 4.74 11.32
4/20/2022 9:30:00 PM 8.01 46.418 0.288 7.65 3.71 11.32
4/20/2022 9:45:00 PM 7.96 46.328 0.288 7.64 4.47 11.32
4/20/2022 10:00:00 PM 7.92 46.256 0.288 7.64 3.94 11.32
4/20/2022 10:15:00 PM 7.88 46.184 0.288 7.63 3.45 11.32
4/20/2022 10:30:00 PM 7.84 46.112 0.289 7.63 3.64 11.32
4/20/2022 10:45:00 PM 7.81 46.058 0.289 7.63 3.38 11.31
4/20/2022 11:00:00 PM 7.76 45.968 0.289 7.62 3.58 11.32
4/20/2022 11:15:00 PM 7.71 45.878 0.289 7.62 3.58 11.33
4/20/2022 11:30:00 PM 7.66 45.788 0.289 7.62 3.57 11.33
4/20/2022 11:45:00 PM 7.61 45.698 0.29 7.61 4.55 11.35
4/21/2022 12:00:00 AM 7.56 45.608 0.29 7.61 3.66 11.35
4/21/2022 12:15:00 AM 7.5 45.5 0.29 7.61 3.63 11.36
4/21/2022 12:30:00 AM 7.45 45.41 0.29 7.6 4.87 11.37
4/21/2022 12:45:00 AM 7.4 45.32 0.29 7.61 3.54 11.38
4/21/2022 1:00:00 AM 7.34 45.212 0.291 7.61 3.66 11.39
4/21/2022 1:15:00 AM 7.3 45.14 0.291 7.6 3.44 11.4
4/21/2022 1:30:00 AM 7.25 45.05 0.291 7.6 3.41 11.41
4/21/2022 1:45:00 AM 7.2 44.96 0.291 7.6 4.22 11.42
4/21/2022 2:00:00 AM 7.15 44.87 0.291 7.6 3.89 11.43
4/21/2022 2:15:00 AM 7.1 44.78 0.291 7.6 3.75 11.44
4/21/2022 2:30:00 AM 7.06 44.708 0.291 7.59 4.24 11.45
4/21/2022 2:45:00 AM 7.02 44.636 0.292 7.6 3.43 11.47
4/21/2022 3:00:00 AM 6.98 44.564 0.292 7.59 3.54 11.48
4/21/2022 3:15:00 AM 6.93 44.474 0.292 7.59 3.57 11.49
4/21/2022 3:30:00 AM 6.88 44.384 0.292 7.59 3.53 11.51
4/21/2022 3:45:00 AM 6.84 44.312 0.292 7.59 3.6 11.53
4/21/2022 4:00:00 AM 6.8 44.24 0.292 7.59 3.55 11.54
4/21/2022 4:15:00 AM 6.76 44.168 0.292 7.59 3.42 11.55
4/21/2022 4:30:00 AM 6.71 44.078 0.293 7.58 4.31 11.56
4/21/2022 4:45:00 AM 6.67 44.006 0.293 7.58 3.33 11.57
4/21/2022 5:00:00 AM 6.64 43.952 0.293 7.59 3.45 11.59
4/21/2022 5:15:00 AM 6.61 43.898 0.293 7.59 3.43 11.59
4/21/2022 5:30:00 AM 6.57 43.826 0.293 7.59 3.4 11.6
4/21/2022 5:45:00 AM 6.54 43.772 0.293 7.58 3.37 11.61
4/21/2022 6:00:00 AM 6.51 43.718 0.293 7.59 3.45 11.62
4/21/2022 6:15:00 AM 6.48 43.664 0.293 7.58 3.37 11.62
4/21/2022 6:30:00 AM 6.45 43.61 0.293 7.58 3.58 11.63
4/21/2022 6:45:00 AM 6.44 43.592 0.293 7.58 3.7 11.64
4/21/2022 7:00:00 AM 6.43 43.574 0.293 7.58 6.26 11.65
4/21/2022 7:15:00 AM 6.42 43.556 0.293 7.58 4.01 11.65
4/21/2022 7:30:00 AM 6.43 43.574 0.293 7.58 3.69 11.66
4/21/2022 7:45:00 AM 6.44 43.592 0.293 7.57 167.76 11.67
4/21/2022 8:00:00 AM 6.47 43.646 0.293 7.57 5.31 11.71
4/21/2022 8:15:00 AM 6.5 43.7 0.294 7.58 9.35 11.74
4/21/2022 8:30:00 AM 6.53 43.754 0.294 7.59 4.57 11.76
4/21/2022 8:45:00 AM 6.59 43.862 0.294 7.6 3.47 11.79
4/21/2022 9:00:00 AM 6.63 43.934 0.293 7.6 3.21 11.8
4/21/2022 9:15:00 AM 6.67 44.006 0.293 7.61 3.19 11.81
4/21/2022 9:30:00 AM 6.68 44.024 0.293 7.62 4.25 11.81
4/21/2022 9:45:00 AM 6.71 44.078 0.293 7.61 3.06 11.8
4/21/2022 10:00:00 AM 6.74 44.132 0.293 7.62 3.29 11.81
4/21/2022 10:15:00 AM 6.77 44.186 0.293 7.62 5.83 11.81
4/21/2022 10:30:00 AM 6.8 44.24 0.292 7.62 4.31 11.81
4/21/2022 10:45:00 AM 6.82 44.276 0.292 7.63 3.05 11.81
4/21/2022 11:00:00 AM 6.84 44.312 0.291 7.63 3.11 11.8
4/21/2022 11:15:00 AM 6.86 44.348 0.291 7.62 4.55 11.8
4/21/2022 11:30:00 AM 6.88 44.384 0.29 7.63 2.95 11.8
4/21/2022 11:45:00 AM 6.89 44.402 0.29 7.63 3.03 11.79
4/21/2022 12:00:00 PM 6.91 44.438 0.29 7.63 2.83 11.79
4/21/2022 12:15:00 PM 6.92 44.456 0.29 7.63 2.97 11.79
4/21/2022 12:30:00 PM 6.94 44.492 0.289 7.64 3.13 11.79
4/21/2022 12:45:00 PM 6.98 44.564 0.289 7.64 3.37 11.8
4/21/2022 1:00:00 PM 7.01 44.618 0.289 7.64 3.01 11.81
4/21/2022 1:15:00 PM 7.04 44.672 0.289 7.64 3.16 11.8
4/21/2022 1:30:00 PM 7.05 44.69 0.288 7.64 2.85 11.79
4/21/2022 1:45:00 PM 7.06 44.708 0.288 7.64 3.68 11.77
4/21/2022 2:00:00 PM 7.08 44.744 0.288 7.64 2.86 11.77
4/21/2022 2:15:00 PM 7.09 44.762 0.288 7.64 3.03 11.76
4/21/2022 2:30:00 PM 7.1 44.78 0.287 7.64 2.92 11.75
4/21/2022 2:45:00 PM 7.13 44.834 0.281 7.63 4.62 11.74
4/21/2022 3:00:00 PM 7.14 44.852 0.287 7.64 3.22 11.73
4/21/2022 3:15:00 PM 7.16 44.888 0.287 7.64 3.03 11.72
4/21/2022 3:30:00 PM 7.17 44.906 0.287 7.64 2.88 11.72
4/21/2022 3:45:00 PM 7.18 44.924 0.287 7.64 2.99 11.71
4/21/2022 4:00:00 PM 7.2 44.96 0.286 7.64 3.21 11.7
4/21/2022 4:15:00 PM 7.22 44.996 0.286 7.64 3.05 11.7
4/21/2022 4:30:00 PM 7.24 45.032 0.286 7.64 3.01 11.7
4/21/2022 4:45:00 PM 7.26 45.068 0.286 7.64 3.07 11.69
4/21/2022 5:00:00 PM 7.28 45.104 0.285 7.64 3.56 11.68
4/21/2022 5:15:00 PM 7.3 45.14 0.277 7.63 4.09 11.67
4/21/2022 5:30:00 PM 7.33 45.194 0.285 7.64 3.34 11.67
4/21/2022 5:45:00 PM 7.35 45.23 0.285 7.63 3.07 11.65
4/21/2022 6:00:00 PM 7.39 45.302 0.284 7.64 3 11.66
4/21/2022 6:15:00 PM 7.43 45.374 0.284 7.64 3.09 11.67
4/21/2022 6:30:00 PM 7.46 45.428 0.284 7.64 3.18 11.66
4/21/2022 6:45:00 PM 7.49 45.482 0.284 7.64 3.2 11.65
4/21/2022 7:00:00 PM 7.5 45.5 0.284 7.64 3.18 11.65
4/21/2022 7:15:00 PM 7.5 45.5 0.284 7.64 3.11 11.63
4/21/2022 7:30:00 PM 7.51 45.518 0.283 7.63 4.11 11.61
4/21/2022 7:45:00 PM 7.51 45.518 0.283 7.64 3.28 11.59
4/21/2022 8:00:00 PM 7.51 45.518 0.283 7.63 3.26 11.56
4/21/2022 8:15:00 PM 7.51 45.518 0.283 7.62 3.33 11.53
4/21/2022 8:30:00 PM 7.52 45.536 0.283 7.62 3.38 11.51
4/21/2022 8:45:00 PM 7.52 45.536 0.283 7.61 3.73 11.5
4/21/2022 9:00:00 PM 7.52 45.536 0.283 7.61 3.49 11.49
4/21/2022 9:15:00 PM 7.51 45.518 0.283 7.6 3.72 11.48
4/21/2022 9:30:00 PM 7.5 45.5 0.283 7.6 3.6 11.47
4/21/2022 9:45:00 PM 7.48 45.464 0.283 7.59 3.8 11.46
4/21/2022 10:00:00 PM 7.46 45.428 0.283 7.59 3.73 11.46
4/21/2022 10:15:00 PM 7.46 45.428 0.283 7.58 4.67 11.45
4/21/2022 10:30:00 PM 7.43 45.374 0.283 7.58 3.94 11.45
4/21/2022 10:45:00 PM 7.42 45.356 0.283 7.58 3.95 11.45
4/21/2022 11:00:00 PM 7.41 45.338 0.283 7.58 3.75 11.44
4/21/2022 11:15:00 PM 7.4 45.32 0.284 7.58 3.73 11.44
4/21/2022 11:30:00 PM 7.38 45.284 0.284 7.57 3.79 11.44
4/21/2022 11:45:00 PM 7.36 45.248 0.284 7.57 3.68 11.44
4/22/2022 12:00:00 AM 7.34 45.212 0.284 7.56 4.9 11.44
4/22/2022 12:15:00 AM 7.33 45.194 0.284 7.57 4.18 11.44
4/22/2022 12:30:00 AM 7.32 45.176 0.284 7.56 4.66 11.44
4/22/2022 12:45:00 AM 7.3 45.14 0.284 7.57 3.85 11.45
4/22/2022 1:00:00 AM 7.28 45.104 0.285 7.56 3.97 11.45
4/22/2022 1:15:00 AM 7.26 45.068 0.285 7.56 3.97 11.46
4/22/2022 1:30:00 AM 7.24 45.032 0.285 7.56 3.59 11.46
4/22/2022 1:45:00 AM 7.22 44.996 0.285 7.56 3.58 11.47
4/22/2022 2:00:00 AM 7.2 44.96 0.285 7.56 3.53 11.47
4/22/2022 2:15:00 AM 7.18 44.924 0.285 7.56 3.5 11.48
4/22/2022 2:30:00 AM 7.16 44.888 0.285 7.56 3.63 11.48
4/22/2022 2:45:00 AM 7.13 44.834 0.284 7.56 3.44 11.49
4/22/2022 3:00:00 AM 7.11 44.798 0.284 7.56 3.39 11.5
4/22/2022 3:15:00 AM 7.08 44.744 0.284 7.56 3.51 11.5
4/22/2022 3:30:00 AM 7.06 44.708 0.284 7.56 4.52 11.5
4/22/2022 3:45:00 AM 7.04 44.672 0.284 7.56 3.38 11.51
4/22/2022 4:00:00 AM 7.02 44.636 0.284 7.56 3.71 11.52
4/22/2022 4:15:00 AM 7 44.6 0.283 7.56 3.54 11.52
4/22/2022 4:30:00 AM 6.98 44.564 0.283 7.56 3.29 11.53
4/22/2022 4:45:00 AM 6.96 44.528 0.283 7.56 3.65 11.53
4/22/2022 5:00:00 AM 6.93 44.474 0.283 7.55 4.62 11.54
4/22/2022 5:15:00 AM 6.9 44.42 0.282 7.55 3.73 11.55
4/22/2022 5:30:00 AM 6.88 44.384 0.282 7.56 3.61 11.56
4/22/2022 5:45:00 AM 6.86 44.348 0.282 7.56 4.03 11.56
4/22/2022 6:00:00 AM 6.83 44.294 0.282 7.56 3.86 11.57
4/22/2022 6:15:00 AM 6.8 44.24 0.281 7.55 4.26 11.58
4/22/2022 6:30:00 AM 6.77 44.186 0.281 7.55 3.41 11.6
4/22/2022 6:45:00 AM 6.75 44.15 0.281 7.56 3.36 11.61
4/22/2022 7:00:00 AM 6.72 44.096 0.28 7.55 6.11 11.62
4/22/2022 7:15:00 AM 6.7 44.06 0.28 7.56 3.53 11.65
4/22/2022 7:30:00 AM 6.68 44.024 0.28 7.56 3.66 11.68
4/22/2022 7:45:00 AM 6.66 43.988 0.279 7.57 3.47 11.71
4/22/2022 8:00:00 AM 6.66 43.988 0.279 7.57 3.4 11.74
4/22/2022 8:15:00 AM 6.67 44.006 0.279 7.57 3.44 11.78
4/22/2022 8:30:00 AM 6.68 44.024 0.279 7.58 3.42 11.8
4/22/2022 8:45:00 AM 6.68 44.024 0.279 7.58 3.4 11.82
4/22/2022 9:00:00 AM 6.72 44.096 0.278 7.58 3.4 11.83
4/22/2022 9:15:00 AM 6.76 44.168 0.278 7.59 3.44 11.84
4/22/2022 9:30:00 AM 6.83 44.294 0.278 7.59 3.31 11.86
4/22/2022 9:45:00 AM 6.91 44.438 0.278 7.6 3.24 11.87
4/22/2022 10:00:00 AM 7 44.6 0.277 7.6 3.23 11.87
4/22/2022 10:15:00 AM 7.1 44.78 0.277 7.61 3.43 11.88
4/22/2022 10:30:00 AM 7.21 44.978 0.277 7.61 3.18 11.87
4/22/2022 10:45:00 AM 7.34 45.212 0.276 7.61 4.27 11.87
4/22/2022 11:00:00 AM 7.48 45.464 0.276 7.62 3.22 11.86
4/22/2022 11:15:00 AM 7.64 45.752 0.276 7.63 3.07 11.85
4/22/2022 11:30:00 AM 7.8 46.04 0.275 7.64 3.03 11.84
4/22/2022 11:45:00 AM 7.96 46.328 0.275 7.64 3.11 11.82
4/22/2022 12:00:00 PM 8.14 46.652 0.275 7.64 3.16 11.8
4/22/2022 12:15:00 PM 8.3 46.94 0.275 7.65 3.05 11.79
4/22/2022 12:30:00 PM 8.51 47.318 0.275 7.65 3 11.75
4/22/2022 12:45:00 PM 8.7 47.66 0.275 7.66 3.02 11.73
4/22/2022 1:00:00 PM 8.84 47.912 0.275 7.67 3.14 11.7
4/22/2022 1:15:00 PM 8.96 48.128 0.274 7.67 3.02 11.66
4/22/2022 1:30:00 PM 9.1 48.38 0.274 7.68 3.05 11.64
4/22/2022 1:45:00 PM 9.17 48.506 0.273 7.68 3.2 11.6
4/22/2022 2:00:00 PM 9.27 48.686 0.273 7.68 4.47 11.57
4/22/2022 2:15:00 PM 9.45 49.01 0.273 7.69 4.16 11.54
4/22/2022 2:30:00 PM 9.65 49.37 0.273 7.7 3.08 11.52
4/22/2022 2:45:00 PM 9.89 49.802 0.273 7.7 3.06 11.48
4/22/2022 3:00:00 PM 10.04 50.072 0.273 7.7 3.26 11.44
4/22/2022 3:15:00 PM 10.19 50.342 0.273 7.7 4.24 11.4
4/22/2022 3:30:00 PM 10.28 50.504 0.273 7.71 3.12 11.37
4/22/2022 3:45:00 PM 10.34 50.612 0.273 7.72 3.24 11.34
4/22/2022 4:00:00 PM 10.42 50.756 0.273 7.72 3.09 11.31
4/22/2022 4:15:00 PM 10.49 50.882 0.273 7.72 4.01 11.28
4/22/2022 4:30:00 PM 10.52 50.936 0.273 7.73 3.2 11.25
4/22/2022 4:45:00 PM 10.61 51.098 0.274 7.72 4.23 11.22
4/22/2022 5:00:00 PM 10.61 51.098 0.274 7.73 3.16 11.18
4/22/2022 5:15:00 PM 10.66 51.188 0.274 7.73 3.36 11.16
4/22/2022 5:30:00 PM 10.7 51.26 0.274 7.73 3.21 11.13
4/22/2022 5:45:00 PM 10.7 51.26 0.274 7.73 4.13 11.1
4/22/2022 6:00:00 PM 10.68 51.224 0.274 7.72 5.3 11.07
4/22/2022 6:15:00 PM 10.67 51.206 0.274 7.72 4.73 11.04
4/22/2022 6:30:00 PM 10.66 51.188 0.275 7.72 3.07 11.02
4/22/2022 6:45:00 PM 10.63 51.134 0.275 7.71 5.1 10.99
4/22/2022 7:00:00 PM 10.61 51.098 0.275 7.71 4.63 10.95
4/22/2022 7:15:00 PM 10.59 51.062 0.275 7.7 4.7 10.91
4/22/2022 7:30:00 PM 10.57 51.026 0.275 7.69 4.37 10.88
4/22/2022 7:45:00 PM 10.54 50.972 0.275 7.69 3.33 10.85
4/22/2022 8:00:00 PM 10.51 50.918 0.275 7.68 3.67 10.82
4/22/2022 8:15:00 PM 10.47 50.846 0.275 7.67 4.13 10.79
4/22/2022 8:30:00 PM 10.42 50.756 0.275 7.66 4.1 10.77
4/22/2022 8:45:00 PM 10.37 50.666 0.275 7.65 3.35 10.75
4/22/2022 9:00:00 PM 10.33 50.594 0.275 7.64 3.33 10.74
4/22/2022 9:15:00 PM 10.3 50.54 0.275 7.63 4.4 10.73
4/22/2022 9:30:00 PM 10.26 50.468 0.276 7.63 3.2 10.72
4/22/2022 9:45:00 PM 10.23 50.414 0.276 7.63 3.5 10.71
4/22/2022 10:00:00 PM 10.19 50.342 0.276 7.62 3.25 10.71
4/22/2022 10:15:00 PM 10.14 50.252 0.276 7.62 3.37 10.71
4/22/2022 10:30:00 PM 10.09 50.162 0.276 7.61 3.28 10.71
4/22/2022 10:45:00 PM 10.05 50.09 0.276 7.61 3.42 10.71
4/22/2022 11:00:00 PM 10 50 0.276 7.6 3.83 10.72
4/22/2022 11:15:00 PM 9.96 49.928 0.276 7.6 3.4 10.72
4/22/2022 11:30:00 PM 9.92 49.856 0.276 7.59 4.41 10.73
4/22/2022 11:45:00 PM 9.87 49.766 0.276 7.59 3.37 10.73
4/23/2022 12:00:00 AM 9.84 49.712 0.276 7.59 3.16 10.74
4/23/2022 12:15:00 AM 9.8 49.64 0.276 7.59 3.22 10.74
4/23/2022 12:30:00 AM 9.77 49.586 0.276 7.58 3.26 10.74
4/23/2022 12:45:00 AM 9.73 49.514 0.276 7.58 3.36 10.75
4/23/2022 1:00:00 AM 9.7 49.46 0.276 7.58 3.29 10.75
4/23/2022 1:15:00 AM 9.67 49.406 0.276 7.58 3.27 10.76
4/23/2022 1:30:00 AM 9.64 49.352 0.276 7.58 3 10.76
4/23/2022 1:45:00 AM 9.61 49.298 0.276 7.57 4.41 10.76
4/23/2022 2:00:00 AM 9.58 49.244 0.277 7.57 3.56 10.77
4/23/2022 2:15:00 AM 9.55 49.19 0.277 7.57 3.29 10.78
4/23/2022 2:30:00 AM 9.52 49.136 0.277 7.56 4.19 10.78
4/23/2022 2:45:00 AM 9.49 49.082 0.277 7.57 3.25 10.79
4/23/2022 3:00:00 AM 9.46 49.028 0.277 7.56 4.45 10.8
4/23/2022 3:15:00 AM 9.42 48.956 0.277 7.56 3.48 10.81
4/23/2022 3:30:00 AM 9.39 48.902 0.277 7.56 3.1 10.81
4/23/2022 3:45:00 AM 9.36 48.848 0.277 7.56 3.22 10.82
4/23/2022 4:00:00 AM 9.33 48.794 0.277 7.55 4.29 10.83
4/23/2022 4:15:00 AM 9.3 48.74 0.277 7.56 3.14 10.84
4/23/2022 4:30:00 AM 9.27 48.686 0.277 7.55 3.09 10.85
4/23/2022 4:45:00 AM 9.24 48.632 0.277 7.56 3.05 10.86
4/23/2022 5:00:00 AM 9.22 48.596 0.277 7.56 3.31 10.86
4/23/2022 5:15:00 AM 9.2 48.56 0.277 7.56 3.41 10.86
4/23/2022 5:30:00 AM 9.18 48.524 0.277 7.55 4.35 10.87
4/23/2022 5:45:00 AM 9.16 48.488 0.277 7.55 4.35 10.87
4/23/2022 6:00:00 AM 9.14 48.452 0.277 7.55 3.21 10.87
4/23/2022 6:15:00 AM 9.12 48.416 0.278 7.55 3.37 10.88
4/23/2022 6:30:00 AM 9.1 48.38 0.278 7.55 3.33 10.88
4/23/2022 6:45:00 AM 9.09 48.362 0.278 7.55 5.13 10.89
4/23/2022 7:00:00 AM 9.08 48.344 0.278 7.55 3.02 10.9
4/23/2022 7:15:00 AM 9.06 48.308 0.278 7.56 3.42 10.91
4/23/2022 7:30:00 AM 9.06 48.308 0.278 7.56 3.24 10.92
4/23/2022 7:45:00 AM 9.05 48.29 0.278 7.56 3.04 10.93
4/23/2022 8:00:00 AM 9.05 48.29 0.278 7.56 3.63 10.95
4/23/2022 8:15:00 AM 9.05 48.29 0.278 7.57 3.04 10.96
4/23/2022 8:30:00 AM 9.06 48.308 0.278 7.57 3.18 10.98
4/23/2022 8:45:00 AM 9.06 48.308 0.278 7.57 2.88 11
4/23/2022 9:00:00 AM 9.08 48.344 0.278 7.57 3.07 11.02
4/23/2022 9:15:00 AM 9.07 48.326 0.278 7.59 3.14 11.03
4/23/2022 9:30:00 AM 9.07 48.326 0.278 7.59 3.12 11.03
4/23/2022 9:45:00 AM 9.07 48.326 0.278 7.59 3.94 11.03
4/23/2022 10:00:00 AM 9.09 48.362 0.278 7.6 3.02 11.06
4/23/2022 10:15:00 AM 9.1 48.38 0.279 7.6 3.06 11.08
4/23/2022 10:30:00 AM 9.14 48.452 0.279 7.61 3.17 11.11
4/23/2022 10:45:00 AM 9.21 48.578 0.279 7.61 4.37 11.14
4/23/2022 11:00:00 AM 9.3 48.74 0.279 7.62 3.93 11.16
4/23/2022 11:15:00 AM 9.42 48.956 0.279 7.64 2.98 11.18
4/23/2022 11:30:00 AM 9.49 49.082 0.279 7.64 3.08 11.19
4/23/2022 11:45:00 AM 9.6 49.28 0.279 7.65 2.99 11.19
4/23/2022 12:00:00 PM 9.68 49.424 0.279 7.66 4.36 11.19
4/23/2022 12:15:00 PM 9.79 49.622 0.279 7.67 3.08 11.19
4/23/2022 12:30:00 PM 9.85 49.73 0.279 7.67 2.97 11.19
4/23/2022 12:45:00 PM 9.95 49.91 0.279 7.67 3.66 11.19
4/23/2022 1:00:00 PM 10.07 50.126 0.279 7.68 3.69 11.18
4/23/2022 1:15:00 PM 10.24 50.432 0.28 7.69 3.07 11.17
4/23/2022 1:30:00 PM 10.51 50.918 0.28 7.69 3.83 11.14
4/23/2022 1:45:00 PM 10.76 51.368 0.28 7.7 2.92 11.11
4/23/2022 2:00:00 PM 11 51.8 0.28 7.71 3.05 11.07
4/23/2022 2:15:00 PM 11.24 52.232 0.28 7.71 3.19 11.04
4/23/2022 2:30:00 PM 11.43 52.574 0.28 7.72 2.9 11
4/23/2022 2:45:00 PM 11.62 52.916 0.28 7.72 3 10.96
4/23/2022 3:00:00 PM 11.87 53.366 0.28 7.72 4.03 10.92
4/23/2022 3:15:00 PM 12.07 53.726 0.28 7.72 4.42 10.87
4/23/2022 3:30:00 PM 12.27 54.086 0.281 7.73 3.04 10.83
4/23/2022 3:45:00 PM 12.43 54.374 0.281 7.74 3 10.79
4/23/2022 4:00:00 PM 12.56 54.608 0.281 7.74 4.29 10.74
4/23/2022 4:15:00 PM 12.66 54.788 0.281 7.75 3.02 10.71
4/23/2022 4:30:00 PM 12.75 54.95 0.281 7.74 4.29 10.67
4/23/2022 4:45:00 PM 12.82 55.076 0.281 7.74 3.13 10.63
4/23/2022 5:00:00 PM 12.88 55.184 0.281 7.75 3.16 10.59
4/23/2022 5:15:00 PM 12.91 55.238 0.281 7.75 3.08 10.56
4/23/2022 5:30:00 PM 12.93 55.274 0.281 7.75 3.78 10.52
4/23/2022 5:45:00 PM 12.92 55.256 0.281 7.75 3.11 10.48
4/23/2022 6:00:00 PM 12.9 55.22 0.281 7.74 3.87 10.46
4/23/2022 6:15:00 PM 12.87 55.166 0.281 7.74 4 10.43
4/23/2022 6:30:00 PM 12.83 55.094 0.282 7.74 3.21 10.4
4/23/2022 6:45:00 PM 12.79 55.022 0.282 7.74 3.32 10.37
4/23/2022 7:00:00 PM 12.74 54.932 0.282 7.73 4.8 10.34
4/23/2022 7:15:00 PM 12.69 54.842 0.282 7.73 3.07 10.31
4/23/2022 7:30:00 PM 12.63 54.734 0.282 7.71 4.53 10.27
4/23/2022 7:45:00 PM 12.58 54.644 0.283 7.71 3.23 10.24
4/23/2022 8:00:00 PM 12.52 54.536 0.283 7.69 3.13 10.21
4/23/2022 8:15:00 PM 12.47 54.446 0.283 7.68 4.41 10.19
4/23/2022 8:30:00 PM 12.43 54.374 0.283 7.68 3.24 10.17
4/23/2022 8:45:00 PM 12.39 54.302 0.283 7.66 3.43 10.15
4/23/2022 9:00:00 PM 12.34 54.212 0.283 7.65 3.62 10.14
4/23/2022 9:15:00 PM 12.3 54.14 0.283 7.64 4.98 10.12
4/23/2022 9:30:00 PM 12.24 54.032 0.283 7.64 3.53 10.12
4/23/2022 9:45:00 PM 12.19 53.942 0.283 7.63 3.53 10.11
4/23/2022 10:00:00 PM 12.14 53.852 0.284 7.63 4.64 10.11
4/23/2022 10:15:00 PM 12.07 53.726 0.284 7.62 3.45 10.11
4/23/2022 10:30:00 PM 12.01 53.618 0.284 7.62 4.6 10.11
4/23/2022 10:45:00 PM 11.95 53.51 0.284 7.61 4.36 10.12
4/23/2022 11:00:00 PM 11.89 53.402 0.284 7.61 4.17 10.12
4/23/2022 11:15:00 PM 11.82 53.276 0.284 7.61 3.45 10.14
4/23/2022 11:30:00 PM 11.76 53.168 0.284 7.61 3.44 10.14
4/23/2022 11:45:00 PM 11.69 53.042 0.284 7.6 4.39 10.15
4/24/2022 12:00:00 AM 11.62 52.916 0.285 7.6 4.55 10.16
4/24/2022 12:15:00 AM 11.56 52.808 0.285 7.6 3.41 10.17
4/24/2022 12:30:00 AM 11.5 52.7 0.285 7.6 3.18 10.18
4/24/2022 12:45:00 AM 11.45 52.61 0.285 7.59 3.16 10.18
4/24/2022 1:00:00 AM 11.39 52.502 0.285 7.59 3.82 10.19
4/24/2022 1:15:00 AM 11.34 52.412 0.285 7.59 3.57 10.2
4/24/2022 1:30:00 AM 11.3 52.34 0.285 7.58 4.26 10.21
4/24/2022 1:45:00 AM 11.24 52.232 0.286 7.59 3.38 10.22
4/24/2022 2:00:00 AM 11.19 52.142 0.286 7.59 3.46 10.23
4/24/2022 2:15:00 AM 11.14 52.052 0.286 7.59 3.36 10.24
4/24/2022 2:30:00 AM 11.09 51.962 0.286 7.58 4.11 10.25
4/24/2022 2:45:00 AM 11.03 51.854 0.286 7.59 3.35 10.27
4/24/2022 3:00:00 AM 10.97 51.746 0.286 7.58 3.43 10.28
4/24/2022 3:15:00 AM 10.9 51.62 0.286 7.58 3.44 10.3
4/24/2022 3:30:00 AM 10.84 51.512 0.286 7.58 3.34 10.31
4/24/2022 3:45:00 AM 10.77 51.386 0.286 7.58 3.36 10.33
4/24/2022 4:00:00 AM 10.7 51.26 0.286 7.57 4.28 10.35
4/24/2022 4:15:00 AM 10.62 51.116 0.287 7.57 3.42 10.36
4/24/2022 4:30:00 AM 10.55 50.99 0.287 7.57 3.41 10.39
4/24/2022 4:45:00 AM 10.48 50.864 0.287 7.57 3.42 10.41
4/24/2022 5:00:00 AM 10.41 50.738 0.287 7.57 3.43 10.42
4/24/2022 5:15:00 AM 10.34 50.612 0.287 7.57 3.31 10.44
4/24/2022 5:30:00 AM 10.28 50.504 0.287 7.57 3.34 10.46
4/24/2022 5:45:00 AM 10.21 50.378 0.287 7.56 4.31 10.48
4/24/2022 6:00:00 AM 10.15 50.27 0.287 7.57 3.49 10.49
4/24/2022 6:15:00 AM 10.09 50.162 0.287 7.57 3.9 10.51
4/24/2022 6:30:00 AM 10.03 50.054 0.288 7.56 3.8 10.53
4/24/2022 6:45:00 AM 9.98 49.964 0.288 7.57 3.79 10.55
4/24/2022 7:00:00 AM 9.94 49.892 0.288 7.55 19.35 10.57
4/24/2022 7:15:00 AM 9.89 49.802 0.288 7.57 3.57 10.61
4/24/2022 7:30:00 AM 9.86 49.748 0.288 7.57 11.24 10.64
4/24/2022 7:45:00 AM 9.83 49.694 0.288 7.58 3.22 10.68
4/24/2022 8:00:00 AM 9.83 49.694 0.288 7.59 3.27 10.71
4/24/2022 8:15:00 AM 9.82 49.676 0.288 7.59 3.16 10.74
4/24/2022 8:30:00 AM 9.83 49.694 0.288 7.6 3.15 10.77
4/24/2022 8:45:00 AM 9.86 49.748 0.288 7.61 3.25 10.79
4/24/2022 9:00:00 AM 9.89 49.802 0.288 7.61 3.24 10.81
4/24/2022 9:15:00 AM 9.95 49.91 0.288 7.62 3.81 10.82
4/24/2022 9:30:00 AM 10.02 50.036 0.288 7.62 3.67 10.84
4/24/2022 9:45:00 AM 10.11 50.198 0.288 7.63 3.68 10.86
4/24/2022 10:00:00 AM 10.22 50.396 0.289 7.63 7.7 10.86
4/24/2022 10:15:00 AM 10.34 50.612 0.289 7.64 3.28 10.87
4/24/2022 10:30:00 AM 10.48 50.864 0.289 7.65 3.04 10.87
4/24/2022 10:45:00 AM 10.65 51.17 0.289 7.66 5.01 10.86
4/24/2022 11:00:00 AM 10.84 51.512 0.289 7.66 26.89 10.85
4/24/2022 11:15:00 AM 11.05 51.89 0.289 7.67 7.83 10.84
4/24/2022 11:30:00 AM 11.27 52.286 0.289 7.68 3.17 10.82
4/24/2022 11:45:00 AM 11.48 52.664 0.289 7.69 6.49 10.79
4/24/2022 12:00:00 PM 11.7 53.06 0.289 7.7 3.18 10.78
4/24/2022 12:15:00 PM 11.94 53.492 0.289 7.7 3.01 10.75
4/24/2022 12:30:00 PM 12.2 53.96 0.289 7.7 5.06 10.71
4/24/2022 12:45:00 PM 12.47 54.446 0.289 7.71 4.35 10.68
4/24/2022 1:00:00 PM 12.72 54.896 0.29 7.72 3.07 10.65
4/24/2022 1:15:00 PM 13.01 55.418 0.29 7.73 2.94 10.6
4/24/2022 1:30:00 PM 13.25 55.85 0.29 7.73 4.32 10.56
4/24/2022 1:45:00 PM 13.52 56.336 0.29 7.74 6.56 10.51
4/24/2022 2:00:00 PM 13.81 56.858 0.29 7.75 4.47 10.45
4/24/2022 2:15:00 PM 14.08 57.344 0.29 7.75 4.62 10.4
4/24/2022 2:30:00 PM 14.36 57.848 0.29 7.76 2.91 10.36
4/24/2022 2:45:00 PM 14.63 58.334 0.29 7.76 3.02 10.31
4/24/2022 3:00:00 PM 14.8 58.64 0.29 7.77 2.92 10.25
4/24/2022 3:15:00 PM 15.02 59.036 0.29 7.77 7.16 10.2
4/24/2022 3:30:00 PM 15.13 59.234 0.29 7.78 3.24 10.16
4/24/2022 3:45:00 PM 15.31 59.558 0.29 7.78 4.85 10.12
4/24/2022 4:00:00 PM 15.46 59.828 0.29 7.78 8.28 10.06
4/24/2022 4:15:00 PM 15.57 60.026 0.29 7.78 4.89 10.02
4/24/2022 4:30:00 PM 15.7 60.26 0.291 7.78 3.65 9.97
4/24/2022 4:45:00 PM 15.8 60.44 0.291 7.78 3.21 9.92
4/24/2022 5:00:00 PM 15.86 60.548 0.291 7.79 3.21 9.89
4/24/2022 5:15:00 PM 15.88 60.584 0.291 7.79 3.54 9.85
4/24/2022 5:30:00 PM 15.88 60.584 0.291 7.78 5.37 9.82
4/24/2022 5:45:00 PM 15.86 60.548 0.291 7.78 4.38 9.79
4/24/2022 6:00:00 PM 15.82 60.476 0.291 7.79 3.17 9.76
4/24/2022 6:15:00 PM 15.79 60.422 0.291 7.78 3.41 9.72
4/24/2022 6:30:00 PM 15.75 60.35 0.292 7.77 5.2 9.69
4/24/2022 6:45:00 PM 15.7 60.26 0.292 7.77 3.28 9.65
4/24/2022 7:00:00 PM 15.64 60.152 0.292 7.76 3.19 9.61
4/24/2022 7:15:00 PM 15.58 60.044 0.292 7.73 9.96 9.55
4/24/2022 7:30:00 PM 15.53 59.954 0.292 7.73 3.57 9.53
4/24/2022 7:45:00 PM 15.47 59.846 0.292 7.72 3.28 9.51
4/24/2022 8:00:00 PM 15.42 59.756 0.293 7.7 5.91 9.47
4/24/2022 8:15:00 PM 15.36 59.648 0.293 7.69 4.86 9.45
4/24/2022 8:30:00 PM 15.3 59.54 0.293 7.69 5.57 9.43
4/24/2022 8:45:00 PM 15.25 59.45 0.293 7.68 3.46 9.41
4/24/2022 9:00:00 PM 15.19 59.342 0.293 7.67 3.58 9.4
4/24/2022 9:15:00 PM 15.14 59.252 0.293 7.66 3.77 9.39
4/24/2022 9:30:00 PM 15.1 59.18 0.293 7.66 3.84 9.39
4/24/2022 9:45:00 PM 15.05 59.09 0.293 7.65 5.25 9.38
4/24/2022 10:00:00 PM 15.01 59.018 0.294 7.65 3.48 9.38
4/24/2022 10:15:00 PM 14.97 58.946 0.294 7.64 3.54 9.37
4/24/2022 10:30:00 PM 14.93 58.874 0.294 7.64 4.9 9.37
4/24/2022 10:45:00 PM 14.88 58.784 0.294 7.63 3.78 9.37
4/24/2022 11:00:00 PM 14.83 58.694 0.294 7.63 4.9 9.38
4/24/2022 11:15:00 PM 14.77 58.586 0.294 7.62 3.63 9.38
4/24/2022 11:30:00 PM 14.71 58.478 0.295 7.62 3.79 9.38
4/24/2022 11:45:00 PM 14.66 58.388 0.295 7.62 3.91 9.39
4/25/2022 12:00:00 AM 14.59 58.262 0.295 7.61 5.12 9.4
4/25/2022 12:15:00 AM 14.53 58.154 0.295 7.61 3.75 9.41
4/25/2022 12:30:00 AM 14.47 58.046 0.295 7.61 3.76 9.42
4/25/2022 12:45:00 AM 14.41 57.938 0.296 7.6 5.65 9.43
4/25/2022 1:00:00 AM 14.34 57.812 0.296 7.6 3.75 9.44
4/25/2022 1:15:00 AM 14.28 57.704 0.296 7.59 5.04 9.45
4/25/2022 1:30:00 AM 14.22 57.596 0.296 7.59 5.9 9.46
4/25/2022 1:45:00 AM 14.16 57.488 0.296 7.59 5.14 9.47
4/25/2022 2:00:00 AM 14.1 57.38 0.296 7.59 3.51 9.48
4/25/2022 2:15:00 AM 14.04 57.272 0.296 7.58 5.55 9.49
4/25/2022 2:30:00 AM 13.98 57.164 0.296 7.58 5.16 9.5
4/25/2022 2:45:00 AM 13.92 57.056 0.296 7.58 4.79 9.52
4/25/2022 3:00:00 AM 13.86 56.948 0.297 7.58 3.48 9.53
4/25/2022 3:15:00 AM 13.79 56.822 0.297 7.58 3.67 9.54
4/25/2022 3:30:00 AM 13.73 56.714 0.297 7.58 4 9.56
4/25/2022 3:45:00 AM 13.66 56.588 0.297 7.58 3.61 9.57
4/25/2022 4:00:00 AM 13.59 56.462 0.297 7.58 3.64 9.59
4/25/2022 4:15:00 AM 13.52 56.336 0.297 7.58 3.61 9.61
4/25/2022 4:30:00 AM 13.45 56.21 0.297 7.57 5.64 9.63
4/25/2022 4:45:00 AM 13.38 56.084 0.297 7.57 6.39 9.65
4/25/2022 5:00:00 AM 13.31 55.958 0.297 7.58 3.45 9.67
4/25/2022 5:15:00 AM 13.24 55.832 0.298 7.58 3.73 9.68
4/25/2022 5:30:00 AM 13.17 55.706 0.298 7.57 5.25 9.7
4/25/2022 5:45:00 AM 13.1 55.58 0.298 7.57 3.68 9.72
4/25/2022 6:00:00 AM 13.03 55.454 0.298 7.57 3.71 9.73
4/25/2022 6:15:00 AM 12.97 55.346 0.298 7.57 5.92 9.75
4/25/2022 6:30:00 AM 12.91 55.238 0.298 7.57 3.85 9.77
4/25/2022 6:45:00 AM 12.85 55.13 0.298 7.57 4.74 9.79
4/25/2022 7:00:00 AM 12.8 55.04 0.298 7.57 3.51 9.82
4/25/2022 7:15:00 AM 12.76 54.968 0.298 7.58 4.9 9.85
4/25/2022 7:30:00 AM 12.72 54.896 0.299 7.59 3.55 9.89
4/25/2022 7:45:00 AM 12.69 54.842 0.299 7.59 5.31 9.92
4/25/2022 8:00:00 AM 12.67 54.806 0.299 7.6 3.44 9.96
4/25/2022 8:15:00 AM 12.69 54.842 0.299 7.61 3.43 10
4/25/2022 8:30:00 AM 12.69 54.842 0.299 7.61 3.46 10.03
4/25/2022 8:45:00 AM 12.72 54.896 0.299 7.62 3.41 10.07
4/25/2022 9:00:00 AM 12.74 54.932 0.299 7.62 5 10.08
4/25/2022 9:15:00 AM 12.79 55.022 0.299 7.63 4.52 10.11
4/25/2022 9:30:00 AM 12.87 55.166 0.299 7.64 4.89 10.12
4/25/2022 9:45:00 AM 12.96 55.328 0.299 7.65 3.51 10.13
4/25/2022 10:00:00 AM 13.07 55.526 0.299 7.66 3.33 10.14
4/25/2022 10:15:00 AM 13.19 55.742 0.299 7.67 3.51 10.15
4/25/2022 10:30:00 AM 13.33 55.994 0.3 7.68 4.43 10.15
4/25/2022 10:45:00 AM 13.49 56.282 0.3 7.69 3.53 10.15
4/25/2022 11:00:00 AM 13.67 56.606 0.3 7.7 3.36 10.14
4/25/2022 11:15:00 AM 13.87 56.966 0.3 7.7 4.48 10.13
4/25/2022 11:30:00 AM 14.05 57.29 0.3 7.72 3.45 10.12
4/25/2022 11:45:00 AM 14.32 57.776 0.3 7.73 3.33 10.12
4/25/2022 12:00:00 PM 14.47 58.046 0.3 7.74 3.29 10.1
4/25/2022 12:15:00 PM 14.49 58.082 0.3 7.74 3.4 10.07
4/25/2022 12:30:00 PM 14.77 58.586 0.301 7.75 4.4 10.06
4/25/2022 12:45:00 PM 14.8 58.64 0.301 7.76 3.34 10.03
4/25/2022 1:00:00 PM 14.86 58.748 0.301 7.76 3.12 10.01
4/25/2022 1:15:00 PM 14.97 58.946 0.301 7.77 3.25 9.99
4/25/2022 1:30:00 PM 15.2 59.36 0.301 7.77 4.41 9.96
4/25/2022 1:45:00 PM 15.39 59.702 0.302 7.77 3.43 9.94
4/25/2022 2:00:00 PM 15.49 59.882 0.302 7.78 3.4 9.91
4/25/2022 2:15:00 PM 15.77 60.386 0.302 7.79 3.4 9.89
4/25/2022 2:30:00 PM 15.91 60.638 0.302 7.8 3.39 9.85
4/25/2022 2:45:00 PM 16.04 60.872 0.303 7.8 3.52 9.81
4/25/2022 3:00:00 PM 16.32 61.376 0.303 7.8 4.12 9.79
4/25/2022 3:15:00 PM 16.41 61.538 0.303 7.81 3.33 9.76
4/25/2022 3:30:00 PM 16.57 61.826 0.303 7.81 3.54 9.74
4/25/2022 3:45:00 PM 16.75 62.15 0.303 7.81 3.42 9.71
4/25/2022 4:00:00 PM 16.84 62.312 0.304 7.82 3.2 9.67
4/25/2022 4:15:00 PM 16.88 62.384 0.304 7.82 3.27 9.63
4/25/2022 4:30:00 PM 16.92 62.456 0.304 7.82 3.27 9.6
4/25/2022 4:45:00 PM 16.95 62.51 0.304 7.83 3.56 9.59
4/25/2022 5:00:00 PM 16.86 62.348 0.304 7.82 3.4 9.56
4/25/2022 5:15:00 PM 16.95 62.51 0.304 7.82 3.31 9.56
4/25/2022 5:30:00 PM 16.98 62.564 0.305 7.83 4.38 9.54
4/25/2022 5:45:00 PM 16.99 62.582 0.305 7.83 3.27 9.51
4/25/2022 6:00:00 PM 16.99 62.582 0.305 7.83 3.35 9.47
4/25/2022 6:15:00 PM 16.96 62.528 0.305 7.82 3.34 9.44
4/25/2022 6:30:00 PM 16.91 62.438 0.305 7.82 3.38 9.41
4/25/2022 6:45:00 PM 16.81 62.258 0.306 7.8 4.51 9.36
4/25/2022 7:00:00 PM 16.73 62.114 0.306 7.8 3.21 9.32
4/25/2022 7:15:00 PM 16.66 61.988 0.306 7.78 3.24 9.28
4/25/2022 7:30:00 PM 16.59 61.862 0.306 7.78 3.29 9.25
4/25/2022 7:45:00 PM 16.54 61.772 0.307 7.77 3.57 9.23
4/25/2022 8:00:00 PM 16.46 61.628 0.307 7.76 3.6 9.21
4/25/2022 8:15:00 PM 16.38 61.484 0.307 7.75 3.63 9.19
4/25/2022 8:30:00 PM 16.31 61.358 0.307 7.74 3.48 9.17
4/25/2022 8:45:00 PM 16.24 61.232 0.308 7.73 4.61 9.16
4/25/2022 9:00:00 PM 16.16 61.088 0.308 7.72 4.71 9.16
4/25/2022 9:15:00 PM 16.09 60.962 0.308 7.72 3.86 9.16
4/25/2022 9:30:00 PM 16.03 60.854 0.308 7.7 5 9.15
4/25/2022 9:45:00 PM 15.95 60.71 0.309 7.71 3.97 9.15
4/25/2022 10:00:00 PM 15.88 60.584 0.309 7.7 3.89 9.16
4/25/2022 10:15:00 PM 15.81 60.458 0.309 7.7 3.82 9.17
4/25/2022 10:30:00 PM 15.74 60.332 0.309 7.69 3.87 9.17
4/25/2022 10:45:00 PM 15.67 60.206 0.309 7.68 3.86 9.18
4/25/2022 11:00:00 PM 15.61 60.098 0.309 7.67 10.48 9.18
4/25/2022 11:15:00 PM 15.54 59.972 0.31 7.67 4.52 9.19
4/25/2022 11:30:00 PM 15.49 59.882 0.31 7.66 6.1 9.2
4/25/2022 11:45:00 PM 15.43 59.774 0.31 7.66 5.25 9.21
4/26/2022 12:00:00 AM 15.37 59.666 0.31 7.66 6.05 9.22
4/26/2022 12:15:00 AM 15.31 59.558 0.31 7.66 4.2 9.23
4/26/2022 12:30:00 AM 15.24 59.432 0.31 7.66 5.36 9.25
4/26/2022 12:45:00 AM 15.18 59.324 0.31 7.66 3.68 9.26
4/26/2022 1:00:00 AM 15.12 59.216 0.31 7.65 4.84 9.28
4/26/2022 1:15:00 AM 15.06 59.108 0.31 7.65 5.15 9.29
4/26/2022 1:30:00 AM 14.99 58.982 0.31 7.65 10.97 9.3
4/26/2022 1:45:00 AM 14.94 58.892 0.311 7.65 3.89 9.31
4/26/2022 2:00:00 AM 14.88 58.784 0.311 7.65 3.94 9.33
4/26/2022 2:15:00 AM 14.83 58.694 0.311 7.65 3.7 9.34
4/26/2022 2:30:00 AM 14.78 58.604 0.311 7.64 4.14 9.35
4/26/2022 2:45:00 AM 14.74 58.532 0.311 7.64 4 9.35
4/26/2022 3:00:00 AM 14.7 58.46 0.311 7.64 3.81 9.36
4/26/2022 3:15:00 AM 14.67 58.406 0.311 7.64 3.96 9.36
4/26/2022 3:30:00 AM 14.63 58.334 0.311 7.63 8.12 9.37
4/26/2022 3:45:00 AM 14.6 58.28 0.311 7.63 6.67 9.38
4/26/2022 4:00:00 AM 14.56 58.208 0.311 7.63 3.98 9.39
4/26/2022 4:15:00 AM 14.53 58.154 0.311 7.63 3.82 9.4
4/26/2022 4:30:00 AM 14.5 58.1 0.311 7.63 3.79 9.41
4/26/2022 4:45:00 AM 14.45 58.01 0.312 7.63 4.01 9.41
4/26/2022 5:00:00 AM 14.41 57.938 0.312 7.63 5.21 9.43
4/26/2022 5:15:00 AM 14.36 57.848 0.312 7.63 5.02 9.44
4/26/2022 5:30:00 AM 14.31 57.758 0.312 7.64 4.03 9.46
4/26/2022 5:45:00 AM 14.26 57.668 0.312 7.63 5.16 9.47
4/26/2022 6:00:00 AM 14.2 57.56 0.312 7.64 4.01 9.48
4/26/2022 6:15:00 AM 14.15 57.47 0.313 7.64 4.15 9.5
4/26/2022 6:30:00 AM 14.11 57.398 0.313 7.64 4.04 9.5
4/26/2022 6:45:00 AM 14.07 57.326 0.313 7.63 4.96 9.52
4/26/2022 7:00:00 AM 14.02 57.236 0.313 7.64 5.32 9.54
4/26/2022 7:15:00 AM 13.98 57.164 0.313 7.64 4.98 9.56
4/26/2022 7:30:00 AM 13.95 57.11 0.313 7.65 3.89 9.59
4/26/2022 7:45:00 AM 13.92 57.056 0.313 7.65 3.95 9.63
4/26/2022 8:00:00 AM 13.9 57.02 0.313 7.65 4.74 9.65
4/26/2022 8:15:00 AM 13.87 56.966 0.313 7.66 4.83 9.67
4/26/2022 8:30:00 AM 13.84 56.912 0.313 7.66 4.63 9.69
4/26/2022 8:45:00 AM 13.81 56.858 0.313 7.67 4.76 9.72
4/26/2022 9:00:00 AM 13.79 56.822 0.314 7.67 4.64 9.74
4/26/2022 9:15:00 AM 13.78 56.804 0.314 7.68 4.61 9.77
4/26/2022 9:30:00 AM 13.75 56.75 0.314 7.69 3.79 9.8
4/26/2022 9:45:00 AM 13.73 56.714 0.314 7.69 3.68 9.82
4/26/2022 10:00:00 AM 13.75 56.75 0.314 7.7 3.63 9.85
4/26/2022 10:15:00 AM 13.79 56.822 0.314 7.71 3.75 9.9
4/26/2022 10:30:00 AM 13.8 56.84 0.314 7.72 3.75 9.94
4/26/2022 10:45:00 AM 13.81 56.858 0.314 7.73 3.64 9.96
4/26/2022 11:00:00 AM 13.77 56.786 0.314 7.73 3.47 9.94
4/26/2022 11:15:00 AM 13.76 56.768 0.314 7.73 3.58 9.95
4/26/2022 11:30:00 AM 13.77 56.786 0.314 7.74 3.63 9.98
4/26/2022 11:45:00 AM 13.77 56.786 0.314 7.75 3.72 9.99
4/26/2022 12:00:00 PM 13.76 56.768 0.314 7.75 3.69 10
4/26/2022 12:15:00 PM 13.77 56.786 0.314 7.75 3.76 10.01
4/26/2022 12:30:00 PM 13.82 56.876 0.314 7.76 3.47 10.04
4/26/2022 12:45:00 PM 13.8 56.84 0.314 7.77 4.68 10.04
4/26/2022 1:00:00 PM 13.77 56.786 0.315 7.76 4.46 10.02
4/26/2022 1:15:00 PM 13.76 56.768 0.316 7.76 4.51 10.02
4/26/2022 1:30:00 PM 13.73 56.714 0.316 7.77 3.62 10.01
4/26/2022 1:45:00 PM 13.71 56.678 0.316 7.76 3.56 9.99
4/26/2022 2:00:00 PM 13.69 56.642 0.315 7.76 3.77 9.98
4/26/2022 2:15:00 PM 13.65 56.57 0.315 7.76 3.68 9.98
4/26/2022 2:30:00 PM 13.63 56.534 0.315 7.76 3.54 9.97
4/26/2022 2:45:00 PM 13.63 56.534 0.315 7.76 4.82 9.99
4/26/2022 3:00:00 PM 13.62 56.516 0.316 7.77 4.63 10.02
4/26/2022 3:15:00 PM 13.6 56.48 0.316 7.78 3.42 10.03
4/26/2022 3:30:00 PM 13.57 56.426 0.316 7.78 3.48 10.04
4/26/2022 3:45:00 PM 13.53 56.354 0.316 7.78 3.56 10.03
4/26/2022 4:00:00 PM 13.48 56.264 0.317 7.77 4.26 10.01
4/26/2022 4:15:00 PM 13.46 56.228 0.317 7.77 3.28 10.01
4/26/2022 4:30:00 PM 13.49 56.282 0.317 7.77 4.79 10.04
4/26/2022 4:45:00 PM 13.47 56.246 0.317 7.78 3.57 10.06
4/26/2022 5:00:00 PM 13.42 56.156 0.317 7.78 5.54 10.05
4/26/2022 5:15:00 PM 13.41 56.138 0.317 7.78 3.82 10.05
4/26/2022 5:30:00 PM 13.38 56.084 0.317 7.78 4.5 10.06
4/26/2022 5:45:00 PM 13.34 56.012 0.318 7.78 4.76 10.08
4/26/2022 6:00:00 PM 13.29 55.922 0.318 7.79 7.55 10.08
4/26/2022 6:15:00 PM 13.23 55.814 0.318 7.78 4.67 10.06
4/26/2022 6:30:00 PM 13.2 55.76 0.318 7.78 4.69 10.05
4/26/2022 6:45:00 PM 13.16 55.688 0.319 7.78 4.45 10.04
4/26/2022 7:00:00 PM 13.11 55.598 0.319 7.78 3.67 10.04
4/26/2022 7:15:00 PM 13.04 55.472 0.319 7.77 3.56 10.03
4/26/2022 7:30:00 PM 12.99 55.382 0.319 7.77 3.54 10.02
4/26/2022 7:45:00 PM 12.93 55.274 0.32 7.76 3.52 10.03
4/26/2022 8:00:00 PM 12.88 55.184 0.32 7.76 3.66 10.01
4/26/2022 8:15:00 PM 12.82 55.076 0.32 7.75 4.23 9.99
4/26/2022 8:30:00 PM 12.76 54.968 0.32 7.74 5.06 9.98
4/26/2022 8:45:00 PM 12.68 54.824 0.321 7.73 4.63 9.98
4/26/2022 9:00:00 PM 12.61 54.698 0.321 7.73 3.85 9.97
4/26/2022 9:15:00 PM 12.54 54.572 0.321 7.72 5.09 9.98
4/26/2022 9:30:00 PM 12.45 54.41 0.322 7.73 4.06 9.99
4/26/2022 9:45:00 PM 12.38 54.284 0.322 7.72 5.06 9.99
4/26/2022 10:00:00 PM 12.31 54.158 0.322 7.72 3.98 10.01
4/26/2022 10:15:00 PM 12.24 54.032 0.322 7.72 3.78 10.01
4/26/2022 10:30:00 PM 12.18 53.924 0.323 7.71 5.17 10.02
4/26/2022 10:45:00 PM 12.1 53.78 0.323 7.71 3.92 10.03
4/26/2022 11:00:00 PM 12.03 53.654 0.323 7.71 5.19 10.04
4/26/2022 11:15:00 PM 11.95 53.51 0.323 7.7 3.95 10.05
4/26/2022 11:30:00 PM 11.87 53.366 0.323 7.7 4.15 10.07
4/26/2022 11:45:00 PM 11.81 53.258 0.324 7.7 3.9 10.09
4/27/2022 12:00:00 AM 11.75 53.15 0.324 7.7 6.04 10.09
4/27/2022 12:15:00 AM 11.69 53.042 0.324 7.7 5.72 10.11
4/27/2022 12:30:00 AM 11.61 52.898 0.324 7.69 4.85 10.12
4/27/2022 12:45:00 AM 11.54 52.772 0.324 7.7 3.78 10.14
4/27/2022 1:00:00 AM 11.48 52.664 0.324 7.69 4.87 10.15
4/27/2022 1:15:00 AM 11.4 52.52 0.324 7.69 4.66 10.17
4/27/2022 1:30:00 AM 11.33 52.394 0.324 7.7 3.97 10.18
4/27/2022 1:45:00 AM 11.26 52.268 0.325 7.69 5.28 10.19
4/27/2022 2:00:00 AM 11.19 52.142 0.325 7.69 5.04 10.21
4/27/2022 2:15:00 AM 11.14 52.052 0.325 7.69 6.09 10.22
4/27/2022 2:30:00 AM 11.07 51.926 0.325 7.69 5.35 10.24
4/27/2022 2:45:00 AM 11 51.8 0.325 7.69 5.03 10.26
4/27/2022 3:00:00 AM 10.93 51.674 0.325 7.69 4.05 10.28
4/27/2022 3:15:00 AM 10.84 51.512 0.325 7.67 5.94 10.3
4/27/2022 3:30:00 AM 10.77 51.386 0.325 7.68 21.8 10.32
4/27/2022 3:45:00 AM 10.7 51.26 0.325 7.69 4.3 10.34
4/27/2022 4:00:00 AM 10.61 51.098 0.325 7.68 7.08 10.36
4/27/2022 4:15:00 AM 10.53 50.954 0.325 7.68 5.74 10.37
4/27/2022 4:30:00 AM 10.45 50.81 0.325 7.69 24.04 10.4
4/27/2022 4:45:00 AM 10.37 50.666 0.325 7.68 4.4 10.42
4/27/2022 5:00:00 AM 10.3 50.54 0.325 7.68 6.71 10.44
4/27/2022 5:15:00 AM 10.23 50.414 0.326 7.69 7.86 10.46
4/27/2022 5:30:00 AM 10.16 50.288 0.326 7.69 4.14 10.48
4/27/2022 5:45:00 AM 10.07 50.126 0.326 7.68 6.24 10.5
4/27/2022 6:00:00 AM 9.98 49.964 0.326 7.69 4.04 10.52
4/27/2022 6:15:00 AM 9.88 49.784 0.326 7.69 4.3 10.54
4/27/2022 6:30:00 AM 9.78 49.604 0.326 7.69 3.92 10.57
4/27/2022 6:45:00 AM 9.69 49.442 0.326 7.69 5.01 10.6
4/27/2022 7:00:00 AM 9.6 49.28 0.326 7.69 3.96 10.64
4/27/2022 7:15:00 AM 9.54 49.172 0.326 7.69 4.77 10.68
4/27/2022 7:30:00 AM 9.5 49.1 0.327 7.7 4.15 10.73
4/27/2022 7:45:00 AM 9.47 49.046 0.327 7.71 3.98 10.77
4/27/2022 8:00:00 AM 9.45 49.01 0.327 7.72 4.05 10.81
4/27/2022 8:15:00 AM 9.43 48.974 0.327 7.72 3.76 10.85
4/27/2022 8:30:00 AM 9.4 48.92 0.327 7.73 3.97 10.89
4/27/2022 8:45:00 AM 9.36 48.848 0.327 7.73 4.44 10.92
4/27/2022 9:00:00 AM 9.31 48.758 0.327 7.74 3.87 10.96
4/27/2022 9:15:00 AM 9.26 48.668 0.327 7.74 3.88 10.98
4/27/2022 9:30:00 AM 9.23 48.614 0.327 7.75 3.99 11.02
4/27/2022 9:45:00 AM 9.22 48.596 0.327 7.75 4.78 11.04
4/27/2022 10:00:00 AM 9.18 48.524 0.327 7.75 5.16 11.05
4/27/2022 10:15:00 AM 9.16 48.488 0.327 7.76 4.76 11.07
4/27/2022 10:30:00 AM 9.13 48.434 0.328 7.76 3.78 11.09
4/27/2022 10:45:00 AM 9.13 48.434 0.327 7.77 3.8 11.11
4/27/2022 11:00:00 AM 9.22 48.596 0.327 7.77 3.77 11.14
4/27/2022 11:15:00 AM 9.25 48.65 0.328 7.78 3.82 11.15
4/27/2022 11:30:00 AM 9.25 48.65 0.328 7.78 3.7 11.16
4/27/2022 11:45:00 AM 9.23 48.614 0.328 7.79 3.79 11.17
4/27/2022 12:00:00 PM 9.21 48.578 0.328 7.79 3.7 11.19
4/27/2022 12:15:00 PM 9.18 48.524 0.328 7.79 3.68 11.19
4/27/2022 12:30:00 PM 9.16 48.488 0.328 7.79 4.49 11.19
4/27/2022 12:45:00 PM 9.16 48.488 0.328 7.8 3.58 11.21
4/27/2022 1:00:00 PM 9.16 48.488 0.328 7.8 3.59 11.23
4/27/2022 1:15:00 PM 9.23 48.614 0.328 7.81 3.61 11.25
4/27/2022 1:30:00 PM 9.24 48.632 0.328 7.81 3.49 11.25
4/27/2022 1:45:00 PM 9.29 48.722 0.328 7.82 3.6 11.26
4/27/2022 2:00:00 PM 9.34 48.812 0.328 7.82 3.6 11.26
4/27/2022 2:15:00 PM 9.33 48.794 0.328 7.82 5.84 11.25
4/27/2022 2:30:00 PM 9.31 48.758 0.328 7.83 3.58 11.27
4/27/2022 2:45:00 PM 9.25 48.65 0.328 7.82 4.82 11.25
4/27/2022 3:00:00 PM 9.22 48.596 0.328 7.83 3.59 11.25
4/27/2022 3:15:00 PM 9.2 48.56 0.329 7.83 3.56 11.26
4/27/2022 3:30:00 PM 9.15 48.47 0.329 7.82 5 11.25
4/27/2022 3:45:00 PM 9.08 48.344 0.329 7.82 3.75 11.23
4/27/2022 4:00:00 PM 9.02 48.236 0.329 7.82 3.62 11.23
4/27/2022 4:15:00 PM 8.98 48.164 0.329 7.82 3.44 11.24
4/27/2022 4:30:00 PM 8.92 48.056 0.329 7.81 5.58 11.23
4/27/2022 4:45:00 PM 8.86 47.948 0.33 7.82 3.72 11.23
4/27/2022 5:00:00 PM 8.86 47.948 0.33 7.81 3.57 11.25
4/27/2022 5:15:00 PM 8.84 47.912 0.33 7.82 3.67 11.27
4/27/2022 5:30:00 PM 8.78 47.804 0.33 7.82 3.44 11.28
4/27/2022 5:45:00 PM 8.75 47.75 0.33 7.82 3.53 11.29
4/27/2022 6:00:00 PM 8.69 47.642 0.331 7.81 4.27 11.3
4/27/2022 6:15:00 PM 8.63 47.534 0.331 7.81 3.63 11.29
4/27/2022 6:30:00 PM 8.56 47.408 0.328 7.81 4.26 11.29
4/27/2022 6:45:00 PM 8.46 47.228 0.332 7.8 3.46 11.27
4/27/2022 7:00:00 PM 8.4 47.12 0.332 7.79 4.56 11.28
4/27/2022 7:15:00 PM 8.32 46.976 0.332 7.79 3.54 11.27
4/27/2022 7:30:00 PM 8.24 46.832 0.332 7.78 3.6 11.28
4/27/2022 7:45:00 PM 8.17 46.706 0.332 7.78 3.61 11.27
4/27/2022 8:00:00 PM 8.1 46.58 0.333 7.77 3.35 11.27
4/27/2022 8:15:00 PM 8.02 46.436 0.333 7.76 4.74 11.27
4/27/2022 8:30:00 PM 7.96 46.328 0.331 7.75 5.09 11.26
4/27/2022 8:45:00 PM 7.89 46.202 0.334 7.75 3.72 11.27
4/27/2022 9:00:00 PM 7.8 46.04 0.334 7.74 4.23 11.28
4/27/2022 9:15:00 PM 7.73 45.914 0.334 7.74 3.89 11.29
4/27/2022 9:30:00 PM 7.68 45.824 0.334 7.74 4.6 11.29
4/27/2022 9:45:00 PM 7.63 45.734 0.335 7.73 4.58 11.3
4/27/2022 10:00:00 PM 7.57 45.626 0.335 7.73 3.83 11.31
4/27/2022 10:15:00 PM 7.51 45.518 0.335 7.73 3.86 11.32
4/27/2022 10:30:00 PM 7.45 45.41 0.335 7.72 5.6 11.34
4/27/2022 10:45:00 PM 7.39 45.302 0.336 7.72 4.35 11.35
4/27/2022 11:00:00 PM 7.31 45.158 0.336 7.72 6.37 11.36
4/27/2022 11:15:00 PM 7.24 45.032 0.336 7.72 4.78 11.39
4/27/2022 11:30:00 PM 7.17 44.906 0.336 7.71 4.08 11.4
4/27/2022 11:45:00 PM 7.1 44.78 0.337 7.71 3.82 11.42
4/28/2022 12:00:00 AM 7.04 44.672 0.337 7.72 3.66 11.44
4/28/2022 12:15:00 AM 6.99 44.582 0.337 7.71 3.65 11.46
4/28/2022 12:30:00 AM 6.93 44.474 0.337 7.71 3.64 11.47
4/28/2022 12:45:00 AM 6.88 44.384 0.338 7.71 3.69 11.48
4/28/2022 1:00:00 AM 6.83 44.294 0.338 7.71 3.71 11.5
4/28/2022 1:15:00 AM 6.79 44.222 0.338 7.71 3.46 11.51
4/28/2022 1:30:00 AM 6.74 44.132 0.338 7.71 3.68 11.53
4/28/2022 1:45:00 AM 6.65 43.97 0.338 7.71 3.64 11.55
4/28/2022 2:00:00 AM 6.61 43.898 0.338 7.71 3.72 11.56
4/28/2022 2:15:00 AM 6.57 43.826 0.338 7.71 3.63 11.58
4/28/2022 2:30:00 AM 6.51 43.718 0.339 7.71 3.85 11.6
4/28/2022 2:45:00 AM 6.45 43.61 0.339 7.71 3.79 11.61
4/28/2022 3:00:00 AM 6.41 43.538 0.339 7.71 3.66 11.62
4/28/2022 3:15:00 AM 6.35 43.43 0.339 7.71 3.73 11.64
4/28/2022 3:30:00 AM 6.29 43.322 0.339 7.7 3.67 11.66
4/28/2022 3:45:00 AM 6.24 43.232 0.339 7.71 3.69 11.68
4/28/2022 4:00:00 AM 6.2 43.16 0.339 7.71 3.69 11.69
4/28/2022 4:15:00 AM 6.15 43.07 0.34 7.71 3.76 11.71
4/28/2022 4:30:00 AM 6.09 42.962 0.34 7.71 3.81 11.73
4/28/2022 4:45:00 AM 6.05 42.89 0.34 7.71 3.66 11.74
4/28/2022 5:00:00 AM 6.01 42.818 0.34 7.7 4.38 11.76
4/28/2022 5:15:00 AM 5.96 42.728 0.341 7.71 4.03 11.77
4/28/2022 5:30:00 AM 5.92 42.656 0.341 7.71 3.63 11.78
4/28/2022 5:45:00 AM 5.87 42.566 0.341 7.71 3.65 11.8
4/28/2022 6:00:00 AM 5.83 42.494 0.341 7.71 3.74 11.82
4/28/2022 6:15:00 AM 5.78 42.404 0.341 7.71 3.88 11.84
4/28/2022 6:30:00 AM 5.75 42.35 0.341 7.71 3.72 11.85
4/28/2022 6:45:00 AM 5.7 42.26 0.342 7.71 3.99 11.88
4/28/2022 7:00:00 AM 5.67 42.206 0.342 7.71 4.12 11.9
4/28/2022 7:15:00 AM 5.65 42.17 0.342 7.72 3.86 11.94
4/28/2022 7:30:00 AM 5.63 42.134 0.342 7.72 3.6 11.98
4/28/2022 7:45:00 AM 5.61 42.098 0.342 7.73 3.48 12.02
4/28/2022 8:00:00 AM 5.61 42.098 0.343 7.74 3.54 12.05
4/28/2022 8:15:00 AM 5.6 42.08 0.343 7.74 3.72 12.08
4/28/2022 8:30:00 AM 5.62 42.116 0.343 7.75 3.59 12.11
4/28/2022 8:45:00 AM 5.6 42.08 0.343 7.75 3.73 12.12
4/28/2022 9:00:00 AM 5.62 42.116 0.344 7.76 3.48 12.14
4/28/2022 9:15:00 AM 5.66 42.188 0.344 7.76 3.64 12.16
4/28/2022 9:30:00 AM 5.7 42.26 0.344 7.76 3.62 12.16
4/28/2022 9:45:00 AM 5.78 42.404 0.344 7.76 5.18 12.17
4/28/2022 10:00:00 AM 5.92 42.656 0.344 7.77 3.45 12.17
4/28/2022 10:15:00 AM 6.04 42.872 0.344 7.78 3.42 12.16
4/28/2022 10:30:00 AM 6.17 43.106 0.344 7.78 3.49 12.16
4/28/2022 10:45:00 AM 6.33 43.394 0.344 7.78 3.49 12.15
4/28/2022 11:00:00 AM 6.48 43.664 0.344 7.79 3.55 12.13
4/28/2022 11:15:00 AM 6.65 43.97 0.344 7.79 3.63 12.12
4/28/2022 11:30:00 AM 6.83 44.294 0.344 7.79 3.54 12.1
4/28/2022 11:45:00 AM 7.04 44.672 0.344 7.8 3.55 12.07
4/28/2022 12:00:00 PM 7.23 45.014 0.345 7.8 3.39 12.04
4/28/2022 12:15:00 PM 7.45 45.41 0.345 7.81 3.37 12.01
4/28/2022 12:30:00 PM 7.71 45.878 0.342 7.81 5.14 11.96
4/28/2022 12:45:00 PM 7.93 46.274 0.345 7.82 3.41 11.93
4/28/2022 1:00:00 PM 8.18 46.724 0.345 7.82 3.47 11.89
4/28/2022 1:15:00 PM 8.42 47.156 0.345 7.83 3.38 11.84
4/28/2022 1:30:00 PM 8.7 47.66 0.345 7.82 3.33 11.78
4/28/2022 1:45:00 PM 8.98 48.164 0.345 7.83 4.29 11.71
4/28/2022 2:00:00 PM 9.24 48.632 0.345 7.83 3.49 11.66
4/28/2022 2:15:00 PM 9.46 49.028 0.345 7.83 4.14 11.6
4/28/2022 2:30:00 PM 9.7 49.46 0.345 7.84 3.44 11.54
4/28/2022 2:45:00 PM 9.91 49.838 0.346 7.84 4.27 11.49
4/28/2022 3:00:00 PM 10.14 50.252 0.346 7.85 3.41 11.43
4/28/2022 3:15:00 PM 10.31 50.558 0.346 7.85 3.51 11.37
4/28/2022 3:30:00 PM 10.46 50.828 0.346 7.85 3.31 11.32
4/28/2022 3:45:00 PM 10.64 51.152 0.347 7.86 3.51 11.26
4/28/2022 4:00:00 PM 10.77 51.386 0.347 7.85 4.57 11.21
4/28/2022 4:15:00 PM 10.84 51.512 0.347 7.86 4.35 11.16
4/28/2022 4:30:00 PM 10.92 51.656 0.347 7.86 3.36 11.12
4/28/2022 4:45:00 PM 10.97 51.746 0.347 7.87 3.38 11.08
4/28/2022 5:00:00 PM 11 51.8 0.347 7.87 3.43 11.04
4/28/2022 5:15:00 PM 10.98 51.764 0.347 7.87 3.42 11.01
4/28/2022 5:30:00 PM 10.92 51.656 0.348 7.87 3.43 10.99
4/28/2022 5:45:00 PM 10.86 51.548 0.348 7.87 4.37 10.97
4/28/2022 6:00:00 PM 10.79 51.422 0.348 7.87 3.5 10.94
4/28/2022 6:15:00 PM 10.7 51.26 0.348 7.87 3.57 10.93
4/28/2022 6:30:00 PM 10.59 51.062 0.348 7.86 5.13 10.91
4/28/2022 6:45:00 PM 10.47 50.846 0.348 7.87 3.46 10.9
4/28/2022 7:00:00 PM 10.36 50.648 0.349 7.86 3.5 10.88
4/28/2022 7:15:00 PM 10.24 50.432 0.349 7.86 3.41 10.87
4/28/2022 7:30:00 PM 10.15 50.27 0.349 7.85 3.48 10.85
4/28/2022 7:45:00 PM 10.05 50.09 0.349 7.84 3.41 10.83
4/28/2022 8:00:00 PM 9.95 49.91 0.35 7.83 4.45 10.81
4/28/2022 8:15:00 PM 9.85 49.73 0.35 7.82 3.54 10.8
4/28/2022 8:30:00 PM 9.75 49.55 0.35 7.82 3.62 10.8
4/28/2022 8:45:00 PM 9.65 49.37 0.35 7.8 6.93 10.79
4/28/2022 9:00:00 PM 9.56 49.208 0.35 7.79 12 10.8
4/28/2022 9:15:00 PM 9.46 49.028 0.35 7.8 4.16 10.81
4/28/2022 9:30:00 PM 9.35 48.83 0.351 7.79 4.09 10.82
4/28/2022 9:45:00 PM 9.26 48.668 0.351 7.78 8.85 10.83
4/28/2022 10:00:00 PM 9.15 48.47 0.351 7.78 3.96 10.85
4/28/2022 10:15:00 PM 9.05 48.29 0.351 7.78 4.32 10.86
4/28/2022 10:30:00 PM 8.96 48.128 0.351 7.77 4.15 10.87
4/28/2022 10:45:00 PM 8.87 47.966 0.351 7.77 7.07 10.89
4/28/2022 11:00:00 PM 8.78 47.804 0.352 7.76 4.05 10.91
4/28/2022 11:15:00 PM 8.7 47.66 0.352 7.76 6.05 10.92
4/28/2022 11:30:00 PM 8.62 47.516 0.352 7.76 4.02 10.94
4/28/2022 11:45:00 PM 8.54 47.372 0.352 7.76 3.94 10.95
4/29/2022 12:00:00 AM 8.46 47.228 0.353 7.76 3.98 10.98
4/29/2022 12:15:00 AM 8.37 47.066 0.353 7.75 4.01 11
4/29/2022 12:30:00 AM 8.29 46.922 0.353 7.75 5.35 11.02
4/29/2022 12:45:00 AM 8.2 46.76 0.353 7.75 3.88 11.05
4/29/2022 1:00:00 AM 8.11 46.598 0.353 7.75 4.25 11.07
4/29/2022 1:15:00 AM 8.01 46.418 0.354 7.74 3.68 11.09
4/29/2022 1:30:00 AM 7.91 46.238 0.354 7.74 4.2 11.12
4/29/2022 1:45:00 AM 7.82 46.076 0.354 7.74 4 11.14
4/29/2022 2:00:00 AM 7.71 45.878 0.354 7.74 3.89 11.17
4/29/2022 2:15:00 AM 7.62 45.716 0.354 7.74 3.96 11.2
4/29/2022 2:30:00 AM 7.51 45.518 0.355 7.74 4.02 11.23
4/29/2022 2:45:00 AM 7.42 45.356 0.355 7.73 3.87 11.26
4/29/2022 3:00:00 AM 7.32 45.176 0.355 7.73 4.05 11.28
4/29/2022 3:15:00 AM 7.22 44.996 0.355 7.73 3.74 11.32
4/29/2022 3:30:00 AM 7.13 44.834 0.356 7.73 4.1 11.35
4/29/2022 3:45:00 AM 7.04 44.672 0.356 7.73 4.26 11.38
4/29/2022 4:00:00 AM 6.95 44.51 0.356 7.73 3.99 11.4
4/29/2022 4:15:00 AM 6.86 44.348 0.356 7.72 5.51 11.43
4/29/2022 4:30:00 AM 6.79 44.222 0.356 7.73 4.26 11.45
4/29/2022 4:45:00 AM 6.71 44.078 0.357 7.72 3.95 11.47
4/29/2022 5:00:00 AM 6.63 43.934 0.357 7.72 3.99 11.5
4/29/2022 5:15:00 AM 6.55 43.79 0.357 7.72 4.06 11.52
4/29/2022 5:30:00 AM 6.48 43.664 0.357 7.72 3.82 11.54
4/29/2022 5:45:00 AM 6.42 43.556 0.357 7.72 3.76 11.56
4/29/2022 6:00:00 AM 6.34 43.412 0.357 7.72 5.11 11.58
4/29/2022 6:15:00 AM 6.27 43.286 0.358 7.72 3.91 11.61
4/29/2022 6:30:00 AM 6.2 43.16 0.358 7.72 3.92 11.64
4/29/2022 6:45:00 AM 6.13 43.034 0.358 7.72 3.94 11.67
4/29/2022 7:00:00 AM 6.06 42.908 0.358 7.72 3.79 11.71
4/29/2022 7:15:00 AM 5.99 42.782 0.358 7.73 3.69 11.76
4/29/2022 7:30:00 AM 5.94 42.692 0.358 7.73 3.76 11.81
4/29/2022 7:45:00 AM 5.88 42.584 0.359 7.73 3.95 11.84
4/29/2022 8:00:00 AM 5.86 42.548 0.359 7.74 3.95 11.89
4/29/2022 8:15:00 AM 5.82 42.476 0.359 7.74 3.94 11.93
4/29/2022 8:30:00 AM 5.82 42.476 0.359 7.75 3.78 11.97
4/29/2022 8:45:00 AM 5.83 42.494 0.359 7.75 3.84 12
4/29/2022 9:00:00 AM 5.88 42.584 0.359 7.75 3.86 12.02
4/29/2022 9:15:00 AM 5.93 42.674 0.359 7.76 3.83 12.05
4/29/2022 9:30:00 AM 6.01 42.818 0.359 7.76 3.85 12.06
4/29/2022 9:45:00 AM 6.1 42.98 0.359 7.77 3.69 12.07
4/29/2022 10:00:00 AM 6.19 43.142 0.359 7.77 3.83 12.07
4/29/2022 10:15:00 AM 6.32 43.376 0.359 7.78 3.84 12.07
4/29/2022 10:30:00 AM 6.44 43.592 0.359 7.78 3.75 12.06
4/29/2022 10:45:00 AM 6.61 43.898 0.359 7.78 3.72 12.05
4/29/2022 11:00:00 AM 6.79 44.222 0.359 7.78 3.84 12.04
4/29/2022 11:15:00 AM 7 44.6 0.359 7.79 3.64 12.02
4/29/2022 11:30:00 AM 7.2 44.96 0.359 7.79 3.64 12
4/29/2022 11:45:00 AM 7.43 45.374 0.359 7.79 3.81 11.97
4/29/2022 12:00:00 PM 7.68 45.824 0.359 7.8 6.02 11.93
4/29/2022 12:15:00 PM 7.9 46.22 0.359 7.81 3.65 11.89
4/29/2022 12:30:00 PM 8.19 46.742 0.359 7.81 3.65 11.85
4/29/2022 12:45:00 PM 8.46 47.228 0.359 7.82 3.66 11.79
4/29/2022 1:00:00 PM 8.78 47.804 0.359 7.82 4.76 11.74
4/29/2022 1:15:00 PM 9.06 48.308 0.359 7.82 4.41 11.69
4/29/2022 1:30:00 PM 9.35 48.83 0.359 7.82 3.8 11.63
4/29/2022 1:45:00 PM 9.64 49.352 0.359 7.83 3.59 11.57
4/29/2022 2:00:00 PM 9.94 49.892 0.359 7.84 3.58 11.5
4/29/2022 2:15:00 PM 10.2 50.36 0.359 7.84 4.81 11.44
4/29/2022 2:30:00 PM 10.5 50.9 0.359 7.84 3.59 11.37
4/29/2022 2:45:00 PM 10.7 51.26 0.36 7.85 4.74 11.31
4/29/2022 3:00:00 PM 10.96 51.728 0.36 7.85 3.67 11.26
4/29/2022 3:15:00 PM 11.15 52.07 0.36 7.86 4.55 11.18
4/29/2022 3:30:00 PM 11.35 52.43 0.36 7.86 5.18 11.11
4/29/2022 3:45:00 PM 11.5 52.7 0.36 7.87 4.48 11.06
4/29/2022 4:00:00 PM 11.65 52.97 0.36 7.87 4.46 11.01
4/29/2022 4:15:00 PM 11.77 53.186 0.36 7.87 4.25 10.96
4/29/2022 4:30:00 PM 11.9 53.42 0.36 7.87 3.64 10.9
4/29/2022 4:45:00 PM 11.95 53.51 0.361 7.88 3.79 10.87
4/29/2022 5:00:00 PM 11.98 53.564 0.361 7.88 3.98 10.82
4/29/2022 5:15:00 PM 11.99 53.582 0.361 7.89 3.76 10.79
4/29/2022 5:30:00 PM 11.97 53.546 0.361 7.88 3.67 10.75
4/29/2022 5:45:00 PM 11.92 53.456 0.295 7.89 4.3 10.72
4/29/2022 6:00:00 PM 11.83 53.294 0.362 7.89 3.72 10.7
4/29/2022 6:15:00 PM 11.76 53.168 0.362 7.89 4.64 10.67
4/29/2022 6:30:00 PM 11.68 53.024 0.362 7.89 3.67 10.64
4/29/2022 6:45:00 PM 11.6 52.88 0.362 7.89 3.65 10.62
4/29/2022 7:00:00 PM 11.51 52.718 0.362 7.88 3.67 10.59
4/29/2022 7:15:00 PM 11.43 52.574 0.362 7.87 3.67 10.56
4/29/2022 7:30:00 PM 11.33 52.394 0.363 7.86 3.67 10.53
4/29/2022 7:45:00 PM 11.26 52.268 0.363 7.86 3.9 10.5
4/29/2022 8:00:00 PM 11.17 52.106 0.363 7.84 4.9 10.48
4/29/2022 8:15:00 PM 11.07 51.926 0.363 7.83 4.49 10.46
4/29/2022 8:30:00 PM 10.98 51.764 0.363 7.83 3.88 10.45
4/29/2022 8:45:00 PM 10.88 51.584 0.363 7.82 3.94 10.44
4/29/2022 9:00:00 PM 10.77 51.386 0.363 7.81 4.9 10.45
4/29/2022 9:15:00 PM 10.67 51.206 0.364 7.81 3.81 10.46
4/29/2022 9:30:00 PM 10.55 50.99 0.364 7.8 3.97 10.46
4/29/2022 9:45:00 PM 10.44 50.792 0.364 7.8 3.9 10.49
4/29/2022 10:00:00 PM 10.34 50.612 0.364 7.79 4.1 10.5
4/29/2022 10:15:00 PM 10.24 50.432 0.364 7.79 4.07 10.51
4/29/2022 10:30:00 PM 10.13 50.234 0.364 7.79 4.01 10.53
4/29/2022 10:45:00 PM 10.04 50.072 0.365 7.78 5.08 10.54
4/29/2022 11:00:00 PM 9.94 49.892 0.365 7.78 4.33 10.55
4/29/2022 11:15:00 PM 9.85 49.73 0.365 7.78 3.89 10.57
4/29/2022 11:30:00 PM 9.76 49.568 0.366 7.77 5.02 10.59
4/29/2022 11:45:00 PM 9.68 49.424 0.366 7.77 3.95 10.61
4/30/2022 12:00:00 AM 9.58 49.244 0.366 7.76 4.83 10.61
4/30/2022 12:15:00 AM 9.5 49.1 0.366 7.76 3.94 10.64
4/30/2022 12:30:00 AM 9.41 48.938 0.366 7.76 4.23 10.66
4/30/2022 12:45:00 AM 9.32 48.776 0.366 7.76 3.95 10.69
4/30/2022 1:00:00 AM 9.22 48.596 0.367 7.76 4.33 10.72
4/30/2022 1:15:00 AM 9.13 48.434 0.367 7.75 4.68 10.73
4/30/2022 1:30:00 AM 9.03 48.254 0.367 7.75 3.9 10.76
4/30/2022 1:45:00 AM 8.93 48.074 0.368 7.75 3.95 10.79
4/30/2022 2:00:00 AM 8.82 47.876 0.368 7.75 3.94 10.82
4/30/2022 2:15:00 AM 8.72 47.696 0.368 7.74 4.7 10.84
4/30/2022 2:30:00 AM 8.6 47.48 0.368 7.74 3.83 10.87
4/30/2022 2:45:00 AM 8.49 47.282 0.369 7.75 3.84 10.91
4/30/2022 3:00:00 AM 8.37 47.066 0.369 7.74 4.03 10.95
4/30/2022 3:15:00 AM 8.27 46.886 0.369 7.74 3.93 10.98
4/30/2022 3:30:00 AM 8.17 46.706 0.369 7.74 3.84 11
4/30/2022 3:45:00 AM 8.06 46.508 0.369 7.74 4.16 11.04
4/30/2022 4:00:00 AM 7.95 46.31 0.37 7.74 3.96 11.06
4/30/2022 4:15:00 AM 7.85 46.13 0.37 7.73 4.7 11.1
4/30/2022 4:30:00 AM 7.75 45.95 0.37 7.74 3.99 11.13
4/30/2022 4:45:00 AM 7.66 45.788 0.37 7.73 3.99 11.15
4/30/2022 5:00:00 AM 7.57 45.626 0.37 7.73 3.94 11.18
4/30/2022 5:15:00 AM 7.49 45.482 0.37 7.73 3.89 11.2
4/30/2022 5:30:00 AM 7.39 45.302 0.37 7.73 3.79 11.22
4/30/2022 5:45:00 AM 7.31 45.158 0.37 7.73 3.88 11.26
4/30/2022 6:00:00 AM 7.22 44.996 0.37 7.73 3.91 11.28
4/30/2022 6:15:00 AM 7.16 44.888 0.37 7.73 3.83 11.3
4/30/2022 6:30:00 AM 7.09 44.762 0.37 7.73 3.91 11.34
4/30/2022 6:45:00 AM 7.02 44.636 0.37 7.73 4.7 11.37
4/30/2022 7:00:00 AM 6.96 44.528 0.371 7.73 3.97 11.41
4/30/2022 7:15:00 AM 6.89 44.402 0.371 7.74 4.02 11.45
4/30/2022 7:30:00 AM 6.83 44.294 0.371 7.74 3.86 11.49
4/30/2022 7:45:00 AM 6.79 44.222 0.371 7.74 3.93 11.53
4/30/2022 8:00:00 AM 6.81 44.258 0.372 7.75 3.89 11.58
4/30/2022 8:15:00 AM 6.8 44.24 0.372 7.75 3.79 11.62
4/30/2022 8:30:00 AM 6.82 44.276 0.372 7.76 3.78 11.65
4/30/2022 8:45:00 AM 6.84 44.312 0.372 7.76 4.87 11.66
4/30/2022 9:00:00 AM 6.87 44.366 0.372 7.76 3.73 11.7
4/30/2022 9:15:00 AM 6.93 44.474 0.372 7.76 4.95 11.71
4/30/2022 9:30:00 AM 7.03 44.654 0.372 7.77 3.76 11.72
4/30/2022 9:45:00 AM 7.14 44.852 0.372 7.78 3.8 11.73
4/30/2022 10:00:00 AM 7.24 45.032 0.373 7.78 3.75 11.74
4/30/2022 10:15:00 AM 7.37 45.266 0.373 7.78 3.79 11.74
4/30/2022 10:30:00 AM 7.52 45.536 0.373 7.8 3.8 11.74
4/30/2022 10:45:00 AM 7.71 45.878 0.373 7.81 3.82 11.74
4/30/2022 11:00:00 AM 7.89 46.202 0.373 7.8 3.71 11.72
4/30/2022 11:15:00 AM 8.1 46.58 0.373 7.82 3.72 11.71
4/30/2022 11:30:00 AM 8.32 46.976 0.373 7.82 3.65 11.69
4/30/2022 11:45:00 AM 8.58 47.444 0.373 7.83 3.71 11.65
4/30/2022 12:00:00 PM 8.8 47.84 0.373 7.83 3.94 11.62
4/30/2022 12:15:00 PM 9.05 48.29 0.373 7.84 3.71 11.59
4/30/2022 12:30:00 PM 9.33 48.794 0.373 7.84 3.72 11.55
4/30/2022 12:45:00 PM 9.6 49.28 0.373 7.85 4.78 11.5
4/30/2022 1:00:00 PM 9.89 49.802 0.373 7.85 3.52 11.46
4/30/2022 1:15:00 PM 10.13 50.234 0.373 7.85 3.64 11.41
4/30/2022 1:30:00 PM 10.34 50.612 0.373 7.86 3.6 11.36
4/30/2022 1:45:00 PM 10.6 51.08 0.374 7.87 3.54 11.3
4/30/2022 2:00:00 PM 10.9 51.62 0.374 7.87 3.67 11.25
4/30/2022 2:15:00 PM 11.23 52.214 0.375 7.87 5.04 11.17
4/30/2022 2:30:00 PM 11.49 52.682 0.375 7.87 3.57 11.13
4/30/2022 2:45:00 PM 11.58 52.844 0.374 7.89 3.6 11.08
4/30/2022 3:00:00 PM 11.85 53.33 0.374 7.89 3.71 11.02
4/30/2022 3:15:00 PM 12.07 53.726 0.373 7.89 3.7 10.96
4/30/2022 3:30:00 PM 12.22 53.996 0.373 7.9 4.66 10.9
4/30/2022 3:45:00 PM 12.19 53.942 0.373 7.91 3.55 10.85
4/30/2022 4:00:00 PM 12.25 54.05 0.373 7.91 4.45 10.8
4/30/2022 4:15:00 PM 12.4 54.32 0.373 7.91 3.73 10.77
4/30/2022 4:30:00 PM 12.47 54.446 0.373 7.91 4.6 10.74
4/30/2022 4:45:00 PM 12.51 54.518 0.373 7.91 4.38 10.7
4/30/2022 5:00:00 PM 12.56 54.608 0.373 7.91 3.65 10.67
4/30/2022 5:15:00 PM 12.6 54.68 0.373 7.91 4.3 10.62
4/30/2022 5:30:00 PM 12.64 54.752 0.373 7.92 4.44 10.6
4/30/2022 5:45:00 PM 12.68 54.824 0.373 7.92 3.55 10.56
4/30/2022 6:00:00 PM 12.64 54.752 0.373 7.92 4.4 10.52
4/30/2022 6:15:00 PM 12.59 54.662 0.373 7.92 4.37 10.47
4/30/2022 6:30:00 PM 12.53 54.554 0.374 7.91 4.54 10.44
4/30/2022 6:45:00 PM 12.45 54.41 0.374 7.91 3.75 10.42
4/30/2022 7:00:00 PM 12.38 54.284 0.374 7.91 4.37 10.38
4/30/2022 7:15:00 PM 12.29 54.122 0.374 7.9 4.84 10.37
4/30/2022 7:30:00 PM 12.21 53.978 0.374 7.89 3.73 10.34
4/30/2022 7:45:00 PM 12.14 53.852 0.374 7.88 3.79 10.3
4/30/2022 8:00:00 PM 12.07 53.726 0.374 7.87 3.79 10.27
4/30/2022 8:15:00 PM 12 53.6 0.374 7.85 3.92 10.24
4/30/2022 8:30:00 PM 11.9 53.42 0.375 7.84 4.56 10.21
4/30/2022 8:45:00 PM 11.81 53.258 0.375 7.83 4.58 10.2
4/30/2022 9:00:00 PM 11.73 53.114 0.375 7.82 4.6 10.19
4/30/2022 9:15:00 PM 11.64 52.952 0.375 7.82 4.69 10.19
4/30/2022 9:30:00 PM 11.55 52.79 0.375 7.82 4.26 10.2
4/30/2022 9:45:00 PM 11.46 52.628 0.375 7.81 5.08 10.2
4/30/2022 10:00:00 PM 11.38 52.484 0.376 7.8 4.95 10.19
4/30/2022 10:15:00 PM 11.29 52.322 0.376 7.8 4.94 10.21
4/30/2022 10:30:00 PM 11.2 52.16 0.376 7.8 4 10.22
4/30/2022 10:45:00 PM 11.11 51.998 0.376 7.79 5.03 10.23
4/30/2022 11:00:00 PM 11.02 51.836 0.376 7.79 3.92 10.24
4/30/2022 11:15:00 PM 10.93 51.674 0.377 7.79 4.07 10.25
4/30/2022 11:30:00 PM 10.86 51.548 0.377 7.79 4.28 10.27
4/30/2022 11:45:00 PM 10.79 51.422 0.377 7.79 4.09 10.29
5/1/2022 12:00:00 AM 10.72 51.296 0.377 7.78 4.14 10.3
5/1/2022 12:15:00 AM 10.68 51.224 0.378 7.77 5.02 10.31
5/1/2022 12:30:00 AM 10.62 51.116 0.378 7.78 4.1 10.32
5/1/2022 12:45:00 AM 10.56 51.008 0.378 7.77 4.1 10.34
5/1/2022 1:00:00 AM 10.5 50.9 0.379 7.77 3.84 10.36
5/1/2022 1:15:00 AM 10.45 50.81 0.379 7.77 4.06 10.37
5/1/2022 1:30:00 AM 10.4 50.72 0.379 7.76 5.04 10.37
5/1/2022 1:45:00 AM 10.34 50.612 0.379 7.76 7.54 10.4
5/1/2022 2:00:00 AM 10.29 50.522 0.379 7.76 4.71 10.42
5/1/2022 2:15:00 AM 10.22 50.396 0.38 7.76 4.12 10.44
5/1/2022 2:30:00 AM 10.16 50.288 0.38 7.76 4.04 10.46
5/1/2022 2:45:00 AM 10.1 50.18 0.38 7.76 4.15 10.46
5/1/2022 3:00:00 AM 10.04 50.072 0.38 7.75 5.15 10.49
5/1/2022 3:15:00 AM 9.99 49.982 0.38 7.75 4.07 10.5
5/1/2022 3:30:00 AM 9.93 49.874 0.381 7.76 4.12 10.52
5/1/2022 3:45:00 AM 9.86 49.748 0.381 7.75 5 10.54
5/1/2022 4:00:00 AM 9.81 49.658 0.381 7.75 4.08 10.56
5/1/2022 4:15:00 AM 9.75 49.55 0.381 7.75 4.01 10.57
5/1/2022 4:30:00 AM 9.7 49.46 0.381 7.74 4.78 10.58
5/1/2022 4:45:00 AM 9.65 49.37 0.382 7.75 4.13 10.6
5/1/2022 5:00:00 AM 9.6 49.28 0.382 7.74 3.94 10.6
5/1/2022 5:15:00 AM 9.56 49.208 0.382 7.74 3.98 10.62
5/1/2022 5:30:00 AM 9.52 49.136 0.382 7.73 5.81 10.62
5/1/2022 5:45:00 AM 9.46 49.028 0.382 7.74 4.22 10.64
5/1/2022 6:00:00 AM 9.41 48.938 0.383 7.74 4.14 10.65
5/1/2022 6:15:00 AM 9.36 48.848 0.383 7.74 4.09 10.67
5/1/2022 6:30:00 AM 9.32 48.776 0.383 7.74 3.97 10.69
5/1/2022 6:45:00 AM 9.29 48.722 0.383 7.74 3.94 10.71
5/1/2022 7:00:00 AM 9.28 48.704 0.383 7.75 4.03 10.74
5/1/2022 7:15:00 AM 9.27 48.686 0.383 7.75 3.98 10.79
5/1/2022 7:30:00 AM 9.26 48.668 0.383 7.75 4.8 10.81
5/1/2022 7:45:00 AM 9.26 48.668 0.384 7.76 5.06 10.83
5/1/2022 8:00:00 AM 9.28 48.704 0.384 7.77 4.19 10.88
5/1/2022 8:15:00 AM 9.29 48.722 0.384 7.77 5.73 10.9
5/1/2022 8:30:00 AM 9.3 48.74 0.384 7.78 3.96 10.93
5/1/2022 8:45:00 AM 9.35 48.83 0.384 7.79 5.45 10.95
5/1/2022 9:00:00 AM 9.42 48.956 0.384 7.79 4.07 10.98
5/1/2022 9:15:00 AM 9.57 49.226 0.385 7.8 4.11 11.02
5/1/2022 9:30:00 AM 9.66 49.388 0.385 7.81 4.86 11.03
5/1/2022 9:45:00 AM 9.76 49.568 0.385 7.83 5.49 11.05
5/1/2022 10:00:00 AM 9.89 49.802 0.385 7.83 3.97 11.07
5/1/2022 10:15:00 AM 10.03 50.054 0.385 7.83 3.99 11.06
5/1/2022 10:30:00 AM 10.09 50.162 0.385 7.85 4.25 11.07
5/1/2022 10:45:00 AM 10.01 50.018 0.384 7.86 3.97 11.01
5/1/2022 11:00:00 AM 9.96 49.928 0.384 7.85 3.91 10.97
5/1/2022 11:15:00 AM 9.93 49.874 0.384 7.84 4.09 10.94
5/1/2022 11:30:00 AM 9.91 49.838 0.383 7.83 4.11 10.93
5/1/2022 11:45:00 AM 9.88 49.784 0.382 7.83 4.16 10.92
5/1/2022 12:00:00 PM 9.87 49.766 0.382 7.84 5.28 10.93
5/1/2022 12:15:00 PM 9.91 49.838 0.382 7.83 4.85 10.95
5/1/2022 12:30:00 PM 9.93 49.874 0.382 7.84 4.15 10.97
5/1/2022 12:45:00 PM 9.94 49.892 0.381 7.84 4.08 10.97
5/1/2022 1:00:00 PM 9.95 49.91 0.381 7.84 4.85 10.96
5/1/2022 1:15:00 PM 9.94 49.892 0.377 7.84 5.6 10.93
5/1/2022 1:30:00 PM 9.93 49.874 0.376 7.83 4.76 10.89
5/1/2022 1:45:00 PM 9.97 49.946 0.376 7.83 4.71 10.9
5/1/2022 2:00:00 PM 10.01 50.018 0.376 7.83 4.64 10.92
5/1/2022 2:15:00 PM 10 50 0.376 7.83 4.48 10.92
5/1/2022 2:30:00 PM 9.99 49.982 0.376 7.83 4.55 10.91
5/1/2022 2:45:00 PM 9.98 49.964 0.368 7.83 12.55 10.87
5/1/2022 3:00:00 PM 9.97 49.946 0.366 7.81 8.74 10.84
5/1/2022 3:15:00 PM 9.96 49.928 0.365 7.8 8.47 10.84
5/1/2022 3:30:00 PM 9.96 49.928 0.364 7.79 8.2 10.84
5/1/2022 3:45:00 PM 9.97 49.946 0.364 7.8 6.93 10.86
5/1/2022 4:00:00 PM 9.98 49.964 0.363 7.79 10.71 10.87
5/1/2022 4:15:00 PM 9.95 49.91 0.363 7.78 12.86 10.84
5/1/2022 4:30:00 PM 9.93 49.874 0.36 7.78 10.64 10.82
5/1/2022 4:45:00 PM 9.95 49.91 0.359 7.77 10.59 10.83
5/1/2022 5:00:00 PM 9.98 49.964 0.358 7.78 10.61 10.84
5/1/2022 5:15:00 PM 9.99 49.982 0.357 7.78 10.6 10.85
5/1/2022 5:30:00 PM 10 50 0.357 7.77 11.44 10.85
5/1/2022 5:45:00 PM 10.05 50.09 0.357 7.77 12.45 10.84
5/1/2022 6:00:00 PM 10.07 50.126 0.358 7.77 11.79 10.83
5/1/2022 6:15:00 PM 10.1 50.18 0.357 7.77 12.94 10.81
5/1/2022 6:30:00 PM 10.09 50.162 0.356 7.75 16.61 10.77
5/1/2022 6:45:00 PM 10.1 50.18 0.354 7.74 20.15 10.75
5/1/2022 7:00:00 PM 10.1 50.18 0.354 7.74 15.75 10.74
5/1/2022 7:15:00 PM 10.09 50.162 0.353 7.73 15.25 10.72
5/1/2022 7:30:00 PM 10.09 50.162 0.352 7.73 15.5 10.7
5/1/2022 7:45:00 PM 10.08 50.144 0.352 7.72 17.35 10.67
5/1/2022 8:00:00 PM 10.07 50.126 0.35 7.72 18.67 10.66
5/1/2022 8:15:00 PM 10.06 50.108 0.349 7.71 20.02 10.64
5/1/2022 8:30:00 PM 10.05 50.09 0.347 7.71 20.56 10.63
5/1/2022 8:45:00 PM 10.04 50.072 0.346 7.7 20.54 10.62
5/1/2022 9:00:00 PM 10.03 50.054 0.344 7.7 20.84 10.61
5/1/2022 9:15:00 PM 10.02 50.036 0.342 7.69 21.22 10.6
5/1/2022 9:30:00 PM 10.01 50.018 0.34 7.69 25.14 10.59
5/1/2022 9:45:00 PM 10 50 0.338 7.69 21.13 10.59
5/1/2022 10:00:00 PM 9.99 49.982 0.337 7.68 24.71 10.58
5/1/2022 10:15:00 PM 9.98 49.964 0.335 7.69 22.1 10.58
5/1/2022 10:30:00 PM 9.98 49.964 0.333 7.68 20.47 10.59
5/1/2022 10:45:00 PM 9.98 49.964 0.332 7.68 25.76 10.57
5/1/2022 11:00:00 PM 9.97 49.946 0.332 7.68 17.48 10.58
5/1/2022 11:15:00 PM 9.95 49.91 0.333 7.68 18.84 10.57
5/1/2022 11:30:00 PM 9.94 49.892 0.332 7.68 18.39 10.57
5/1/2022 11:45:00 PM 9.93 49.874 0.331 7.67 21.92 10.57
5/2/2022 12:00:00 AM 9.91 49.838 0.329 7.67 22.5 10.57
5/2/2022 12:15:00 AM 9.89 49.802 0.327 7.66 28.46 10.57
5/2/2022 12:30:00 AM 9.87 49.766 0.324 7.66 25.93 10.57
5/2/2022 12:45:00 AM 9.86 49.748 0.323 7.66 26.76 10.58
5/2/2022 1:00:00 AM 9.84 49.712 0.321 7.66 26.52 10.58
5/2/2022 1:15:00 AM 9.83 49.694 0.319 7.65 28.08 10.58
5/2/2022 1:30:00 AM 9.81 49.658 0.316 7.65 27.47 10.59
5/2/2022 1:45:00 AM 9.79 49.622 0.313 7.64 28.57 10.59
5/2/2022 2:00:00 AM 9.78 49.604 0.311 7.63 30.17 10.59
5/2/2022 2:15:00 AM 9.77 49.586 0.31 7.63 28.24 10.59
5/2/2022 2:30:00 AM 9.76 49.568 0.311 7.62 30.92 10.59
5/2/2022 2:45:00 AM 9.76 49.568 0.313 7.63 25.85 10.59
5/2/2022 3:00:00 AM 9.75 49.55 0.315 7.63 25.68 10.6
5/2/2022 3:15:00 AM 9.74 49.532 0.318 7.62 25.34 10.6
5/2/2022 3:30:00 AM 9.74 49.532 0.32 7.63 59.59 10.6
5/2/2022 3:45:00 AM 9.74 49.532 0.323 7.63 21.78 10.6
5/2/2022 4:00:00 AM 9.73 49.514 0.325 7.63 20.05 10.6
5/2/2022 4:15:00 AM 9.73 49.514 0.327 7.63 21.32 10.6
5/2/2022 4:30:00 AM 9.72 49.496 0.328 7.63 24.15 10.6
5/2/2022 4:45:00 AM 9.72 49.496 0.33 7.63 18.42 10.6
5/2/2022 5:00:00 AM 9.72 49.496 0.33 7.63 18.46 10.6
5/2/2022 5:15:00 AM 9.71 49.478 0.331 7.63 17.46 10.61
5/2/2022 5:30:00 AM 9.71 49.478 0.331 7.63 16.5 10.61
5/2/2022 5:45:00 AM 9.71 49.478 0.332 7.63 16.82 10.61
5/2/2022 6:00:00 AM 9.71 49.478 0.332 7.63 16.46 10.61
5/2/2022 6:15:00 AM 9.71 49.478 0.332 7.63 16.31 10.61
5/2/2022 6:30:00 AM 9.71 49.478 0.332 7.63 17.1 10.61
5/2/2022 6:45:00 AM 9.71 49.478 0.331 7.63 16.28 10.61
5/2/2022 7:00:00 AM 9.71 49.478 0.33 7.63 14.3 10.63
5/2/2022 7:15:00 AM 9.71 49.478 0.329 7.63 14.27 10.65
5/2/2022 7:30:00 AM 9.71 49.478 0.328 7.63 13.68 10.66
5/2/2022 7:45:00 AM 9.73 49.514 0.326 7.63 13.9 10.68
5/2/2022 8:00:00 AM 9.74 49.532 0.324 7.64 14.42 10.69
5/2/2022 8:15:00 AM 9.74 49.532 0.322 7.63 14.65 10.7
5/2/2022 8:30:00 AM 9.77 49.586 0.32 7.63 14.86 10.71
5/2/2022 8:45:00 AM 9.83 49.694 0.318 7.65 15.68 10.74
5/2/2022 9:00:00 AM 9.88 49.784 0.315 7.65 15.07 10.75
5/2/2022 9:15:00 AM 9.94 49.892 0.313 7.66 14.71 10.77
5/2/2022 9:30:00 AM 9.97 49.946 0.311 7.66 15.12 10.77
5/2/2022 9:45:00 AM 10.01 50.018 0.31 7.67 16.07 10.77
5/2/2022 10:00:00 AM 10.02 50.036 0.308 7.67 14.43 10.75
5/2/2022 10:15:00 AM 10 50 0.307 7.67 13.89 10.73
5/2/2022 10:30:00 AM 9.99 49.982 0.305 7.66 15.01 10.72
5/2/2022 10:45:00 AM 10.01 50.018 0.304 7.66 14.09 10.72
5/2/2022 11:00:00 AM 10.02 50.036 0.303 7.66 13.89 10.73
5/2/2022 11:15:00 AM 10.04 50.072 0.302 7.67 13.42 10.74
5/2/2022 11:30:00 AM 10.16 50.288 0.301 7.67 13.84 10.77
5/2/2022 11:45:00 AM 10.33 50.594 0.3 7.68 12.86 10.79
5/2/2022 12:00:00 PM 10.38 50.684 0.299 7.69 13.3 10.8
5/2/2022 12:15:00 PM 10.45 50.81 0.298 7.69 13.83 10.8
5/2/2022 12:30:00 PM 10.58 51.044 0.297 7.7 12.93 10.81
5/2/2022 12:45:00 PM 10.65 51.17 0.296 7.71 11.69 10.81
5/2/2022 1:00:00 PM 10.72 51.296 0.295 7.7 13.52 10.81
5/2/2022 1:15:00 PM 10.75 51.35 0.294 7.72 12.35 10.81
5/2/2022 1:30:00 PM 10.78 51.404 0.293 7.72 11.32 10.8
5/2/2022 1:45:00 PM 10.93 51.674 0.292 7.72 11.14 10.8
5/2/2022 2:00:00 PM 10.96 51.728 0.291 7.72 11.39 10.79
5/2/2022 2:15:00 PM 11.05 51.89 0.291 7.73 11.13 10.78
5/2/2022 2:30:00 PM 11.19 52.142 0.29 7.73 11.63 10.78
5/2/2022 2:45:00 PM 11.37 52.466 0.289 7.74 12.19 10.77
5/2/2022 3:00:00 PM 11.57 52.826 0.289 7.74 10.76 10.76
5/2/2022 3:15:00 PM 11.62 52.916 0.289 7.74 11.25 10.74
5/2/2022 3:30:00 PM 11.74 53.132 0.289 7.74 14.55 10.72
5/2/2022 3:45:00 PM 11.8 53.24 0.288 7.75 10.13 10.7
5/2/2022 4:00:00 PM 11.87 53.366 0.288 7.75 10.32 10.68
5/2/2022 4:15:00 PM 12.03 53.654 0.288 7.75 10.97 10.66
5/2/2022 4:30:00 PM 12.03 53.654 0.288 7.75 11.14 10.64
5/2/2022 4:45:00 PM 12.11 53.798 0.288 7.76 13.02 10.62
5/2/2022 5:00:00 PM 12.16 53.888 0.288 7.76 10.56 10.59
5/2/2022 5:15:00 PM 12.21 53.978 0.288 7.76 11.09 10.56
5/2/2022 5:30:00 PM 12.29 54.122 0.288 7.76 10.81 10.55
5/2/2022 5:45:00 PM 12.29 54.122 0.288 7.76 10.32 10.52
5/2/2022 6:00:00 PM 12.31 54.158 0.289 7.76 10.67 10.49
5/2/2022 6:15:00 PM 12.34 54.212 0.289 7.76 10.9 10.48
5/2/2022 6:30:00 PM 12.31 54.158 0.289 7.76 10.2 10.45
5/2/2022 6:45:00 PM 12.25 54.05 0.29 7.76 8.92 10.43
5/2/2022 7:00:00 PM 12.18 53.924 0.29 7.75 9.26 10.4
5/2/2022 7:15:00 PM 12.1 53.78 0.29 7.74 9.14 10.38
5/2/2022 7:30:00 PM 12.03 53.654 0.29 7.73 8.83 10.34
5/2/2022 7:45:00 PM 11.96 53.528 0.29 7.72 8.97 10.32
5/2/2022 8:00:00 PM 11.89 53.402 0.288 7.71 8.8 10.31
5/2/2022 8:15:00 PM 11.82 53.276 0.291 7.7 10.47 10.28
5/2/2022 8:30:00 PM 11.76 53.168 0.291 7.69 8.93 10.27
5/2/2022 8:45:00 PM 11.71 53.078 0.291 7.68 9.81 10.26
5/2/2022 9:00:00 PM 11.66 52.988 0.291 7.67 11.23 10.25
5/2/2022 9:15:00 PM 11.6 52.88 0.291 7.67 10.89 10.24
5/2/2022 9:30:00 PM 11.54 52.772 0.291 7.67 9.21 10.23
5/2/2022 9:45:00 PM 11.47 52.646 0.291 7.66 8.44 10.24
5/2/2022 10:00:00 PM 11.4 52.52 0.291 7.65 9.89 10.23
5/2/2022 10:15:00 PM 11.33 52.394 0.291 7.65 10.18 10.24
5/2/2022 10:30:00 PM 11.26 52.268 0.291 7.65 9.02 10.25
5/2/2022 10:45:00 PM 11.19 52.142 0.291 7.64 8.72 10.26
5/2/2022 11:00:00 PM 11.12 52.016 0.291 7.64 8.73 10.27
5/2/2022 11:15:00 PM 11.05 51.89 0.291 7.63 8.27 10.28
5/2/2022 11:30:00 PM 10.98 51.764 0.29 7.63 8.28 10.29
5/2/2022 11:45:00 PM 10.92 51.656 0.29 7.63 8.55 10.3
5/3/2022 12:00:00 AM 10.86 51.548 0.29 7.62 9.46 10.31
5/3/2022 12:15:00 AM 10.79 51.422 0.29 7.62 8.15 10.33
5/3/2022 12:30:00 AM 10.73 51.314 0.29 7.62 7.86 10.33
5/3/2022 12:45:00 AM 10.67 51.206 0.29 7.62 7.85 10.35
5/3/2022 1:00:00 AM 10.6 51.08 0.289 7.62 7.86 10.36
5/3/2022 1:15:00 AM 10.54 50.972 0.289 7.61 8.93 10.38
5/3/2022 1:30:00 AM 10.47 50.846 0.289 7.61 7.69 10.4
5/3/2022 1:45:00 AM 10.39 50.702 0.289 7.61 7.6 10.41
5/3/2022 2:00:00 AM 10.32 50.576 0.289 7.61 7.7 10.43
5/3/2022 2:15:00 AM 10.25 50.45 0.289 7.61 7.51 10.45
5/3/2022 2:30:00 AM 10.17 50.306 0.289 7.61 7.65 10.47
5/3/2022 2:45:00 AM 10.1 50.18 0.289 7.6 8.64 10.49
5/3/2022 3:00:00 AM 10.03 50.054 0.288 7.6 8.5 10.51
5/3/2022 3:15:00 AM 9.96 49.928 0.288 7.6 7.3 10.52
5/3/2022 3:30:00 AM 9.89 49.802 0.288 7.6 7.38 10.54
5/3/2022 3:45:00 AM 9.83 49.694 0.288 7.59 8.46 10.56
5/3/2022 4:00:00 AM 9.78 49.604 0.288 7.59 8.08 10.57
5/3/2022 4:15:00 AM 9.72 49.496 0.288 7.6 7.1 10.59
5/3/2022 4:30:00 AM 9.66 49.388 0.288 7.59 8.15 10.6
5/3/2022 4:45:00 AM 9.61 49.298 0.288 7.59 7.04 10.62
5/3/2022 5:00:00 AM 9.55 49.19 0.288 7.59 8.1 10.64
5/3/2022 5:15:00 AM 9.49 49.082 0.288 7.59 7.51 10.65
5/3/2022 5:30:00 AM 9.43 48.974 0.288 7.59 6.74 10.67
5/3/2022 5:45:00 AM 9.38 48.884 0.288 7.59 7.03 10.69
5/3/2022 6:00:00 AM 9.32 48.776 0.288 7.59 8.64 10.7
5/3/2022 6:15:00 AM 9.27 48.686 0.288 7.59 6.72 10.72
5/3/2022 6:30:00 AM 9.22 48.596 0.288 7.59 7.63 10.74
5/3/2022 6:45:00 AM 9.19 48.542 0.289 7.59 6.46 10.77
5/3/2022 7:00:00 AM 9.16 48.488 0.289 7.59 8.29 10.8
5/3/2022 7:15:00 AM 9.14 48.452 0.289 7.6 6.42 10.83
5/3/2022 7:30:00 AM 9.12 48.416 0.289 7.6 6.41 10.86
5/3/2022 7:45:00 AM 9.11 48.398 0.289 7.61 6.25 10.89
5/3/2022 8:00:00 AM 9.11 48.398 0.29 7.61 7.54 10.93
5/3/2022 8:15:00 AM 9.12 48.416 0.29 7.62 5.95 10.96
5/3/2022 8:30:00 AM 9.11 48.398 0.29 7.63 6.07 10.99
5/3/2022 8:45:00 AM 9.15 48.47 0.29 7.63 7.13 11.02
5/3/2022 9:00:00 AM 9.17 48.506 0.291 7.64 6.11 11.03
5/3/2022 9:15:00 AM 9.2 48.56 0.291 7.64 7.03 11.05
5/3/2022 9:30:00 AM 9.25 48.65 0.291 7.65 5.79 11.08
5/3/2022 9:45:00 AM 9.31 48.758 0.291 7.65 5.77 11.09
5/3/2022 10:00:00 AM 9.4 48.92 0.291 7.66 8.1 11.11
5/3/2022 10:15:00 AM 9.52 49.136 0.291 7.67 5.66 11.12
5/3/2022 10:30:00 AM 9.63 49.334 0.291 7.68 6.8 11.13
5/3/2022 10:45:00 AM 9.74 49.532 0.291 7.69 5.47 11.13
5/3/2022 11:00:00 AM 9.83 49.694 0.291 7.7 5.5 11.13
5/3/2022 11:15:00 AM 9.92 49.856 0.291 7.7 6.22 11.12
5/3/2022 11:30:00 AM 10.03 50.054 0.291 7.71 5.4 11.12
5/3/2022 11:45:00 AM 10.12 50.216 0.291 7.72 5.32 11.11
5/3/2022 12:00:00 PM 10.22 50.396 0.292 7.72 5.31 11.1
5/3/2022 12:15:00 PM 10.29 50.522 0.292 7.73 5.14 11.08
5/3/2022 12:30:00 PM 10.43 50.774 0.292 7.73 6.07 11.06
5/3/2022 12:45:00 PM 10.7 51.26 0.292 7.73 5.1 11.05
5/3/2022 1:00:00 PM 10.82 51.476 0.292 7.75 5.3 11.02
5/3/2022 1:15:00 PM 10.86 51.548 0.292 7.75 5.28 10.99
5/3/2022 1:30:00 PM 10.91 51.638 0.292 7.76 5.1 10.96
5/3/2022 1:45:00 PM 10.93 51.674 0.293 7.76 4.99 10.92
5/3/2022 2:00:00 PM 10.95 51.71 0.293 7.76 5.13 10.89
5/3/2022 2:15:00 PM 11.02 51.836 0.293 7.75 6.01 10.87
5/3/2022 2:30:00 PM 11.08 51.944 0.293 7.76 5.2 10.86
5/3/2022 2:45:00 PM 11.14 52.052 0.293 7.76 5.03 10.83
5/3/2022 3:00:00 PM 11.21 52.178 0.293 7.76 5.04 10.81
5/3/2022 3:15:00 PM 11.25 52.25 0.293 7.76 6.01 10.79
5/3/2022 3:30:00 PM 11.33 52.394 0.293 7.77 5.07 10.78
5/3/2022 3:45:00 PM 11.39 52.502 0.293 7.77 5.2 10.77
5/3/2022 4:00:00 PM 11.44 52.592 0.294 7.77 5.05 10.75
5/3/2022 4:15:00 PM 11.52 52.736 0.294 7.78 4.92 10.73
5/3/2022 4:30:00 PM 11.59 52.862 0.294 7.78 4.97 10.71
5/3/2022 4:45:00 PM 11.63 52.934 0.294 7.77 4.85 10.68
5/3/2022 5:00:00 PM 11.71 53.078 0.294 7.77 6.17 10.67
5/3/2022 5:15:00 PM 11.76 53.168 0.294 7.77 6.19 10.64
5/3/2022 5:30:00 PM 11.83 53.294 0.294 7.78 5.15 10.63
5/3/2022 5:45:00 PM 11.89 53.402 0.295 7.78 6.16 10.61
5/3/2022 6:00:00 PM 11.91 53.438 0.295 7.78 4.99 10.58
5/3/2022 6:15:00 PM 11.96 53.528 0.295 7.77 6.02 10.56
5/3/2022 6:30:00 PM 12.02 53.636 0.295 7.77 5.71 10.54
5/3/2022 6:45:00 PM 12.01 53.618 0.295 7.78 4.95 10.51
5/3/2022 7:00:00 PM 12 53.6 0.296 7.77 5.02 10.46
5/3/2022 7:15:00 PM 11.99 53.582 0.296 7.76 4.86 10.4
5/3/2022 7:30:00 PM 11.98 53.564 0.296 7.75 4.83 10.36
5/3/2022 7:45:00 PM 11.96 53.528 0.296 7.74 4.92 10.32
5/3/2022 8:00:00 PM 11.96 53.528 0.296 7.73 5.41 10.29
5/3/2022 8:15:00 PM 11.97 53.546 0.293 7.72 5.52 10.26
5/3/2022 8:30:00 PM 11.96 53.528 0.293 7.7 7.2 10.23
5/3/2022 8:45:00 PM 11.96 53.528 0.292 7.69 6.93 10.21
5/3/2022 9:00:00 PM 11.96 53.528 0.293 7.69 5.49 10.19
5/3/2022 9:15:00 PM 11.94 53.492 0.293 7.68 5.73 10.16
5/3/2022 9:30:00 PM 11.92 53.456 0.294 7.67 6.14 10.15
5/3/2022 9:45:00 PM 11.91 53.438 0.293 7.67 6.24 10.14
5/3/2022 10:00:00 PM 11.9 53.42 0.292 7.65 8.23 10.13
5/3/2022 10:15:00 PM 11.9 53.42 0.29 7.65 6.4 10.12
5/3/2022 10:30:00 PM 11.88 53.384 0.29 7.63 6.89 10.11
5/3/2022 10:45:00 PM 11.88 53.384 0.29 7.63 6.6 10.1
5/3/2022 11:00:00 PM 11.87 53.366 0.29 7.62 7.72 10.09
5/3/2022 11:15:00 PM 11.85 53.33 0.29 7.61 7.15 10.08
5/3/2022 11:30:00 PM 11.85 53.33 0.29 7.61 9.23 10.07
5/3/2022 11:45:00 PM 11.82 53.276 0.291 7.61 7.58 10.07
5/4/2022 12:00:00 AM 11.8 53.24 0.291 7.6 8.48 10.07
5/4/2022 12:15:00 AM 11.77 53.186 0.291 7.59 8.94 10.07
5/4/2022 12:30:00 AM 11.76 53.168 0.291 7.59 9.34 10.07
5/4/2022 12:45:00 AM 11.73 53.114 0.291 7.59 8 10.07
5/4/2022 1:00:00 AM 11.72 53.096 0.29 7.59 8.92 10.08
5/4/2022 1:15:00 AM 11.7 53.06 0.289 7.58 8.78 10.08
5/4/2022 1:30:00 AM 11.69 53.042 0.288 7.57 10.84 10.08
5/4/2022 1:45:00 AM 11.66 52.988 0.288 7.57 9.48 10.08
5/4/2022 2:00:00 AM 11.63 52.934 0.288 7.57 9.22 10.08
5/4/2022 2:15:00 AM 11.61 52.898 0.288 7.56 10.4 10.08
5/4/2022 2:30:00 AM 11.59 52.862 0.288 7.56 10.99 10.08
5/4/2022 2:45:00 AM 11.57 52.826 0.287 7.55 10.33 10.08
5/4/2022 3:00:00 AM 11.55 52.79 0.287 7.55 12.8 10.09
5/4/2022 3:15:00 AM 11.53 52.754 0.286 7.55 14.01 10.09
5/4/2022 3:30:00 AM 11.52 52.736 0.285 7.55 13.48 10.09
5/4/2022 3:45:00 AM 11.51 52.718 0.283 7.55 13.62 10.1
5/4/2022 4:00:00 AM 11.5 52.7 0.283 7.54 14.61 10.1
5/4/2022 4:15:00 AM 11.49 52.682 0.282 7.54 15.55 10.1
5/4/2022 4:30:00 AM 11.47 52.646 0.281 7.54 14.24 10.11
5/4/2022 4:45:00 AM 11.46 52.628 0.279 7.53 15.79 10.11
5/4/2022 5:00:00 AM 11.44 52.592 0.278 7.53 18.6 10.11
5/4/2022 5:15:00 AM 11.42 52.556 0.277 7.52 15.58 10.11
5/4/2022 5:30:00 AM 11.4 52.52 0.275 7.51 18.85 10.11
5/4/2022 5:45:00 AM 11.38 52.484 0.274 7.5 19.35 10.11
5/4/2022 6:00:00 AM 11.37 52.466 0.273 7.49 27.85 10.11
5/4/2022 6:15:00 AM 11.35 52.43 0.271 7.49 26.34 10.12
5/4/2022 6:30:00 AM 11.33 52.394 0.269 7.49 30.21 10.12
5/4/2022 6:45:00 AM 11.32 52.376 0.267 7.48 35.14 10.12
5/4/2022 7:00:00 AM 11.3 52.34 0.265 7.47 37.65 10.12
5/4/2022 7:15:00 AM 11.29 52.322 0.263 7.46 40.61 10.13
5/4/2022 7:30:00 AM 11.28 52.304 0.26 7.45 46.82 10.13
5/4/2022 7:45:00 AM 11.27 52.286 0.258 7.45 50.93 10.14
5/4/2022 8:00:00 AM 11.27 52.286 0.256 7.44 56.38 10.14
5/4/2022 8:15:00 AM 11.27 52.286 0.254 7.43 60.69 10.14
5/4/2022 8:30:00 AM 11.28 52.304 0.253 7.43 64.22 10.14
5/4/2022 8:45:00 AM 11.28 52.304 0.252 7.42 70.25 10.14
5/4/2022 9:00:00 AM 11.29 52.322 0.251 7.43 69.72 10.14
5/4/2022 9:15:00 AM 11.31 52.358 0.252 7.41 68.46 10.15
5/4/2022 9:30:00 AM 11.32 52.376 0.253 7.43 75.76 10.14
5/4/2022 9:45:00 AM 11.34 52.412 0.252 7.43 69.87 10.14
5/4/2022 10:00:00 AM 11.36 52.448 0.25 7.42 72.79 10.13
5/4/2022 10:15:00 AM 11.38 52.484 0.247 7.43 72.71 10.13
5/4/2022 10:30:00 AM 11.4 52.52 0.244 7.43 72.32 10.13
5/4/2022 10:45:00 AM 11.4 52.52 0.242 7.43 74.67 10.13
5/4/2022 11:00:00 AM 11.44 52.592 0.239 7.42 79.18 10.13
5/4/2022 11:15:00 AM 11.5 52.7 0.235 7.42 78.67 10.13
5/4/2022 11:30:00 AM 11.52 52.736 0.231 7.42 71.77 10.13
5/4/2022 11:45:00 AM 11.54 52.772 0.228 7.41 73.58 10.13
5/4/2022 12:00:00 PM 11.61 52.898 0.225 7.4 76.92 10.13
5/4/2022 12:15:00 PM 11.7 53.06 0.224 7.4 82.42 10.12
5/4/2022 12:30:00 PM 11.71 53.078 0.223 7.39 85.15 10.11
5/4/2022 12:45:00 PM 11.72 53.096 0.222 7.4 91.73 10.1
5/4/2022 1:00:00 PM 11.75 53.15 0.221 7.4 96.22 10.08
5/4/2022 1:15:00 PM 11.82 53.276 0.208 7.39 113.33 10.07
5/4/2022 1:30:00 PM 11.88 53.384 0.217 7.38 632.6 10.06
5/4/2022 1:45:00 PM 11.93 53.474 0.215 7.38 105.57 10.05
5/4/2022 2:00:00 PM 11.98 53.564 0.213 7.37 107.76 10.04
5/4/2022 2:15:00 PM 12.04 53.672 0.209 7.37 109.93 10.03
5/4/2022 2:30:00 PM 12.13 53.834 0.206 7.37 104.9 10.02
5/4/2022 2:45:00 PM 12.24 54.032 0.201 7.35 122.18 10
5/4/2022 3:00:00 PM 12.3 54.14 0.197 7.35 124.32 10
5/4/2022 3:15:00 PM 12.38 54.284 0.193 7.34 119.9 9.98
5/4/2022 3:30:00 PM 12.4 54.32 0.191 7.34 118.05 9.98
5/4/2022 3:45:00 PM 12.45 54.41 0.189 7.33 117.81 9.97
5/4/2022 4:00:00 PM 12.53 54.554 0.187 7.34 111.52 9.96
5/4/2022 4:15:00 PM 12.52 54.536 0.185 7.33 104.15 9.96
5/4/2022 4:30:00 PM 12.54 54.572 0.183 7.34 105.58 9.96
5/4/2022 4:45:00 PM 12.55 54.59 0.182 7.33 102.69 9.95
5/4/2022 5:00:00 PM 12.56 54.608 0.18 7.33 93.29 9.94
5/4/2022 5:15:00 PM 12.56 54.608 0.179 7.33 96.76 9.94
5/4/2022 5:30:00 PM 12.54 54.572 0.178 7.34 92.17 9.94
5/4/2022 5:45:00 PM 12.52 54.536 0.177 7.33 89.95 9.94
5/4/2022 6:00:00 PM 12.49 54.482 0.177 7.32 85.82 9.94
5/4/2022 6:15:00 PM 12.46 54.428 0.177 7.33 83.05 9.94
5/4/2022 6:30:00 PM 12.44 54.392 0.176 7.33 78.79 9.94
5/4/2022 6:45:00 PM 12.42 54.356 0.176 7.34 75.89 9.94
5/4/2022 7:00:00 PM 12.38 54.284 0.176 7.32 72.17 9.94
5/4/2022 7:15:00 PM 12.35 54.23 0.176 7.32 68.5 9.95
5/4/2022 7:30:00 PM 12.31 54.158 0.176 7.33 65.52 9.95
5/4/2022 7:45:00 PM 12.28 54.104 0.176 7.33 60.81 9.95
5/4/2022 8:00:00 PM 12.26 54.068 0.176 7.33 57.67 9.96
5/4/2022 8:15:00 PM 12.24 54.032 0.176 7.32 55 9.96
5/4/2022 8:30:00 PM 12.23 54.014 0.177 7.32 54.57 9.96
5/4/2022 8:45:00 PM 12.22 53.996 0.177 7.31 52.12 9.96
5/4/2022 9:00:00 PM 12.2 53.96 0.177 7.32 48.05 9.96
5/4/2022 9:15:00 PM 12.17 53.906 0.177 7.32 46.96 9.97
5/4/2022 9:30:00 PM 12.15 53.87 0.177 7.3 47.43 9.97
5/4/2022 9:45:00 PM 12.12 53.816 0.177 7.32 45.25 9.98
5/4/2022 10:00:00 PM 12.1 53.78 0.177 7.32 44.07 9.99
5/4/2022 10:15:00 PM 12.08 53.744 0.177 7.32 42.66 9.99
5/4/2022 10:30:00 PM 12.06 53.708 0.177 7.31 41.75 9.99
5/4/2022 10:45:00 PM 12.04 53.672 0.177 7.31 38.78 10
5/4/2022 11:00:00 PM 12.02 53.636 0.176 7.31 39.89 10.01
5/4/2022 11:15:00 PM 12.01 53.618 0.176 7.3 38.24 10.01
5/4/2022 11:30:00 PM 11.99 53.582 0.176 7.3 37.3 10.01
5/4/2022 11:45:00 PM 11.97 53.546 0.176 7.29 36.84 10.02
5/5/2022 12:00:00 AM 11.95 53.51 0.176 7.3 36.77 10.03
5/5/2022 12:15:00 AM 11.93 53.474 0.176 7.3 34.15 10.03
5/5/2022 12:30:00 AM 11.9 53.42 0.176 7.3 33.38 10.04
5/5/2022 12:45:00 AM 11.87 53.366 0.176 7.31 32.83 10.04
5/5/2022 1:00:00 AM 11.85 53.33 0.176 7.3 32.16 10.05
5/5/2022 1:15:00 AM 11.83 53.294 0.176 7.3 31.69 10.06
5/5/2022 1:30:00 AM 11.8 53.24 0.176 7.3 30.25 10.06
5/5/2022 1:45:00 AM 11.78 53.204 0.177 7.3 30.83 10.07
5/5/2022 2:00:00 AM 11.75 53.15 0.177 7.3 29.76 10.08
5/5/2022 2:15:00 AM 11.72 53.096 0.177 7.3 29.51 10.09
5/5/2022 2:30:00 AM 11.7 53.06 0.177 7.3 27.87 10.1
5/5/2022 2:45:00 AM 11.67 53.006 0.178 7.31 28.12 10.1
5/5/2022 3:00:00 AM 11.63 52.934 0.178 7.31 27.22 10.11
5/5/2022 3:15:00 AM 11.6 52.88 0.178 7.3 25.97 10.12
5/5/2022 3:30:00 AM 11.55 52.79 0.179 7.3 23.98 10.12
5/5/2022 3:45:00 AM 11.51 52.718 0.179 7.31 25.92 10.13
5/5/2022 4:00:00 AM 11.46 52.628 0.179 7.3 25.56 10.14
5/5/2022 4:15:00 AM 11.42 52.556 0.18 7.29 25.35 10.15
5/5/2022 4:30:00 AM 11.37 52.466 0.18 7.3 24.79 10.16
5/5/2022 4:45:00 AM 11.32 52.376 0.18 7.3 24.19 10.17
5/5/2022 5:00:00 AM 11.26 52.268 0.181 7.31 24.53 10.18
5/5/2022 5:15:00 AM 11.21 52.178 0.181 7.3 23.25 10.2
5/5/2022 5:30:00 AM 11.15 52.07 0.18 7.3 24.59 10.21
5/5/2022 5:45:00 AM 11.09 51.962 0.182 7.3 23.33 10.23
5/5/2022 6:00:00 AM 11.03 51.854 0.182 7.31 23.58 10.24
5/5/2022 6:15:00 AM 10.98 51.764 0.183 7.31 22.45 10.26
5/5/2022 6:30:00 AM 10.92 51.656 0.183 7.3 18.36 10.28
5/5/2022 6:45:00 AM 10.87 51.566 0.183 7.3 21.15 10.3
5/5/2022 7:00:00 AM 10.81 51.458 0.184 7.31 21.91 10.32
5/5/2022 7:15:00 AM 10.77 51.386 0.184 7.31 21.08 10.34
5/5/2022 7:30:00 AM 10.71 51.278 0.185 7.32 20.46 10.36
5/5/2022 7:45:00 AM 10.67 51.206 0.185 7.32 20.42 10.38
5/5/2022 8:00:00 AM 10.64 51.152 0.185 7.32 20.03 10.4
5/5/2022 8:15:00 AM 10.62 51.116 0.186 7.32 20.01 10.42
5/5/2022 8:30:00 AM 10.61 51.098 0.186 7.32 19.16 10.45
5/5/2022 8:45:00 AM 10.61 51.098 0.187 7.33 19.37 10.47
5/5/2022 9:00:00 AM 10.62 51.116 0.187 7.34 18.65 10.49
5/5/2022 9:15:00 AM 10.65 51.17 0.187 7.34 18.31 10.51
5/5/2022 9:30:00 AM 10.69 51.242 0.188 7.35 18.02 10.52
5/5/2022 9:45:00 AM 10.74 51.332 0.188 7.35 17.99 10.54
5/5/2022 10:00:00 AM 10.8 51.44 0.188 7.36 17.58 10.55
5/5/2022 10:15:00 AM 10.87 51.566 0.189 7.36 16.87 10.56
5/5/2022 10:30:00 AM 10.96 51.728 0.189 7.36 16.75 10.57
5/5/2022 10:45:00 AM 11.05 51.89 0.189 7.37 15.66 10.57
5/5/2022 11:00:00 AM 11.15 52.07 0.19 7.38 17.46 10.57
5/5/2022 11:15:00 AM 11.24 52.232 0.189 7.38 15.28 10.57
5/5/2022 11:30:00 AM 11.35 52.43 0.19 7.39 16.38 10.57
5/5/2022 11:45:00 AM 11.45 52.61 0.191 7.4 15.04 10.57
5/5/2022 12:00:00 PM 11.55 52.79 0.191 7.4 14.62 10.57
5/5/2022 12:15:00 PM 11.68 53.024 0.192 7.42 14.74 10.57
5/5/2022 12:30:00 PM 11.81 53.258 0.192 7.41 14.78 10.56
5/5/2022 12:45:00 PM 11.95 53.51 0.192 7.42 15.73 10.55
5/5/2022 1:00:00 PM 12.07 53.726 0.193 7.43 14.92 10.53
5/5/2022 1:15:00 PM 12.21 53.978 0.193 7.43 13.73 10.52
5/5/2022 1:30:00 PM 12.39 54.302 0.193 7.44 15.16 10.5
5/5/2022 1:45:00 PM 12.52 54.536 0.193 7.44 14.37 10.48
5/5/2022 2:00:00 PM 12.7 54.86 0.194 7.45 13.61 10.46
5/5/2022 2:15:00 PM 12.87 55.166 0.194 7.45 13.75 10.42
5/5/2022 2:30:00 PM 13.06 55.508 0.195 7.46 13.64 10.4
5/5/2022 2:45:00 PM 13.21 55.778 0.195 7.46 13.92 10.37
5/5/2022 3:00:00 PM 13.37 56.066 0.195 7.47 14.17 10.34
5/5/2022 3:15:00 PM 13.49 56.282 0.195 7.47 13.27 10.31
5/5/2022 3:30:00 PM 13.51 56.318 0.195 7.47 14.31 10.28
5/5/2022 3:45:00 PM 13.6 56.48 0.196 7.48 12.63 10.25
5/5/2022 4:00:00 PM 13.62 56.516 0.196 7.48 13.43 10.23
5/5/2022 4:15:00 PM 13.64 56.552 0.196 7.48 13.97 10.2
5/5/2022 4:30:00 PM 13.69 56.642 0.196 7.48 13.2 10.17
5/5/2022 4:45:00 PM 13.72 56.696 0.196 7.48 13.68 10.16
5/5/2022 5:00:00 PM 13.75 56.75 0.197 7.48 13.24 10.14
5/5/2022 5:15:00 PM 13.74 56.732 0.197 7.48 14.28 10.12
5/5/2022 5:30:00 PM 13.73 56.714 0.197 7.48 12.7 10.1
5/5/2022 5:45:00 PM 13.69 56.642 0.197 7.48 12.64 10.07
5/5/2022 6:00:00 PM 13.68 56.624 0.198 7.48 12.35 10.05
5/5/2022 6:15:00 PM 13.67 56.606 0.198 7.47 12.21 10.02
5/5/2022 6:30:00 PM 13.66 56.588 0.198 7.47 12.25 10
5/5/2022 6:45:00 PM 13.64 56.552 0.198 7.47 13.52 9.99
5/5/2022 7:00:00 PM 13.59 56.462 0.198 7.46 12.87 9.97
5/5/2022 7:15:00 PM 13.54 56.372 0.199 7.46 12.17 9.95
5/5/2022 7:30:00 PM 13.49 56.282 0.199 7.45 13.24 9.93
5/5/2022 7:45:00 PM 13.44 56.192 0.199 7.45 12.15 9.91
5/5/2022 8:00:00 PM 13.39 56.102 0.199 7.44 12.16 9.9
5/5/2022 8:15:00 PM 13.34 56.012 0.2 7.43 12.53 9.88
5/5/2022 8:30:00 PM 13.29 55.922 0.2 7.43 12.01 9.87
5/5/2022 8:45:00 PM 13.25 55.85 0.2 7.42 12.67 9.86
5/5/2022 9:00:00 PM 13.21 55.778 0.2 7.41 12.51 9.85
5/5/2022 9:15:00 PM 13.17 55.706 0.201 7.41 12.58 9.84
5/5/2022 9:30:00 PM 13.13 55.634 0.201 7.41 13.16 9.84
5/5/2022 9:45:00 PM 13.09 55.562 0.201 7.4 12.24 9.83
5/5/2022 10:00:00 PM 13.05 55.49 0.201 7.4 12.19 9.83
5/5/2022 10:15:00 PM 13.01 55.418 0.202 7.4 12.28 9.83
5/5/2022 10:30:00 PM 12.97 55.346 0.202 7.39 13.07 9.83
5/5/2022 10:45:00 PM 12.93 55.274 0.202 7.39 12.63 9.83
5/5/2022 11:00:00 PM 12.9 55.22 0.202 7.39 13.32 9.83
5/5/2022 11:15:00 PM 12.87 55.166 0.202 7.38 13.66 9.83
5/5/2022 11:30:00 PM 12.84 55.112 0.203 7.38 13.7 9.84
5/5/2022 11:45:00 PM 12.8 55.04 0.203 7.37 12.21 9.84
5/6/2022 12:00:00 AM 12.77 54.986 0.203 7.38 12.56 9.84
5/6/2022 12:15:00 AM 12.74 54.932 0.203 7.38 12.54 9.84
5/6/2022 12:30:00 AM 12.71 54.878 0.204 7.37 13.73 9.85
5/6/2022 12:45:00 AM 12.68 54.824 0.204 7.37 12.33 9.85
5/6/2022 1:00:00 AM 12.65 54.77 0.204 7.37 12.24 9.85
5/6/2022 1:15:00 AM 12.63 54.734 0.204 7.37 12.36 9.86
5/6/2022 1:30:00 AM 12.6 54.68 0.204 7.37 12.95 9.86
5/6/2022 1:45:00 AM 12.58 54.644 0.205 7.37 12.82 9.87
5/6/2022 2:00:00 AM 12.56 54.608 0.205 7.37 12.72 9.87
5/6/2022 2:15:00 AM 12.53 54.554 0.205 7.38 12.13 9.87
5/6/2022 2:30:00 AM 12.51 54.518 0.205 7.38 13.33 9.87
5/6/2022 2:45:00 AM 12.49 54.482 0.205 7.38 13.28 9.88
5/6/2022 3:00:00 AM 12.47 54.446 0.206 7.38 11.66 9.88
5/6/2022 3:15:00 AM 12.44 54.392 0.206 7.37 11.43 9.88
5/6/2022 3:30:00 AM 12.43 54.374 0.206 7.38 13.07 9.88
5/6/2022 3:45:00 AM 12.4 54.32 0.206 7.38 11.87 9.89
5/6/2022 4:00:00 AM 12.38 54.284 0.206 7.38 12.46 9.89
5/6/2022 4:15:00 AM 12.36 54.248 0.207 7.38 12.47 9.89
5/6/2022 4:30:00 AM 12.34 54.212 0.207 7.39 11.82 9.9
5/6/2022 4:45:00 AM 12.32 54.176 0.207 7.39 11.82 9.9
5/6/2022 5:00:00 AM 12.29 54.122 0.207 7.39 12.78 9.9
5/6/2022 5:15:00 AM 12.27 54.086 0.208 7.39 12.57 9.91
5/6/2022 5:30:00 AM 12.24 54.032 0.208 7.39 12.43 9.91
5/6/2022 5:45:00 AM 12.21 53.978 0.208 7.39 11.9 9.92
5/6/2022 6:00:00 AM 12.19 53.942 0.208 7.39 12.93 9.92
5/6/2022 6:15:00 AM 12.16 53.888 0.208 7.39 11.75 9.93
5/6/2022 6:30:00 AM 12.12 53.816 0.208 7.39 12.39 9.94
5/6/2022 6:45:00 AM 12.09 53.762 0.208 7.39 12.93 9.95
5/6/2022 7:00:00 AM 12.06 53.708 0.208 7.38 11.69 9.96
5/6/2022 7:15:00 AM 12.03 53.654 0.208 7.39 11.76 9.97
5/6/2022 7:30:00 AM 12.01 53.618 0.208 7.39 11.55 9.98
5/6/2022 7:45:00 AM 11.98 53.564 0.208 7.39 11.87 10
5/6/2022 8:00:00 AM 11.95 53.51 0.208 7.38 11.74 10
5/6/2022 8:15:00 AM 11.93 53.474 0.208 7.39 11.56 10.01
5/6/2022 8:30:00 AM 11.9 53.42 0.208 7.39 11.08 10.02
5/6/2022 8:45:00 AM 11.87 53.366 0.208 7.39 10.88 10.03
5/6/2022 9:00:00 AM 11.85 53.33 0.208 7.39 11.13 10.05
5/6/2022 9:15:00 AM 11.83 53.294 0.209 7.39 12.12 10.06
5/6/2022 9:30:00 AM 11.81 53.258 0.209 7.39 12 10.08
5/6/2022 9:45:00 AM 11.79 53.222 0.209 7.39 11.66 10.09
5/6/2022 10:00:00 AM 11.76 53.168 0.209 7.4 10.92 10.1
5/6/2022 10:15:00 AM 11.74 53.132 0.209 7.39 10.83 10.12
5/6/2022 10:30:00 AM 11.72 53.096 0.21 7.4 12.21 10.13
5/6/2022 10:45:00 AM 11.7 53.06 0.21 7.4 11.26 10.14
5/6/2022 11:00:00 AM 11.68 53.024 0.21 7.4 12.5 10.16
5/6/2022 11:15:00 AM 11.65 52.97 0.21 7.39 11.1 10.16
5/6/2022 11:30:00 AM 11.63 52.934 0.21 7.41 11.84 10.17
5/6/2022 11:45:00 AM 11.61 52.898 0.21 7.4 12.14 10.18
5/6/2022 12:00:00 PM 11.59 52.862 0.209 7.4 12.41 10.19
5/6/2022 12:15:00 PM 11.56 52.808 0.209 7.41 12.05 10.19
5/6/2022 12:30:00 PM 11.54 52.772 0.208 7.4 12.24 10.2
5/6/2022 12:45:00 PM 11.52 52.736 0.208 7.4 14.02 10.21
5/6/2022 1:00:00 PM 11.5 52.7 0.208 7.4 13.85 10.22
5/6/2022 1:15:00 PM 11.47 52.646 0.207 7.4 13.97 10.23
5/6/2022 1:30:00 PM 11.45 52.61 0.207 7.39 16 10.23
5/6/2022 1:45:00 PM 11.43 52.574 0.206 7.39 17.09 10.23
5/6/2022 2:00:00 PM 11.41 52.538 0.205 7.38 18.24 10.23
5/6/2022 2:15:00 PM 11.39 52.502 0.205 7.37 20.65 10.24
5/6/2022 2:30:00 PM 11.37 52.466 0.204 7.38 24.35 10.24
5/6/2022 2:45:00 PM 11.35 52.43 0.203 7.37 21.52 10.25
5/6/2022 3:00:00 PM 11.33 52.394 0.203 7.37 25.68 10.25
5/6/2022 3:15:00 PM 11.31 52.358 0.203 7.37 27.66 10.25
5/6/2022 3:30:00 PM 11.29 52.322 0.202 7.36 29.51 10.25
5/6/2022 3:45:00 PM 11.27 52.286 0.201 7.35 31.81 10.24
5/6/2022 4:00:00 PM 11.25 52.25 0.201 7.35 34.76 10.24
5/6/2022 4:15:00 PM 11.23 52.214 0.2 7.35 35.55 10.23
5/6/2022 4:30:00 PM 11.21 52.178 0.2 7.34 37.33 10.23
5/6/2022 4:45:00 PM 11.2 52.16 0.199 7.34 39.51 10.23
5/6/2022 5:00:00 PM 11.18 52.124 0.198 7.33 40.37 10.23
5/6/2022 5:15:00 PM 11.16 52.088 0.197 7.33 42.01 10.22
5/6/2022 5:30:00 PM 11.13 52.034 0.197 7.33 43.85 10.22
5/6/2022 5:45:00 PM 11.11 51.998 0.196 7.33 47.17 10.22
5/6/2022 6:00:00 PM 11.08 51.944 0.195 7.32 48.5 10.22
5/6/2022 6:15:00 PM 11.06 51.908 0.193 7.31 50.61 10.22
5/6/2022 6:30:00 PM 11.04 51.872 0.192 7.3 53.68 10.22
5/6/2022 6:45:00 PM 11.02 51.836 0.191 7.32 58.09 10.22
5/6/2022 7:00:00 PM 10.99 51.782 0.191 7.31 62.61 10.21
5/6/2022 7:15:00 PM 10.97 51.746 0.191 7.31 64.12 10.21
5/6/2022 7:30:00 PM 10.95 51.71 0.19 7.32 66.42 10.21
5/6/2022 7:45:00 PM 10.92 51.656 0.19 7.3 68.63 10.21
5/6/2022 8:00:00 PM 10.9 51.62 0.189 7.29 72.23 10.2
5/6/2022 8:15:00 PM 10.88 51.584 0.187 7.29 70.47 10.2
5/6/2022 8:30:00 PM 10.85 51.53 0.149 7.28 867.55 10.2
5/6/2022 8:45:00 PM 10.82 51.476 0.181 7.28 79 10.2
5/6/2022 9:00:00 PM 10.79 51.422 0.18 7.27 83.52 10.21
5/6/2022 9:15:00 PM 10.76 51.368 0.177 7.27 84.97 10.21
5/6/2022 9:30:00 PM 10.74 51.332 0.174 7.26 89.89 10.21
5/6/2022 9:45:00 PM 10.71 51.278 0.172 7.24 97.07 10.21
5/6/2022 10:00:00 PM 10.69 51.242 0.17 7.24 88.7 10.21
5/6/2022 10:15:00 PM 10.67 51.206 0.168 7.22 95.38 10.21
5/6/2022 10:30:00 PM 10.64 51.152 0.165 7.22 97.75 10.21
5/6/2022 10:45:00 PM 10.62 51.116 0.163 7.21 109.21 10.21
5/6/2022 11:00:00 PM 10.59 51.062 0.161 7.21 100.67 10.22
5/6/2022 11:15:00 PM 10.57 51.026 0.159 7.19 103.13 10.22
5/6/2022 11:30:00 PM 10.54 50.972 0.157 7.19 110.4 10.22
5/6/2022 11:45:00 PM 10.52 50.936 0.155 7.17 113.23 10.22
5/7/2022 12:00:00 AM 10.5 50.9 0.154 7.16 115.49 10.22
5/7/2022 12:15:00 AM 10.48 50.864 0.152 7.14 121.16 10.21
5/7/2022 12:30:00 AM 10.46 50.828 0.151 7.13 139.72 10.2
5/7/2022 12:45:00 AM 10.44 50.792 0.15 7.1 142.33 10.16
5/7/2022 1:00:00 AM 10.42 50.756 0.148 7.11 123.68 10.18
5/7/2022 1:15:00 AM 10.39 50.702 0.147 7.11 125.64 10.19
5/7/2022 1:30:00 AM 10.37 50.666 0.146 7.1 119.41 10.2
5/7/2022 1:45:00 AM 10.35 50.63 0.145 7.1 117.41 10.2
5/7/2022 2:00:00 AM 10.32 50.576 0.144 7.1 117.2 10.21
5/7/2022 2:15:00 AM 10.3 50.54 0.142 6.97 117.26 10.21
5/7/2022 2:30:00 AM 10.28 50.504 0.14 7.08 117.78 10.22
5/7/2022 2:45:00 AM 10.26 50.468 0.138 7.08 108.89 10.23
5/7/2022 3:00:00 AM 10.23 50.414 0.137 7.07 107.75 10.23
5/7/2022 3:15:00 AM 10.21 50.378 0.134 7.07 106.28 10.23
5/7/2022 3:30:00 AM 10.19 50.342 0.135 7.07 103.1 10.24
5/7/2022 3:45:00 AM 10.17 50.306 0.134 7.07 105.47 10.25
5/7/2022 4:00:00 AM 10.14 50.252 0.134 7.06 95.33 10.25
5/7/2022 4:15:00 AM 10.13 50.234 0.134 7.06 100.52 10.25
5/7/2022 4:30:00 AM 10.11 50.198 0.133 7.06 102.09 10.26
5/7/2022 4:45:00 AM 10.08 50.144 0.133 7.06 170.38 10.26
5/7/2022 5:00:00 AM 10.06 50.108 0.133 7.05 90.15 10.27
5/7/2022 5:15:00 AM 10.04 50.072 0.132 7.04 87.11 10.28
5/7/2022 5:30:00 AM 10.02 50.036 0.132 7.05 94.79 10.28
5/7/2022 5:45:00 AM 10 50 0.131 7.03 94.13 10.29
5/7/2022 6:00:00 AM 9.98 49.964 0.13 7.04 93.12 10.29
5/7/2022 6:15:00 AM 9.96 49.928 0.129 7.03 103.21 10.29
5/7/2022 6:30:00 AM 9.93 49.874 0.128 7.03 105.3 10.3
5/7/2022 6:45:00 AM 9.91 49.838 0.127 7.02 100.8 10.3
5/7/2022 7:00:00 AM 9.89 49.802 0.126 7.02 104.27 10.31
5/7/2022 7:15:00 AM 9.87 49.766 0.125 7.02 103.97 10.31
5/7/2022 7:30:00 AM 9.85 49.73 0.124 7.01 110.76 10.32
5/7/2022 7:45:00 AM 9.83 49.694 0.123 7.01 114.8 10.33
5/7/2022 8:00:00 AM 9.81 49.658 0.123 6.96 107.6 10.34
5/7/2022 8:15:00 AM 9.79 49.622 0.122 7 99.47 10.34
5/7/2022 8:30:00 AM 9.78 49.604 0.116 6.99 99.81 10.36
5/7/2022 8:45:00 AM 9.76 49.568 0.121 6.98 99.35 10.37
5/7/2022 9:00:00 AM 9.75 49.55 0.116 6.97 97.45 10.37
5/7/2022 9:15:00 AM 9.74 49.532 0.121 6.97 90.94 10.38
5/7/2022 9:30:00 AM 9.74 49.532 0.121 6.99 87.69 10.39
5/7/2022 9:45:00 AM 9.73 49.514 0.121 6.98 84.5 10.4
5/7/2022 10:00:00 AM 9.73 49.514 0.121